<?xml version="1.0" encoding="UTF-8" standalone="no" ?>
<gpx xmlns="http://www.topografix.com/GPX/1/1" xmlns:xsi="http://www.w3.org/2001/XMLSchema-instance" xsi:schemaLocation="http://www.topografix.com/GPX/1/1 http://www.topografix.com/GPX/1/1/gpx.xsd" version="1.1" creator="VisuGPX - https://www.visugpx.com">
  <metadata>
    <name>VTTN41K890MBS</name>
  </metadata>
  <trk>
    <name><![CDATA[La Chapelle-de-Guinchay VTT]]></name>
    <extensions>
      <line xmlns="http://www.topografix.com/GPX/gpx_style/0/2">
        <color>0000FF</color>
        <width>4</width>
      </line>
    </extensions>
    <trkseg>
      <trkpt lat="46.21243" lon="4.75639">
        <ele>194</ele>
        <time>2022-04-21T12:14:40.000Z</time>
      </trkpt>
      <trkpt lat="46.21256" lon="4.75638">
        <ele>193.8</ele>
      </trkpt>
      <trkpt lat="46.21327" lon="4.75681">
        <ele>190.9</ele>
      </trkpt>
      <trkpt lat="46.21379" lon="4.75728">
        <ele>192.6</ele>
        <time>2022-04-21T12:16:14.000Z</time>
      </trkpt>
      <trkpt lat="46.21424" lon="4.75673">
        <ele>193.4</ele>
        <time>2022-04-21T12:16:25.000Z</time>
      </trkpt>
      <trkpt lat="46.2149" lon="4.75625">
        <ele>194</ele>
        <time>2022-04-21T12:16:42.000Z</time>
      </trkpt>
      <trkpt lat="46.21498" lon="4.75617">
        <ele>194.60000610352</ele>
        <time>2022-04-21T12:16:46.000Z</time>
      </trkpt>
      <trkpt lat="46.21503" lon="4.75609">
        <ele>195</ele>
        <time>2022-04-21T12:16:48.000Z</time>
      </trkpt>
      <trkpt lat="46.2151" lon="4.756">
        <ele>195.39999389648</ele>
        <time>2022-04-21T12:16:50.000Z</time>
      </trkpt>
      <trkpt lat="46.21535" lon="4.75562">
        <ele>197</ele>
        <time>2022-04-21T12:16:58.000Z</time>
      </trkpt>
      <trkpt lat="46.21548" lon="4.75512">
        <ele>197.39999389648</ele>
        <time>2022-04-21T12:17:05.000Z</time>
      </trkpt>
      <trkpt lat="46.21559" lon="4.75444">
        <ele>196.80000305176</ele>
        <time>2022-04-21T12:17:14.000Z</time>
      </trkpt>
      <trkpt lat="46.21585" lon="4.75342">
        <ele>196.19999694824</ele>
        <time>2022-04-21T12:17:27.000Z</time>
      </trkpt>
      <trkpt lat="46.21593" lon="4.75332">
        <ele>196.19999694824</ele>
        <time>2022-04-21T12:17:29.000Z</time>
      </trkpt>
      <trkpt lat="46.21608" lon="4.75309">
        <ele>196.19999694824</ele>
        <time>2022-04-21T12:17:34.000Z</time>
      </trkpt>
      <trkpt lat="46.21632" lon="4.75284">
        <ele>196.60000610352</ele>
        <time>2022-04-21T12:17:40.000Z</time>
      </trkpt>
      <trkpt lat="46.21648" lon="4.75263">
        <ele>196.80000305176</ele>
        <time>2022-04-21T12:17:44.000Z</time>
      </trkpt>
      <trkpt lat="46.21669" lon="4.75229">
        <ele>197.80000305176</ele>
        <time>2022-04-21T12:17:50.000Z</time>
      </trkpt>
      <trkpt lat="46.21694" lon="4.75143">
        <ele>197.19999694824</ele>
        <time>2022-04-21T12:18:02.000Z</time>
      </trkpt>
      <trkpt lat="46.21723" lon="4.75079">
        <ele>197.39999389648</ele>
        <time>2022-04-21T12:18:12.000Z</time>
      </trkpt>
      <trkpt lat="46.21735" lon="4.75043">
        <ele>198.19999694824</ele>
        <time>2022-04-21T12:18:17.000Z</time>
      </trkpt>
      <trkpt lat="46.21744" lon="4.75024">
        <ele>198.60000610352</ele>
        <time>2022-04-21T12:18:20.000Z</time>
      </trkpt>
      <trkpt lat="46.21795" lon="4.74906">
        <ele>199.39999389648</ele>
        <time>2022-04-21T12:18:38.000Z</time>
      </trkpt>
      <trkpt lat="46.2181" lon="4.74872">
        <ele>200</ele>
        <time>2022-04-21T12:18:43.000Z</time>
      </trkpt>
      <trkpt lat="46.21847" lon="4.74859">
        <ele>200.80000305176</ele>
        <time>2022-04-21T12:18:51.000Z</time>
      </trkpt>
      <trkpt lat="46.21909" lon="4.74891">
        <ele>203.19999694824</ele>
        <time>2022-04-21T12:19:03.000Z</time>
      </trkpt>
      <trkpt lat="46.21926" lon="4.7489">
        <ele>204.19999694824</ele>
        <time>2022-04-21T12:19:07.000Z</time>
      </trkpt>
      <trkpt lat="46.21938" lon="4.74881">
        <ele>204.39999389648</ele>
        <time>2022-04-21T12:19:10.000Z</time>
      </trkpt>
      <trkpt lat="46.21945" lon="4.74875">
        <ele>204.60000610352</ele>
        <time>2022-04-21T12:19:12.000Z</time>
      </trkpt>
      <trkpt lat="46.21951" lon="4.74868">
        <ele>204.60000610352</ele>
        <time>2022-04-21T12:19:14.000Z</time>
      </trkpt>
      <trkpt lat="46.21986" lon="4.74792">
        <ele>204.80000305176</ele>
        <time>2022-04-21T12:19:27.000Z</time>
      </trkpt>
      <trkpt lat="46.22039" lon="4.74701">
        <ele>206.60000610352</ele>
        <time>2022-04-21T12:19:45.000Z</time>
      </trkpt>
      <trkpt lat="46.22043" lon="4.74696">
        <ele>206.80000305176</ele>
        <time>2022-04-21T12:19:46.000Z</time>
      </trkpt>
      <trkpt lat="46.22059" lon="4.74684">
        <ele>207.39999389648</ele>
        <time>2022-04-21T12:19:50.000Z</time>
      </trkpt>
      <trkpt lat="46.22077" lon="4.74657">
        <ele>208.39999389648</ele>
        <time>2022-04-21T12:19:56.000Z</time>
      </trkpt>
      <trkpt lat="46.22088" lon="4.74628">
        <ele>208.60000610352</ele>
        <time>2022-04-21T12:20:01.000Z</time>
      </trkpt>
      <trkpt lat="46.22109" lon="4.74624">
        <ele>210.60000610352</ele>
        <time>2022-04-21T12:20:07.000Z</time>
      </trkpt>
      <trkpt lat="46.22143" lon="4.74678">
        <ele>215.19999694824</ele>
        <time>2022-04-21T12:20:18.000Z</time>
      </trkpt>
      <trkpt lat="46.22152" lon="4.74668">
        <ele>215.39999389648</ele>
        <time>2022-04-21T12:20:23.000Z</time>
      </trkpt>
      <trkpt lat="46.22165" lon="4.74611">
        <ele>214.39999389648</ele>
        <time>2022-04-21T12:20:33.000Z</time>
      </trkpt>
      <trkpt lat="46.22157" lon="4.74593">
        <ele>212.60000610352</ele>
        <time>2022-04-21T12:20:36.000Z</time>
      </trkpt>
      <trkpt lat="46.22145" lon="4.7454">
        <ele>208.19999694824</ele>
        <time>2022-04-21T12:20:42.000Z</time>
      </trkpt>
      <trkpt lat="46.22146" lon="4.74497">
        <ele>206.60000610352</ele>
        <time>2022-04-21T12:20:46.000Z</time>
      </trkpt>
      <trkpt lat="46.22144" lon="4.74479">
        <ele>205.80000305176</ele>
        <time>2022-04-21T12:20:48.000Z</time>
      </trkpt>
      <trkpt lat="46.22127" lon="4.74451">
        <ele>204.60000610352</ele>
        <time>2022-04-21T12:20:54.000Z</time>
      </trkpt>
      <trkpt lat="46.22129" lon="4.74429">
        <ele>204.80000305176</ele>
        <time>2022-04-21T12:20:59.000Z</time>
      </trkpt>
      <trkpt lat="46.22155" lon="4.74398">
        <ele>205.80000305176</ele>
        <time>2022-04-21T12:21:07.000Z</time>
      </trkpt>
      <trkpt lat="46.22139" lon="4.74343">
        <ele>206</ele>
        <time>2022-04-21T12:21:36.000Z</time>
      </trkpt>
      <trkpt lat="46.22189" lon="4.74245">
        <ele>205.4</ele>
        <time>2022-04-21T12:21:56.000Z</time>
      </trkpt>
      <trkpt lat="46.22227" lon="4.74177">
        <ele>203.60000610352</ele>
        <time>2022-04-21T12:22:17.000Z</time>
      </trkpt>
      <trkpt lat="46.22237" lon="4.74155">
        <ele>203.80000305176</ele>
        <time>2022-04-21T12:22:23.000Z</time>
      </trkpt>
      <trkpt lat="46.2227" lon="4.74112">
        <ele>205.60000610352</ele>
        <time>2022-04-21T12:22:32.000Z</time>
      </trkpt>
      <trkpt lat="46.22289" lon="4.74112">
        <ele>206.80000305176</ele>
        <time>2022-04-21T12:22:37.000Z</time>
      </trkpt>
      <trkpt lat="46.22293" lon="4.74116">
        <ele>207</ele>
        <time>2022-04-21T12:22:38.000Z</time>
      </trkpt>
      <trkpt lat="46.22347" lon="4.74185">
        <ele>212.19999694824</ele>
        <time>2022-04-21T12:22:52.000Z</time>
      </trkpt>
      <trkpt lat="46.22358" lon="4.74177">
        <ele>213</ele>
        <time>2022-04-21T12:22:56.000Z</time>
      </trkpt>
      <trkpt lat="46.22368" lon="4.7416">
        <ele>213.39999389648</ele>
        <time>2022-04-21T12:22:59.000Z</time>
      </trkpt>
      <trkpt lat="46.22378" lon="4.74143">
        <ele>213.60000610352</ele>
        <time>2022-04-21T12:23:02.000Z</time>
      </trkpt>
      <trkpt lat="46.22451" lon="4.74029">
        <ele>216</ele>
        <time>2022-04-21T12:23:23.000Z</time>
      </trkpt>
      <trkpt lat="46.22454" lon="4.74023">
        <ele>216</ele>
        <time>2022-04-21T12:23:24.000Z</time>
      </trkpt>
      <trkpt lat="46.22495" lon="4.73961">
        <ele>215.39999389648</ele>
        <time>2022-04-21T12:23:36.000Z</time>
      </trkpt>
      <trkpt lat="46.22513" lon="4.73934">
        <ele>215.80000305176</ele>
        <time>2022-04-21T12:23:41.000Z</time>
      </trkpt>
      <trkpt lat="46.22544" lon="4.7388">
        <ele>216.80000305176</ele>
        <time>2022-04-21T12:23:51.000Z</time>
      </trkpt>
      <trkpt lat="46.22551" lon="4.73844">
        <ele>216.60000610352</ele>
        <time>2022-04-21T12:23:57.000Z</time>
      </trkpt>
      <trkpt lat="46.22551" lon="4.73833">
        <ele>216.19999694824</ele>
        <time>2022-04-21T12:23:59.000Z</time>
      </trkpt>
      <trkpt lat="46.22558" lon="4.73814">
        <ele>216.39999389648</ele>
        <time>2022-04-21T12:24:02.000Z</time>
      </trkpt>
      <trkpt lat="46.22574" lon="4.73791">
        <ele>216.39999389648</ele>
        <time>2022-04-21T12:24:06.000Z</time>
      </trkpt>
      <trkpt lat="46.22592" lon="4.73767">
        <ele>216.19999694824</ele>
        <time>2022-04-21T12:24:11.000Z</time>
      </trkpt>
      <trkpt lat="46.22645" lon="4.73677">
        <ele>215.39999389648</ele>
        <time>2022-04-21T12:24:27.000Z</time>
      </trkpt>
      <trkpt lat="46.22692" lon="4.73582">
        <ele>217.60000610352</ele>
        <time>2022-04-21T12:24:42.000Z</time>
      </trkpt>
      <trkpt lat="46.227" lon="4.73568">
        <ele>217.39999389648</ele>
        <time>2022-04-21T12:24:48.000Z</time>
      </trkpt>
      <trkpt lat="46.22693" lon="4.7352">
        <ele>216.39999389648</ele>
        <time>2022-04-21T12:24:55.000Z</time>
      </trkpt>
      <trkpt lat="46.22689" lon="4.73506">
        <ele>216.19999694824</ele>
        <time>2022-04-21T12:24:57.000Z</time>
      </trkpt>
      <trkpt lat="46.22676" lon="4.73472">
        <ele>215.80000305176</ele>
        <time>2022-04-21T12:25:02.000Z</time>
      </trkpt>
      <trkpt lat="46.2265" lon="4.73397">
        <ele>215.80000305176</ele>
        <time>2022-04-21T12:25:12.000Z</time>
      </trkpt>
      <trkpt lat="46.2265" lon="4.73362">
        <ele>216.19999694824</ele>
        <time>2022-04-21T12:25:16.000Z</time>
      </trkpt>
      <trkpt lat="46.22676" lon="4.73214">
        <ele>218.39999389648</ele>
        <time>2022-04-21T12:25:34.000Z</time>
      </trkpt>
      <trkpt lat="46.2271" lon="4.73082">
        <ele>219.39999389648</ele>
        <time>2022-04-21T12:25:52.000Z</time>
      </trkpt>
      <trkpt lat="46.22712" lon="4.73078">
        <ele>219.39999389648</ele>
        <time>2022-04-21T12:25:53.000Z</time>
      </trkpt>
      <trkpt lat="46.22723" lon="4.7308">
        <ele>219.80000305176</ele>
        <time>2022-04-21T12:25:57.000Z</time>
      </trkpt>
      <trkpt lat="46.22765" lon="4.73177">
        <ele>224</ele>
        <time>2022-04-21T12:26:11.000Z</time>
      </trkpt>
      <trkpt lat="46.22813" lon="4.73238">
        <ele>227.60000610352</ele>
        <time>2022-04-21T12:26:22.000Z</time>
      </trkpt>
      <trkpt lat="46.22859" lon="4.73292">
        <ele>229.60000610352</ele>
        <time>2022-04-21T12:26:34.000Z</time>
      </trkpt>
      <trkpt lat="46.22885" lon="4.73328">
        <ele>229.80000305176</ele>
        <time>2022-04-21T12:26:45.000Z</time>
      </trkpt>
      <trkpt lat="46.22911" lon="4.73366">
        <ele>229.39999389648</ele>
        <time>2022-04-21T12:26:56.000Z</time>
      </trkpt>
      <trkpt lat="46.2295" lon="4.73428">
        <ele>226.80000305176</ele>
        <time>2022-04-21T12:27:06.000Z</time>
      </trkpt>
      <trkpt lat="46.22999" lon="4.73496">
        <ele>226</ele>
        <time>2022-04-21T12:27:18.000Z</time>
      </trkpt>
      <trkpt lat="46.23032" lon="4.73548">
        <ele>226.60000610352</ele>
        <time>2022-04-21T12:27:27.000Z</time>
      </trkpt>
      <trkpt lat="46.23058" lon="4.73591">
        <ele>228.60000610352</ele>
        <time>2022-04-21T12:27:34.000Z</time>
      </trkpt>
      <trkpt lat="46.23076" lon="4.73623">
        <ele>229.80000305176</ele>
        <time>2022-04-21T12:27:39.000Z</time>
      </trkpt>
      <trkpt lat="46.2308" lon="4.73629">
        <ele>229.80000305176</ele>
        <time>2022-04-21T12:27:40.000Z</time>
      </trkpt>
      <trkpt lat="46.23124" lon="4.73709">
        <ele>231.39999389648</ele>
        <time>2022-04-21T12:27:53.000Z</time>
      </trkpt>
      <trkpt lat="46.23155" lon="4.73767">
        <ele>232</ele>
        <time>2022-04-21T12:28:06.000Z</time>
      </trkpt>
      <trkpt lat="46.23191" lon="4.73847">
        <ele>232</ele>
        <time>2022-04-21T12:28:18.000Z</time>
      </trkpt>
      <trkpt lat="46.23224" lon="4.73915">
        <ele>232.80000305176</ele>
        <time>2022-04-21T12:28:29.000Z</time>
      </trkpt>
      <trkpt lat="46.23236" lon="4.73906">
        <ele>232.39999389648</ele>
        <time>2022-04-21T12:28:34.000Z</time>
      </trkpt>
      <trkpt lat="46.23281" lon="4.73762">
        <ele>231</ele>
        <time>2022-04-21T12:28:50.000Z</time>
      </trkpt>
      <trkpt lat="46.23289" lon="4.73737">
        <ele>231.80000305176</ele>
        <time>2022-04-21T12:28:53.000Z</time>
      </trkpt>
      <trkpt lat="46.23321" lon="4.73691">
        <ele>234.39999389648</ele>
        <time>2022-04-21T12:29:01.000Z</time>
      </trkpt>
      <trkpt lat="46.23327" lon="4.7369">
        <ele>234.39999389648</ele>
        <time>2022-04-21T12:29:02.000Z</time>
      </trkpt>
      <trkpt lat="46.23378" lon="4.7369">
        <ele>234.39999389648</ele>
        <time>2022-04-21T12:29:11.000Z</time>
      </trkpt>
      <trkpt lat="46.23405" lon="4.73703">
        <ele>234.19999694824</ele>
        <time>2022-04-21T12:29:16.000Z</time>
      </trkpt>
      <trkpt lat="46.23473" lon="4.73755">
        <ele>237</ele>
        <time>2022-04-21T12:29:29.000Z</time>
      </trkpt>
      <trkpt lat="46.23525" lon="4.73786">
        <ele>240.19999694824</ele>
        <time>2022-04-21T12:29:39.000Z</time>
      </trkpt>
      <trkpt lat="46.23551" lon="4.73797">
        <ele>241.60000610352</ele>
        <time>2022-04-21T12:29:44.000Z</time>
      </trkpt>
      <trkpt lat="46.23583" lon="4.73793">
        <ele>243.60000610352</ele>
        <time>2022-04-21T12:29:52.000Z</time>
      </trkpt>
      <trkpt lat="46.23648" lon="4.73762">
        <ele>248.39999389648</ele>
        <time>2022-04-21T12:30:06.000Z</time>
      </trkpt>
      <trkpt lat="46.23696" lon="4.73717">
        <ele>252.19999694824</ele>
        <time>2022-04-21T12:30:17.000Z</time>
      </trkpt>
      <trkpt lat="46.23714" lon="4.737">
        <ele>253</ele>
        <time>2022-04-21T12:30:21.000Z</time>
      </trkpt>
      <trkpt lat="46.23748" lon="4.73669">
        <ele>253</ele>
        <time>2022-04-21T12:30:29.000Z</time>
      </trkpt>
      <trkpt lat="46.23781" lon="4.73644">
        <ele>253</ele>
        <time>2022-04-21T12:30:36.000Z</time>
      </trkpt>
      <trkpt lat="46.23787" lon="4.73641">
        <ele>253</ele>
        <time>2022-04-21T12:30:37.000Z</time>
      </trkpt>
      <trkpt lat="46.23862" lon="4.73622">
        <ele>253</ele>
        <time>2022-04-21T12:30:51.000Z</time>
      </trkpt>
      <trkpt lat="46.23939" lon="4.73623">
        <ele>253</ele>
        <time>2022-04-21T12:31:04.000Z</time>
      </trkpt>
      <trkpt lat="46.24003" lon="4.73625">
        <ele>254</ele>
        <time>2022-04-21T12:31:15.000Z</time>
      </trkpt>
      <trkpt lat="46.24037" lon="4.73615">
        <ele>255</ele>
        <time>2022-04-21T12:31:21.000Z</time>
      </trkpt>
      <trkpt lat="46.24058" lon="4.7361">
        <ele>255.60000610352</ele>
        <time>2022-04-21T12:31:25.000Z</time>
      </trkpt>
      <trkpt lat="46.24102" lon="4.7362">
        <ele>258.39999389648</ele>
        <time>2022-04-21T12:31:33.000Z</time>
      </trkpt>
      <trkpt lat="46.24113" lon="4.73622">
        <ele>259</ele>
        <time>2022-04-21T12:31:35.000Z</time>
      </trkpt>
      <trkpt lat="46.24141" lon="4.73614">
        <ele>260.60000610352</ele>
        <time>2022-04-21T12:31:40.000Z</time>
      </trkpt>
      <trkpt lat="46.24163" lon="4.73603">
        <ele>262</ele>
        <time>2022-04-21T12:31:44.000Z</time>
      </trkpt>
      <trkpt lat="46.24232" lon="4.73568">
        <ele>266.60000610352</ele>
        <time>2022-04-21T12:31:57.000Z</time>
      </trkpt>
      <trkpt lat="46.2427" lon="4.73556">
        <ele>268.60000610352</ele>
        <time>2022-04-21T12:32:04.000Z</time>
      </trkpt>
      <trkpt lat="46.24301" lon="4.73548">
        <ele>269.79998779297</ele>
        <time>2022-04-21T12:32:10.000Z</time>
      </trkpt>
      <trkpt lat="46.24336" lon="4.73545">
        <ele>271.60000610352</ele>
        <time>2022-04-21T12:32:18.000Z</time>
      </trkpt>
      <trkpt lat="46.24339" lon="4.73544">
        <ele>271.79998779297</ele>
        <time>2022-04-21T12:32:19.000Z</time>
      </trkpt>
      <trkpt lat="46.24352" lon="4.73537">
        <ele>272.39999389648</ele>
        <time>2022-04-21T12:32:22.000Z</time>
      </trkpt>
      <trkpt lat="46.24378" lon="4.73533">
        <ele>273.79998779297</ele>
        <time>2022-04-21T12:32:27.000Z</time>
      </trkpt>
      <trkpt lat="46.24482" lon="4.73544">
        <ele>280.39999389648</ele>
        <time>2022-04-21T12:32:46.000Z</time>
      </trkpt>
      <trkpt lat="46.24514" lon="4.73548">
        <ele>283.20001220703</ele>
        <time>2022-04-21T12:32:55.000Z</time>
      </trkpt>
      <trkpt lat="46.24542" lon="4.73546">
        <ele>286</ele>
        <time>2022-04-21T12:33:01.000Z</time>
      </trkpt>
      <trkpt lat="46.24602" lon="4.73538">
        <ele>291.39999389648</ele>
        <time>2022-04-21T12:33:13.000Z</time>
      </trkpt>
      <trkpt lat="46.24612" lon="4.73535">
        <ele>292.20001220703</ele>
        <time>2022-04-21T12:33:15.000Z</time>
      </trkpt>
      <trkpt lat="46.24622" lon="4.73534">
        <ele>293</ele>
        <time>2022-04-21T12:33:17.000Z</time>
      </trkpt>
      <trkpt lat="46.24631" lon="4.73535">
        <ele>293.79998779297</ele>
        <time>2022-04-21T12:33:19.000Z</time>
      </trkpt>
      <trkpt lat="46.24643" lon="4.7354">
        <ele>294.79998779297</ele>
        <time>2022-04-21T12:33:22.000Z</time>
      </trkpt>
      <trkpt lat="46.2465" lon="4.73562">
        <ele>295</ele>
        <time>2022-04-21T12:33:26.000Z</time>
      </trkpt>
      <trkpt lat="46.24648" lon="4.73577">
        <ele>295</ele>
        <time>2022-04-21T12:33:28.000Z</time>
      </trkpt>
      <trkpt lat="46.24646" lon="4.7362">
        <ele>295</ele>
        <time>2022-04-21T12:33:35.000Z</time>
      </trkpt>
      <trkpt lat="46.24618" lon="4.73694">
        <ele>294.20001220703</ele>
        <time>2022-04-21T12:33:46.000Z</time>
      </trkpt>
      <trkpt lat="46.24585" lon="4.73754">
        <ele>293.79998779297</ele>
        <time>2022-04-21T12:33:56.000Z</time>
      </trkpt>
      <trkpt lat="46.24558" lon="4.73772">
        <ele>293.79998779297</ele>
        <time>2022-04-21T12:34:02.000Z</time>
      </trkpt>
      <trkpt lat="46.24545" lon="4.7381">
        <ele>294.79998779297</ele>
        <time>2022-04-21T12:34:09.000Z</time>
      </trkpt>
      <trkpt lat="46.2455" lon="4.73833">
        <ele>296.20001220703</ele>
        <time>2022-04-21T12:34:12.000Z</time>
      </trkpt>
      <trkpt lat="46.24566" lon="4.7391">
        <ele>300.60000610352</ele>
        <time>2022-04-21T12:34:24.000Z</time>
      </trkpt>
      <trkpt lat="46.24584" lon="4.73916">
        <ele>301.20001220703</ele>
        <time>2022-04-21T12:34:30.000Z</time>
      </trkpt>
      <trkpt lat="46.24654" lon="4.7392">
        <ele>302.20001220703</ele>
        <time>2022-04-21T12:34:46.000Z</time>
      </trkpt>
      <trkpt lat="46.24664" lon="4.73876">
        <ele>300</ele>
        <time>2022-04-21T12:34:55.000Z</time>
      </trkpt>
      <trkpt lat="46.2467" lon="4.73837">
        <ele>298.79998779297</ele>
        <time>2022-04-21T12:35:02.000Z</time>
      </trkpt>
      <trkpt lat="46.24682" lon="4.73837">
        <ele>298.79998779297</ele>
        <time>2022-04-21T12:35:06.000Z</time>
      </trkpt>
      <trkpt lat="46.24699" lon="4.73856">
        <ele>299</ele>
        <time>2022-04-21T12:35:10.000Z</time>
      </trkpt>
      <trkpt lat="46.24707" lon="4.73864">
        <ele>299</ele>
        <time>2022-04-21T12:35:12.000Z</time>
      </trkpt>
      <trkpt lat="46.24757" lon="4.73874">
        <ele>296.60000610352</ele>
        <time>2022-04-21T12:35:24.000Z</time>
      </trkpt>
      <trkpt lat="46.24765" lon="4.73873">
        <ele>295.79998779297</ele>
        <time>2022-04-21T12:35:27.000Z</time>
      </trkpt>
      <trkpt lat="46.24771" lon="4.73806">
        <ele>293.20001220703</ele>
        <time>2022-04-21T12:35:38.000Z</time>
      </trkpt>
      <trkpt lat="46.24772" lon="4.73786">
        <ele>292.39999389648</ele>
        <time>2022-04-21T12:35:41.000Z</time>
      </trkpt>
      <trkpt lat="46.24789" lon="4.73793">
        <ele>290.79998779297</ele>
        <time>2022-04-21T12:35:47.000Z</time>
      </trkpt>
      <trkpt lat="46.24797" lon="4.738">
        <ele>290.20001220703</ele>
        <time>2022-04-21T12:35:49.000Z</time>
      </trkpt>
      <trkpt lat="46.2482" lon="4.7381">
        <ele>288</ele>
        <time>2022-04-21T12:35:54.000Z</time>
      </trkpt>
      <trkpt lat="46.24845" lon="4.73818">
        <ele>285.60000610352</ele>
        <time>2022-04-21T12:35:59.000Z</time>
      </trkpt>
      <trkpt lat="46.24868" lon="4.73843">
        <ele>284</ele>
        <time>2022-04-21T12:36:04.000Z</time>
      </trkpt>
      <trkpt lat="46.24872" lon="4.7385">
        <ele>283.79998779297</ele>
        <time>2022-04-21T12:36:05.000Z</time>
      </trkpt>
      <trkpt lat="46.24901" lon="4.73872">
        <ele>281.60000610352</ele>
        <time>2022-04-21T12:36:11.000Z</time>
      </trkpt>
      <trkpt lat="46.24955" lon="4.73875">
        <ele>276.39999389648</ele>
        <time>2022-04-21T12:36:19.000Z</time>
      </trkpt>
      <trkpt lat="46.24974" lon="4.73888">
        <ele>274.79998779297</ele>
        <time>2022-04-21T12:36:23.000Z</time>
      </trkpt>
      <trkpt lat="46.24984" lon="4.73913">
        <ele>274.39999389648</ele>
        <time>2022-04-21T12:36:27.000Z</time>
      </trkpt>
      <trkpt lat="46.24991" lon="4.73924">
        <ele>273.79998779297</ele>
        <time>2022-04-21T12:36:29.000Z</time>
      </trkpt>
      <trkpt lat="46.25002" lon="4.73932">
        <ele>272.60000610352</ele>
        <time>2022-04-21T12:36:31.000Z</time>
      </trkpt>
      <trkpt lat="46.25066" lon="4.73968">
        <ele>264.60000610352</ele>
        <time>2022-04-21T12:36:40.000Z</time>
      </trkpt>
      <trkpt lat="46.25083" lon="4.73991">
        <ele>262.39999389648</ele>
        <time>2022-04-21T12:36:44.000Z</time>
      </trkpt>
      <trkpt lat="46.25111" lon="4.74036">
        <ele>258.60000610352</ele>
        <time>2022-04-21T12:36:50.000Z</time>
      </trkpt>
      <trkpt lat="46.25122" lon="4.74053">
        <ele>256.79998779297</ele>
        <time>2022-04-21T12:36:53.000Z</time>
      </trkpt>
      <trkpt lat="46.25131" lon="4.74065">
        <ele>255.39999389648</ele>
        <time>2022-04-21T12:36:56.000Z</time>
      </trkpt>
      <trkpt lat="46.25149" lon="4.74068">
        <ele>252.80000305176</ele>
        <time>2022-04-21T12:37:00.000Z</time>
      </trkpt>
      <trkpt lat="46.25162" lon="4.74072">
        <ele>251</ele>
        <time>2022-04-21T12:37:02.000Z</time>
      </trkpt>
      <trkpt lat="46.25216" lon="4.74097">
        <ele>242.60000610352</ele>
        <time>2022-04-21T12:37:10.000Z</time>
      </trkpt>
      <trkpt lat="46.25223" lon="4.74101">
        <ele>241.39999389648</ele>
        <time>2022-04-21T12:37:11.000Z</time>
      </trkpt>
      <trkpt lat="46.25236" lon="4.74107">
        <ele>239.80000305176</ele>
        <time>2022-04-21T12:37:13.000Z</time>
      </trkpt>
      <trkpt lat="46.25243" lon="4.7411">
        <ele>239.19999694824</ele>
        <time>2022-04-21T12:37:14.000Z</time>
      </trkpt>
      <trkpt lat="46.25263" lon="4.74119">
        <ele>237.60000610352</ele>
        <time>2022-04-21T12:37:17.000Z</time>
      </trkpt>
      <trkpt lat="46.2527" lon="4.74122">
        <ele>237</ele>
        <time>2022-04-21T12:37:18.000Z</time>
      </trkpt>
      <trkpt lat="46.25285" lon="4.74128">
        <ele>235.80000305176</ele>
        <time>2022-04-21T12:37:21.000Z</time>
      </trkpt>
      <trkpt lat="46.2529" lon="4.74129">
        <ele>235.60000610352</ele>
        <time>2022-04-21T12:37:22.000Z</time>
      </trkpt>
      <trkpt lat="46.253" lon="4.74131">
        <ele>234.80000305176</ele>
        <time>2022-04-21T12:37:25.000Z</time>
      </trkpt>
      <trkpt lat="46.25304" lon="4.74131">
        <ele>234.39999389648</ele>
        <time>2022-04-21T12:37:28.000Z</time>
      </trkpt>
      <trkpt lat="46.25312" lon="4.7414">
        <ele>233.80000305176</ele>
        <time>2022-04-21T12:37:33.000Z</time>
      </trkpt>
      <trkpt lat="46.25305" lon="4.74092">
        <ele>235</ele>
        <time>2022-04-21T12:43:16.000Z</time>
      </trkpt>
      <trkpt lat="46.25298" lon="4.73971">
        <ele>238.39999389648</ele>
        <time>2022-04-21T12:43:33.000Z</time>
      </trkpt>
      <trkpt lat="46.25272" lon="4.73872">
        <ele>241</ele>
        <time>2022-04-21T12:43:47.000Z</time>
      </trkpt>
      <trkpt lat="46.25257" lon="4.73825">
        <ele>242</ele>
        <time>2022-04-21T12:43:54.000Z</time>
      </trkpt>
      <trkpt lat="46.2525" lon="4.73804">
        <ele>242.60000610352</ele>
        <time>2022-04-21T12:43:57.000Z</time>
      </trkpt>
      <trkpt lat="46.25233" lon="4.73749">
        <ele>244.80000305176</ele>
        <time>2022-04-21T12:44:05.000Z</time>
      </trkpt>
      <trkpt lat="46.2523" lon="4.73742">
        <ele>245</ele>
        <time>2022-04-21T12:44:06.000Z</time>
      </trkpt>
      <trkpt lat="46.2522" lon="4.73707">
        <ele>247.19999694824</ele>
        <time>2022-04-21T12:44:11.000Z</time>
      </trkpt>
      <trkpt lat="46.25215" lon="4.73676">
        <ele>248.80000305176</ele>
        <time>2022-04-21T12:44:16.000Z</time>
      </trkpt>
      <trkpt lat="46.25216" lon="4.73663">
        <ele>248.80000305176</ele>
        <time>2022-04-21T12:44:18.000Z</time>
      </trkpt>
      <trkpt lat="46.2522" lon="4.73642">
        <ele>248.19999694824</ele>
        <time>2022-04-21T12:44:21.000Z</time>
      </trkpt>
      <trkpt lat="46.25249" lon="4.73628">
        <ele>246.19999694824</ele>
        <time>2022-04-21T12:44:27.000Z</time>
      </trkpt>
      <trkpt lat="46.25262" lon="4.73633">
        <ele>245.60000610352</ele>
        <time>2022-04-21T12:44:29.000Z</time>
      </trkpt>
      <trkpt lat="46.25292" lon="4.7363">
        <ele>244</ele>
        <time>2022-04-21T12:44:33.000Z</time>
      </trkpt>
      <trkpt lat="46.25309" lon="4.73625">
        <ele>243.19999694824</ele>
        <time>2022-04-21T12:44:35.000Z</time>
      </trkpt>
      <trkpt lat="46.25341" lon="4.73634">
        <ele>247.60000610352</ele>
        <time>2022-04-21T12:44:40.000Z</time>
      </trkpt>
      <trkpt lat="46.25367" lon="4.73651">
        <ele>251.60000610352</ele>
        <time>2022-04-21T12:44:47.000Z</time>
      </trkpt>
      <trkpt lat="46.2537" lon="4.73628">
        <ele>254</ele>
        <time>2022-04-21T12:44:50.000Z</time>
      </trkpt>
      <trkpt lat="46.25369" lon="4.73603">
        <ele>255.39999389648</ele>
        <time>2022-04-21T12:44:53.000Z</time>
      </trkpt>
      <trkpt lat="46.25387" lon="4.73584">
        <ele>259.60000610352</ele>
        <time>2022-04-21T12:44:59.000Z</time>
      </trkpt>
      <trkpt lat="46.2539" lon="4.7359">
        <ele>259.79998779297</ele>
        <time>2022-04-21T12:45:00.000Z</time>
      </trkpt>
      <trkpt lat="46.25408" lon="4.73629">
        <ele>259.39999389648</ele>
        <time>2022-04-21T12:45:06.000Z</time>
      </trkpt>
      <trkpt lat="46.25443" lon="4.73646">
        <ele>258.79998779297</ele>
        <time>2022-04-21T12:45:13.000Z</time>
      </trkpt>
      <trkpt lat="46.25448" lon="4.73645">
        <ele>259.39999389648</ele>
        <time>2022-04-21T12:45:14.000Z</time>
      </trkpt>
      <trkpt lat="46.25465" lon="4.73625">
        <ele>263.39999389648</ele>
        <time>2022-04-21T12:45:19.000Z</time>
      </trkpt>
      <trkpt lat="46.25468" lon="4.73581">
        <ele>267.79998779297</ele>
        <time>2022-04-21T12:45:25.000Z</time>
      </trkpt>
      <trkpt lat="46.25468" lon="4.73561">
        <ele>270</ele>
        <time>2022-04-21T12:45:28.000Z</time>
      </trkpt>
      <trkpt lat="46.25472" lon="4.73538">
        <ele>273</ele>
        <time>2022-04-21T12:45:32.000Z</time>
      </trkpt>
      <trkpt lat="46.25476" lon="4.7352">
        <ele>275.20001220703</ele>
        <time>2022-04-21T12:45:35.000Z</time>
      </trkpt>
      <trkpt lat="46.25478" lon="4.73502">
        <ele>277.20001220703</ele>
        <time>2022-04-21T12:45:38.000Z</time>
      </trkpt>
      <trkpt lat="46.25481" lon="4.73472">
        <ele>280</ele>
        <time>2022-04-21T12:45:43.000Z</time>
      </trkpt>
      <trkpt lat="46.25476" lon="4.73449">
        <ele>282</ele>
        <time>2022-04-21T12:45:47.000Z</time>
      </trkpt>
      <trkpt lat="46.25469" lon="4.73423">
        <ele>284</ele>
        <time>2022-04-21T12:45:51.000Z</time>
      </trkpt>
      <trkpt lat="46.25467" lon="4.73402">
        <ele>286.39999389648</ele>
        <time>2022-04-21T12:45:54.000Z</time>
      </trkpt>
      <trkpt lat="46.25465" lon="4.7335">
        <ele>291.79998779297</ele>
        <time>2022-04-21T12:46:02.000Z</time>
      </trkpt>
      <trkpt lat="46.25464" lon="4.73325">
        <ele>294.20001220703</ele>
        <time>2022-04-21T12:46:06.000Z</time>
      </trkpt>
      <trkpt lat="46.25465" lon="4.73281">
        <ele>299</ele>
        <time>2022-04-21T12:46:13.000Z</time>
      </trkpt>
      <trkpt lat="46.25468" lon="4.73252">
        <ele>301.60000610352</ele>
        <time>2022-04-21T12:46:18.000Z</time>
      </trkpt>
      <trkpt lat="46.2547" lon="4.73241">
        <ele>302.79998779297</ele>
        <time>2022-04-21T12:46:20.000Z</time>
      </trkpt>
      <trkpt lat="46.25478" lon="4.73198">
        <ele>307</ele>
        <time>2022-04-21T12:46:27.000Z</time>
      </trkpt>
      <trkpt lat="46.25487" lon="4.73155">
        <ele>309.60000610352</ele>
        <time>2022-04-21T12:46:34.000Z</time>
      </trkpt>
      <trkpt lat="46.25489" lon="4.73144">
        <ele>310.20001220703</ele>
        <time>2022-04-21T12:46:36.000Z</time>
      </trkpt>
      <trkpt lat="46.25497" lon="4.731">
        <ele>311.39999389648</ele>
        <time>2022-04-21T12:46:44.000Z</time>
      </trkpt>
      <trkpt lat="46.25505" lon="4.73077">
        <ele>311.39999389648</ele>
        <time>2022-04-21T12:46:49.000Z</time>
      </trkpt>
      <trkpt lat="46.25511" lon="4.73063">
        <ele>311.60000610352</ele>
        <time>2022-04-21T12:46:54.000Z</time>
      </trkpt>
      <trkpt lat="46.25532" lon="4.73034">
        <ele>313.60000610352</ele>
        <time>2022-04-21T12:47:03.000Z</time>
      </trkpt>
      <trkpt lat="46.25535" lon="4.7303">
        <ele>313.60000610352</ele>
        <time>2022-04-21T12:47:04.000Z</time>
      </trkpt>
      <trkpt lat="46.25555" lon="4.72959">
        <ele>312.39999389648</ele>
        <time>2022-04-21T12:47:18.000Z</time>
      </trkpt>
      <trkpt lat="46.25577" lon="4.72878">
        <ele>308</ele>
        <time>2022-04-21T12:47:29.000Z</time>
      </trkpt>
      <trkpt lat="46.25586" lon="4.72841">
        <ele>307.39999389648</ele>
        <time>2022-04-21T12:47:35.000Z</time>
      </trkpt>
      <trkpt lat="46.25589" lon="4.72827">
        <ele>307</ele>
        <time>2022-04-21T12:47:38.000Z</time>
      </trkpt>
      <trkpt lat="46.25628" lon="4.72817">
        <ele>308.60000610352</ele>
        <time>2022-04-21T12:47:48.000Z</time>
      </trkpt>
      <trkpt lat="46.25689" lon="4.72812">
        <ele>308.79998779297</ele>
        <time>2022-04-21T12:48:04.000Z</time>
      </trkpt>
      <trkpt lat="46.25736" lon="4.72808">
        <ele>309</ele>
        <time>2022-04-21T12:48:17.000Z</time>
      </trkpt>
      <trkpt lat="46.25736" lon="4.72751">
        <ele>309</ele>
        <time>2022-04-21T12:48:27.000Z</time>
      </trkpt>
      <trkpt lat="46.25742" lon="4.72706">
        <ele>308.39999389648</ele>
        <time>2022-04-21T12:48:34.000Z</time>
      </trkpt>
      <trkpt lat="46.25746" lon="4.72606">
        <ele>310</ele>
        <time>2022-04-21T12:48:47.000Z</time>
      </trkpt>
      <trkpt lat="46.25745" lon="4.72599">
        <ele>310.20001220703</ele>
        <time>2022-04-21T12:48:48.000Z</time>
      </trkpt>
      <trkpt lat="46.25744" lon="4.72585">
        <ele>310.60000610352</ele>
        <time>2022-04-21T12:48:50.000Z</time>
      </trkpt>
      <trkpt lat="46.25739" lon="4.72556">
        <ele>311.39999389648</ele>
        <time>2022-04-21T12:48:54.000Z</time>
      </trkpt>
      <trkpt lat="46.2573" lon="4.72514">
        <ele>313.20001220703</ele>
        <time>2022-04-21T12:49:00.000Z</time>
      </trkpt>
      <trkpt lat="46.25725" lon="4.72449">
        <ele>315.39999389648</ele>
        <time>2022-04-21T12:49:09.000Z</time>
      </trkpt>
      <trkpt lat="46.25723" lon="4.72436">
        <ele>315.39999389648</ele>
        <time>2022-04-21T12:49:11.000Z</time>
      </trkpt>
      <trkpt lat="46.25724" lon="4.72388">
        <ele>316.79998779297</ele>
        <time>2022-04-21T12:49:18.000Z</time>
      </trkpt>
      <trkpt lat="46.25725" lon="4.72375">
        <ele>317.20001220703</ele>
        <time>2022-04-21T12:49:20.000Z</time>
      </trkpt>
      <trkpt lat="46.25726" lon="4.72369">
        <ele>317.39999389648</ele>
        <time>2022-04-21T12:49:21.000Z</time>
      </trkpt>
      <trkpt lat="46.25735" lon="4.7235">
        <ele>317</ele>
        <time>2022-04-21T12:49:25.000Z</time>
      </trkpt>
      <trkpt lat="46.25752" lon="4.72329">
        <ele>315.39999389648</ele>
        <time>2022-04-21T12:49:32.000Z</time>
      </trkpt>
      <trkpt lat="46.25753" lon="4.72322">
        <ele>315.20001220703</ele>
        <time>2022-04-21T12:49:35.000Z</time>
      </trkpt>
      <trkpt lat="46.25766" lon="4.72321">
        <ele>314.60000610352</ele>
        <time>2022-04-21T12:49:42.000Z</time>
      </trkpt>
      <trkpt lat="46.25796" lon="4.72324">
        <ele>314.20001220703</ele>
        <time>2022-04-21T12:49:54.000Z</time>
      </trkpt>
      <trkpt lat="46.25802" lon="4.72324">
        <ele>314.20001220703</ele>
        <time>2022-04-21T12:49:58.000Z</time>
      </trkpt>
      <trkpt lat="46.25803" lon="4.72326">
        <ele>314.20001220703</ele>
        <time>2022-04-21T12:50:03.000Z</time>
      </trkpt>
      <trkpt lat="46.25811" lon="4.72328">
        <ele>314</ele>
        <time>2022-04-21T12:50:14.000Z</time>
      </trkpt>
      <trkpt lat="46.25843" lon="4.72334">
        <ele>311</ele>
        <time>2022-04-21T12:50:22.000Z</time>
      </trkpt>
      <trkpt lat="46.25899" lon="4.7235">
        <ele>306.79998779297</ele>
        <time>2022-04-21T12:50:32.000Z</time>
      </trkpt>
      <trkpt lat="46.25912" lon="4.72354">
        <ele>306.20001220703</ele>
        <time>2022-04-21T12:50:34.000Z</time>
      </trkpt>
      <trkpt lat="46.25936" lon="4.72364">
        <ele>304.79998779297</ele>
        <time>2022-04-21T12:50:38.000Z</time>
      </trkpt>
      <trkpt lat="46.25942" lon="4.72365">
        <ele>304.60000610352</ele>
        <time>2022-04-21T12:50:39.000Z</time>
      </trkpt>
      <trkpt lat="46.25952" lon="4.72366">
        <ele>304.20001220703</ele>
        <time>2022-04-21T12:50:41.000Z</time>
      </trkpt>
      <trkpt lat="46.25966" lon="4.72371">
        <ele>303.39999389648</ele>
        <time>2022-04-21T12:50:44.000Z</time>
      </trkpt>
      <trkpt lat="46.25998" lon="4.7239">
        <ele>301</ele>
        <time>2022-04-21T12:50:50.000Z</time>
      </trkpt>
      <trkpt lat="46.26036" lon="4.72418">
        <ele>297.39999389648</ele>
        <time>2022-04-21T12:50:57.000Z</time>
      </trkpt>
      <trkpt lat="46.26058" lon="4.72427">
        <ele>295.60000610352</ele>
        <time>2022-04-21T12:51:03.000Z</time>
      </trkpt>
      <trkpt lat="46.26063" lon="4.72423">
        <ele>295.39999389648</ele>
        <time>2022-04-21T12:51:05.000Z</time>
      </trkpt>
      <trkpt lat="46.2607" lon="4.72418">
        <ele>295.20001220703</ele>
        <time>2022-04-21T12:51:07.000Z</time>
      </trkpt>
      <trkpt lat="46.26123" lon="4.72395">
        <ele>292.20001220703</ele>
        <time>2022-04-21T12:51:17.000Z</time>
      </trkpt>
      <trkpt lat="46.26143" lon="4.72393">
        <ele>290.79998779297</ele>
        <time>2022-04-21T12:51:21.000Z</time>
      </trkpt>
      <trkpt lat="46.26161" lon="4.72398">
        <ele>289.39999389648</ele>
        <time>2022-04-21T12:51:27.000Z</time>
      </trkpt>
      <trkpt lat="46.26162" lon="4.72385">
        <ele>290.20001220703</ele>
        <time>2022-04-21T12:51:30.000Z</time>
      </trkpt>
      <trkpt lat="46.26156" lon="4.72351">
        <ele>292.20001220703</ele>
        <time>2022-04-21T12:51:35.000Z</time>
      </trkpt>
      <trkpt lat="46.26149" lon="4.72325">
        <ele>294</ele>
        <time>2022-04-21T12:51:39.000Z</time>
      </trkpt>
      <trkpt lat="46.26133" lon="4.72274">
        <ele>297.79998779297</ele>
        <time>2022-04-21T12:51:47.000Z</time>
      </trkpt>
      <trkpt lat="46.26119" lon="4.72231">
        <ele>301.60000610352</ele>
        <time>2022-04-21T12:51:54.000Z</time>
      </trkpt>
      <trkpt lat="46.26114" lon="4.72219">
        <ele>302.79998779297</ele>
        <time>2022-04-21T12:51:56.000Z</time>
      </trkpt>
      <trkpt lat="46.26103" lon="4.72173">
        <ele>305.79998779297</ele>
        <time>2022-04-21T12:52:03.000Z</time>
      </trkpt>
      <trkpt lat="46.26094" lon="4.72129">
        <ele>308</ele>
        <time>2022-04-21T12:52:10.000Z</time>
      </trkpt>
      <trkpt lat="46.2609" lon="4.7211">
        <ele>309.20001220703</ele>
        <time>2022-04-21T12:52:13.000Z</time>
      </trkpt>
      <trkpt lat="46.26081" lon="4.72044">
        <ele>313.20001220703</ele>
        <time>2022-04-21T12:52:23.000Z</time>
      </trkpt>
      <trkpt lat="46.26074" lon="4.72008">
        <ele>314.39999389648</ele>
        <time>2022-04-21T12:52:29.000Z</time>
      </trkpt>
      <trkpt lat="46.26062" lon="4.71981">
        <ele>315.60000610352</ele>
        <time>2022-04-21T12:52:35.000Z</time>
      </trkpt>
      <trkpt lat="46.26055" lon="4.71967">
        <ele>315.60000610352</ele>
        <time>2022-04-21T12:52:38.000Z</time>
      </trkpt>
      <trkpt lat="46.2605" lon="4.71957">
        <ele>315.60000610352</ele>
        <time>2022-04-21T12:52:40.000Z</time>
      </trkpt>
      <trkpt lat="46.26046" lon="4.71934">
        <ele>315.60000610352</ele>
        <time>2022-04-21T12:52:44.000Z</time>
      </trkpt>
      <trkpt lat="46.26048" lon="4.71913">
        <ele>316.39999389648</ele>
        <time>2022-04-21T12:52:48.000Z</time>
      </trkpt>
      <trkpt lat="46.26073" lon="4.71855">
        <ele>319.79998779297</ele>
        <time>2022-04-21T12:53:00.000Z</time>
      </trkpt>
      <trkpt lat="46.26074" lon="4.7185">
        <ele>320.20001220703</ele>
        <time>2022-04-21T12:53:01.000Z</time>
      </trkpt>
      <trkpt lat="46.26064" lon="4.71816">
        <ele>323.39999389648</ele>
        <time>2022-04-21T12:53:07.000Z</time>
      </trkpt>
      <trkpt lat="46.26024" lon="4.71758">
        <ele>326.39999389648</ele>
        <time>2022-04-21T12:53:20.000Z</time>
      </trkpt>
      <trkpt lat="46.26028" lon="4.71735">
        <ele>328.79998779297</ele>
        <time>2022-04-21T12:53:24.000Z</time>
      </trkpt>
      <trkpt lat="46.26039" lon="4.71709">
        <ele>332</ele>
        <time>2022-04-21T12:53:29.000Z</time>
      </trkpt>
      <trkpt lat="46.26058" lon="4.71699">
        <ele>333.39999389648</ele>
        <time>2022-04-21T12:53:34.000Z</time>
      </trkpt>
      <trkpt lat="46.26087" lon="4.71706">
        <ele>333.79998779297</ele>
        <time>2022-04-21T12:53:40.000Z</time>
      </trkpt>
      <trkpt lat="46.26097" lon="4.71708">
        <ele>333.39999389648</ele>
        <time>2022-04-21T12:53:42.000Z</time>
      </trkpt>
      <trkpt lat="46.26112" lon="4.71709">
        <ele>333.39999389648</ele>
        <time>2022-04-21T12:53:45.000Z</time>
      </trkpt>
      <trkpt lat="46.26141" lon="4.71686">
        <ele>335.79998779297</ele>
        <time>2022-04-21T12:53:52.000Z</time>
      </trkpt>
      <trkpt lat="46.26153" lon="4.71664">
        <ele>339</ele>
        <time>2022-04-21T12:53:56.000Z</time>
      </trkpt>
      <trkpt lat="46.26161" lon="4.71647">
        <ele>340.79998779297</ele>
        <time>2022-04-21T12:53:59.000Z</time>
      </trkpt>
      <trkpt lat="46.26174" lon="4.71635">
        <ele>342.20001220703</ele>
        <time>2022-04-21T12:54:03.000Z</time>
      </trkpt>
      <trkpt lat="46.26191" lon="4.71634">
        <ele>342.20001220703</ele>
        <time>2022-04-21T12:54:07.000Z</time>
      </trkpt>
      <trkpt lat="46.26206" lon="4.71629">
        <ele>342.79998779297</ele>
        <time>2022-04-21T12:54:11.000Z</time>
      </trkpt>
      <trkpt lat="46.26242" lon="4.71619">
        <ele>344.39999389648</ele>
        <time>2022-04-21T12:54:20.000Z</time>
      </trkpt>
      <trkpt lat="46.26246" lon="4.71618">
        <ele>344.60000610352</ele>
        <time>2022-04-21T12:54:21.000Z</time>
      </trkpt>
      <trkpt lat="46.26298" lon="4.71613">
        <ele>345.79998779297</ele>
        <time>2022-04-21T12:54:33.000Z</time>
      </trkpt>
      <trkpt lat="46.26326" lon="4.71611">
        <ele>347.20001220703</ele>
        <time>2022-04-21T12:54:40.000Z</time>
      </trkpt>
      <trkpt lat="46.26343" lon="4.71603">
        <ele>349.20001220703</ele>
        <time>2022-04-21T12:54:44.000Z</time>
      </trkpt>
      <trkpt lat="46.26364" lon="4.71596">
        <ele>351.20001220703</ele>
        <time>2022-04-21T12:54:49.000Z</time>
      </trkpt>
      <trkpt lat="46.26377" lon="4.71589">
        <ele>352.79998779297</ele>
        <time>2022-04-21T12:54:52.000Z</time>
      </trkpt>
      <trkpt lat="46.26385" lon="4.71587">
        <ele>353.60000610352</ele>
        <time>2022-04-21T12:54:54.000Z</time>
      </trkpt>
      <trkpt lat="46.26402" lon="4.71581">
        <ele>355</ele>
        <time>2022-04-21T12:54:58.000Z</time>
      </trkpt>
      <trkpt lat="46.26408" lon="4.71567">
        <ele>357.39999389648</ele>
        <time>2022-04-21T12:55:06.000Z</time>
      </trkpt>
      <trkpt lat="46.2638" lon="4.71548">
        <ele>360.39999389648</ele>
        <time>2022-04-21T12:55:13.000Z</time>
      </trkpt>
      <trkpt lat="46.26338" lon="4.71518">
        <ele>362.20001220703</ele>
        <time>2022-04-21T12:55:23.000Z</time>
      </trkpt>
      <trkpt lat="46.26321" lon="4.71506">
        <ele>362.39999389648</ele>
        <time>2022-04-21T12:55:27.000Z</time>
      </trkpt>
      <trkpt lat="46.2629" lon="4.71495">
        <ele>360.79998779297</ele>
        <time>2022-04-21T12:55:34.000Z</time>
      </trkpt>
      <trkpt lat="46.26286" lon="4.71494">
        <ele>360.60000610352</ele>
        <time>2022-04-21T12:55:35.000Z</time>
      </trkpt>
      <trkpt lat="46.26279" lon="4.71467">
        <ele>361.79998779297</ele>
        <time>2022-04-21T12:55:42.000Z</time>
      </trkpt>
      <trkpt lat="46.26283" lon="4.71464">
        <ele>362.39999389648</ele>
        <time>2022-04-21T12:55:43.000Z</time>
      </trkpt>
      <trkpt lat="46.26292" lon="4.71458">
        <ele>363.60000610352</ele>
        <time>2022-04-21T12:55:45.000Z</time>
      </trkpt>
      <trkpt lat="46.26332" lon="4.71415">
        <ele>366.60000610352</ele>
        <time>2022-04-21T12:55:56.000Z</time>
      </trkpt>
      <trkpt lat="46.26352" lon="4.71402">
        <ele>368.39999389648</ele>
        <time>2022-04-21T12:56:01.000Z</time>
      </trkpt>
      <trkpt lat="46.26429" lon="4.7138">
        <ele>376.60000610352</ele>
        <time>2022-04-21T12:56:17.000Z</time>
      </trkpt>
      <trkpt lat="46.26464" lon="4.71358">
        <ele>381.20001220703</ele>
        <time>2022-04-21T12:56:25.000Z</time>
      </trkpt>
      <trkpt lat="46.26486" lon="4.71331">
        <ele>386</ele>
        <time>2022-04-21T12:56:32.000Z</time>
      </trkpt>
      <trkpt lat="46.26489" lon="4.71326">
        <ele>386.60000610352</ele>
        <time>2022-04-21T12:56:33.000Z</time>
      </trkpt>
      <trkpt lat="46.26497" lon="4.71307">
        <ele>388.60000610352</ele>
        <time>2022-04-21T12:56:37.000Z</time>
      </trkpt>
      <trkpt lat="46.26509" lon="4.71286">
        <ele>392</ele>
        <time>2022-04-21T12:56:42.000Z</time>
      </trkpt>
      <trkpt lat="46.26529" lon="4.71278">
        <ele>394.79998779297</ele>
        <time>2022-04-21T12:56:47.000Z</time>
      </trkpt>
      <trkpt lat="46.26545" lon="4.71275">
        <ele>397</ele>
        <time>2022-04-21T12:56:51.000Z</time>
      </trkpt>
      <trkpt lat="46.26557" lon="4.71273">
        <ele>398.79998779297</ele>
        <time>2022-04-21T12:56:54.000Z</time>
      </trkpt>
      <trkpt lat="46.2657" lon="4.71274">
        <ele>400.60000610352</ele>
        <time>2022-04-21T12:56:57.000Z</time>
      </trkpt>
      <trkpt lat="46.2659" lon="4.71277">
        <ele>403.60000610352</ele>
        <time>2022-04-21T12:57:02.000Z</time>
      </trkpt>
      <trkpt lat="46.26608" lon="4.71278">
        <ele>406.39999389648</ele>
        <time>2022-04-21T12:57:08.000Z</time>
      </trkpt>
      <trkpt lat="46.26613" lon="4.71283">
        <ele>407</ele>
        <time>2022-04-21T12:57:10.000Z</time>
      </trkpt>
      <trkpt lat="46.26618" lon="4.71292">
        <ele>406.79998779297</ele>
        <time>2022-04-21T12:57:12.000Z</time>
      </trkpt>
      <trkpt lat="46.26628" lon="4.71306">
        <ele>405.79998779297</ele>
        <time>2022-04-21T12:57:15.000Z</time>
      </trkpt>
      <trkpt lat="46.26688" lon="4.71331">
        <ele>404.60000610352</ele>
        <time>2022-04-21T12:57:27.000Z</time>
      </trkpt>
      <trkpt lat="46.26738" lon="4.71336">
        <ele>405</ele>
        <time>2022-04-21T12:57:36.000Z</time>
      </trkpt>
      <trkpt lat="46.26743" lon="4.71338">
        <ele>404.60000610352</ele>
        <time>2022-04-21T12:57:37.000Z</time>
      </trkpt>
      <trkpt lat="46.26753" lon="4.71341">
        <ele>403.60000610352</ele>
        <time>2022-04-21T12:57:39.000Z</time>
      </trkpt>
      <trkpt lat="46.26771" lon="4.71347">
        <ele>401.60000610352</ele>
        <time>2022-04-21T12:57:43.000Z</time>
      </trkpt>
      <trkpt lat="46.26798" lon="4.7136">
        <ele>397.60000610352</ele>
        <time>2022-04-21T12:57:48.000Z</time>
      </trkpt>
      <trkpt lat="46.26814" lon="4.7137">
        <ele>395</ele>
        <time>2022-04-21T12:57:51.000Z</time>
      </trkpt>
      <trkpt lat="46.26832" lon="4.71381">
        <ele>392</ele>
        <time>2022-04-21T12:57:54.000Z</time>
      </trkpt>
      <trkpt lat="46.26872" lon="4.71398">
        <ele>387</ele>
        <time>2022-04-21T12:58:00.000Z</time>
      </trkpt>
      <trkpt lat="46.2689" lon="4.71403">
        <ele>385.60000610352</ele>
        <time>2022-04-21T12:58:03.000Z</time>
      </trkpt>
      <trkpt lat="46.26934" lon="4.71404">
        <ele>384.20001220703</ele>
        <time>2022-04-21T12:58:09.000Z</time>
      </trkpt>
      <trkpt lat="46.26965" lon="4.71405">
        <ele>385</ele>
        <time>2022-04-21T12:58:13.000Z</time>
      </trkpt>
      <trkpt lat="46.26971" lon="4.71406">
        <ele>385</ele>
        <time>2022-04-21T12:58:14.000Z</time>
      </trkpt>
      <trkpt lat="46.26983" lon="4.71406">
        <ele>385.20001220703</ele>
        <time>2022-04-21T12:58:16.000Z</time>
      </trkpt>
      <trkpt lat="46.26998" lon="4.71407">
        <ele>384.60000610352</ele>
        <time>2022-04-21T12:58:19.000Z</time>
      </trkpt>
      <trkpt lat="46.27003" lon="4.71406">
        <ele>384.79998779297</ele>
        <time>2022-04-21T12:58:20.000Z</time>
      </trkpt>
      <trkpt lat="46.27017" lon="4.71407">
        <ele>384.39999389648</ele>
        <time>2022-04-21T12:58:23.000Z</time>
      </trkpt>
      <trkpt lat="46.27046" lon="4.71406">
        <ele>383.60000610352</ele>
        <time>2022-04-21T12:58:28.000Z</time>
      </trkpt>
      <trkpt lat="46.27079" lon="4.71411">
        <ele>382.20001220703</ele>
        <time>2022-04-21T12:58:34.000Z</time>
      </trkpt>
      <trkpt lat="46.27117" lon="4.71415">
        <ele>382</ele>
        <time>2022-04-21T12:58:42.000Z</time>
      </trkpt>
      <trkpt lat="46.27139" lon="4.71429">
        <ele>378</ele>
        <time>2022-04-21T12:58:47.000Z</time>
      </trkpt>
      <trkpt lat="46.27164" lon="4.71472">
        <ele>368.79998779297</ele>
        <time>2022-04-21T12:58:52.000Z</time>
      </trkpt>
      <trkpt lat="46.27168" lon="4.71493">
        <ele>364.79998779297</ele>
        <time>2022-04-21T12:58:54.000Z</time>
      </trkpt>
      <trkpt lat="46.2718" lon="4.71524">
        <ele>359.39999389648</ele>
        <time>2022-04-21T12:58:59.000Z</time>
      </trkpt>
      <trkpt lat="46.27187" lon="4.71534">
        <ele>358</ele>
        <time>2022-04-21T12:59:04.000Z</time>
      </trkpt>
      <trkpt lat="46.27188" lon="4.71534">
        <ele>358</ele>
        <time>2022-04-21T12:59:07.000Z</time>
      </trkpt>
      <trkpt lat="46.27199" lon="4.71528">
        <ele>360.20001220703</ele>
        <time>2022-04-21T13:00:05.000Z</time>
      </trkpt>
      <trkpt lat="46.27201" lon="4.71526">
        <ele>360.79998779297</ele>
        <time>2022-04-21T13:00:06.000Z</time>
      </trkpt>
      <trkpt lat="46.27235" lon="4.71511">
        <ele>366</ele>
        <time>2022-04-21T13:00:16.000Z</time>
      </trkpt>
      <trkpt lat="46.27259" lon="4.71516">
        <ele>366.60000610352</ele>
        <time>2022-04-21T13:00:22.000Z</time>
      </trkpt>
      <trkpt lat="46.27269" lon="4.71513">
        <ele>367.79998779297</ele>
        <time>2022-04-21T13:00:25.000Z</time>
      </trkpt>
      <trkpt lat="46.27275" lon="4.71504">
        <ele>369.79998779297</ele>
        <time>2022-04-21T13:00:27.000Z</time>
      </trkpt>
      <trkpt lat="46.27283" lon="4.71485">
        <ele>373.39999389648</ele>
        <time>2022-04-21T13:00:31.000Z</time>
      </trkpt>
      <trkpt lat="46.2729" lon="4.7148">
        <ele>374.60000610352</ele>
        <time>2022-04-21T13:00:33.000Z</time>
      </trkpt>
      <trkpt lat="46.27319" lon="4.71466">
        <ele>378.60000610352</ele>
        <time>2022-04-21T13:00:40.000Z</time>
      </trkpt>
      <trkpt lat="46.27335" lon="4.71468">
        <ele>380.20001220703</ele>
        <time>2022-04-21T13:00:44.000Z</time>
      </trkpt>
      <trkpt lat="46.27351" lon="4.71474">
        <ele>380.79998779297</ele>
        <time>2022-04-21T13:00:48.000Z</time>
      </trkpt>
      <trkpt lat="46.27382" lon="4.71467">
        <ele>384.20001220703</ele>
        <time>2022-04-21T13:00:56.000Z</time>
      </trkpt>
      <trkpt lat="46.274" lon="4.71463">
        <ele>386</ele>
        <time>2022-04-21T13:01:01.000Z</time>
      </trkpt>
      <trkpt lat="46.27417" lon="4.71459">
        <ele>386.79998779297</ele>
        <time>2022-04-21T13:01:06.000Z</time>
      </trkpt>
      <trkpt lat="46.2742" lon="4.7146">
        <ele>386.79998779297</ele>
        <time>2022-04-21T13:01:07.000Z</time>
      </trkpt>
      <trkpt lat="46.27427" lon="4.71462">
        <ele>386.79998779297</ele>
        <time>2022-04-21T13:01:09.000Z</time>
      </trkpt>
      <trkpt lat="46.27444" lon="4.71473">
        <ele>385.79998779297</ele>
        <time>2022-04-21T13:01:14.000Z</time>
      </trkpt>
      <trkpt lat="46.27463" lon="4.71479">
        <ele>385.60000610352</ele>
        <time>2022-04-21T13:01:19.000Z</time>
      </trkpt>
      <trkpt lat="46.27491" lon="4.71497">
        <ele>384.39999389648</ele>
        <time>2022-04-21T13:01:33.000Z</time>
      </trkpt>
      <trkpt lat="46.27493" lon="4.71503">
        <ele>383.79998779297</ele>
        <time>2022-04-21T13:02:45.000Z</time>
      </trkpt>
      <trkpt lat="46.27529" lon="4.71524">
        <ele>380.3</ele>
        <time>2022-04-21T13:02:57.000Z</time>
      </trkpt>
      <trkpt lat="46.2761" lon="4.71511">
        <ele>386.3</ele>
        <time>2022-04-21T13:03:09.000Z</time>
      </trkpt>
      <trkpt lat="46.27651" lon="4.71494">
        <ele>387.8</ele>
        <time>2022-04-21T13:03:10.000Z</time>
      </trkpt>
      <trkpt lat="46.27707" lon="4.71447">
        <ele>388.8</ele>
        <time>2022-04-21T13:03:13.000Z</time>
      </trkpt>
      <trkpt lat="46.27753" lon="4.71408">
        <ele>388.4</ele>
        <time>2022-04-21T13:05:50.000Z</time>
      </trkpt>
      <trkpt lat="46.27789" lon="4.7135">
        <ele>391.9</ele>
        <time>2022-04-21T13:05:58.000Z</time>
      </trkpt>
      <trkpt lat="46.27819" lon="4.71309">
        <ele>394.6</ele>
        <time>2022-04-21T13:06:09.000Z</time>
      </trkpt>
      <trkpt lat="46.27857" lon="4.71365">
        <ele>385.9</ele>
        <time>2022-04-21T13:06:21.000Z</time>
      </trkpt>
      <trkpt lat="46.27882" lon="4.71395">
        <ele>379</ele>
        <time>2022-04-21T13:06:35.000Z</time>
      </trkpt>
      <trkpt lat="46.27883" lon="4.71394">
        <ele>379</ele>
        <time>2022-04-21T13:06:40.000Z</time>
      </trkpt>
      <trkpt lat="46.27888" lon="4.71397">
        <ele>378</ele>
        <time>2022-04-21T13:06:52.000Z</time>
      </trkpt>
      <trkpt lat="46.27891" lon="4.71402">
        <ele>377.20001220703</ele>
        <time>2022-04-21T13:06:59.000Z</time>
      </trkpt>
      <trkpt lat="46.27891" lon="4.71413">
        <ele>376</ele>
        <time>2022-04-21T13:07:10.000Z</time>
      </trkpt>
      <trkpt lat="46.27882" lon="4.7146">
        <ele>371.79998779297</ele>
        <time>2022-04-21T13:07:18.000Z</time>
      </trkpt>
      <trkpt lat="46.27876" lon="4.71485">
        <ele>370.39999389648</ele>
        <time>2022-04-21T13:07:22.000Z</time>
      </trkpt>
      <trkpt lat="46.2786" lon="4.71519">
        <ele>368.79998779297</ele>
        <time>2022-04-21T13:07:28.000Z</time>
      </trkpt>
      <trkpt lat="46.27854" lon="4.71532">
        <ele>368</ele>
        <time>2022-04-21T13:07:30.000Z</time>
      </trkpt>
      <trkpt lat="46.27846" lon="4.71553">
        <ele>366.39999389648</ele>
        <time>2022-04-21T13:07:33.000Z</time>
      </trkpt>
      <trkpt lat="46.27839" lon="4.71585">
        <ele>362.60000610352</ele>
        <time>2022-04-21T13:07:37.000Z</time>
      </trkpt>
      <trkpt lat="46.27827" lon="4.71613">
        <ele>358.60000610352</ele>
        <time>2022-04-21T13:07:42.000Z</time>
      </trkpt>
      <trkpt lat="46.27827" lon="4.7162">
        <ele>357.39999389648</ele>
        <time>2022-04-21T13:07:44.000Z</time>
      </trkpt>
      <trkpt lat="46.27838" lon="4.71633">
        <ele>355.20001220703</ele>
        <time>2022-04-21T13:07:48.000Z</time>
      </trkpt>
      <trkpt lat="46.27857" lon="4.71676">
        <ele>348.20001220703</ele>
        <time>2022-04-21T13:07:56.000Z</time>
      </trkpt>
      <trkpt lat="46.27857" lon="4.71696">
        <ele>345.79998779297</ele>
        <time>2022-04-21T13:08:00.000Z</time>
      </trkpt>
      <trkpt lat="46.27862" lon="4.71714">
        <ele>343.79998779297</ele>
        <time>2022-04-21T13:08:04.000Z</time>
      </trkpt>
      <trkpt lat="46.27863" lon="4.71719">
        <ele>343.39999389648</ele>
        <time>2022-04-21T13:08:05.000Z</time>
      </trkpt>
      <trkpt lat="46.27866" lon="4.71753">
        <ele>341.20001220703</ele>
        <time>2022-04-21T13:08:09.000Z</time>
      </trkpt>
      <trkpt lat="46.2787" lon="4.71785">
        <ele>337.60000610352</ele>
        <time>2022-04-21T13:08:15.000Z</time>
      </trkpt>
      <trkpt lat="46.27873" lon="4.7179">
        <ele>337.39999389648</ele>
        <time>2022-04-21T13:08:16.000Z</time>
      </trkpt>
      <trkpt lat="46.27882" lon="4.71805">
        <ele>337.39999389648</ele>
        <time>2022-04-21T13:08:19.000Z</time>
      </trkpt>
      <trkpt lat="46.27888" lon="4.71824">
        <ele>337.60000610352</ele>
        <time>2022-04-21T13:08:25.000Z</time>
      </trkpt>
      <trkpt lat="46.27887" lon="4.71827">
        <ele>337.60000610352</ele>
        <time>2022-04-21T13:08:26.000Z</time>
      </trkpt>
      <trkpt lat="46.27885" lon="4.7183">
        <ele>337.60000610352</ele>
        <time>2022-04-21T13:08:27.000Z</time>
      </trkpt>
      <trkpt lat="46.27883" lon="4.71832">
        <ele>337.79998779297</ele>
        <time>2022-04-21T13:08:28.000Z</time>
      </trkpt>
      <trkpt lat="46.27879" lon="4.71835">
        <ele>337.79998779297</ele>
        <time>2022-04-21T13:08:29.000Z</time>
      </trkpt>
      <trkpt lat="46.27876" lon="4.71838">
        <ele>337.79998779297</ele>
        <time>2022-04-21T13:08:30.000Z</time>
      </trkpt>
      <trkpt lat="46.27872" lon="4.71841">
        <ele>338</ele>
        <time>2022-04-21T13:08:31.000Z</time>
      </trkpt>
      <trkpt lat="46.27852" lon="4.71862">
        <ele>335</ele>
        <time>2022-04-21T13:08:36.000Z</time>
      </trkpt>
      <trkpt lat="46.27813" lon="4.71907">
        <ele>330.20001220703</ele>
        <time>2022-04-21T13:08:49.000Z</time>
      </trkpt>
      <trkpt lat="46.27814" lon="4.7191">
        <ele>330</ele>
        <time>2022-04-21T13:08:50.000Z</time>
      </trkpt>
      <trkpt lat="46.27816" lon="4.71911">
        <ele>330.20001220703</ele>
        <time>2022-04-21T13:08:51.000Z</time>
      </trkpt>
      <trkpt lat="46.27819" lon="4.71909">
        <ele>330.39999389648</ele>
        <time>2022-04-21T13:08:52.000Z</time>
      </trkpt>
      <trkpt lat="46.27822" lon="4.71907">
        <ele>330.60000610352</ele>
        <time>2022-04-21T13:08:53.000Z</time>
      </trkpt>
      <trkpt lat="46.27842" lon="4.7189">
        <ele>332.20001220703</ele>
        <time>2022-04-21T13:09:00.000Z</time>
      </trkpt>
      <trkpt lat="46.27872" lon="4.71878">
        <ele>335.39999389648</ele>
        <time>2022-04-21T13:09:09.000Z</time>
      </trkpt>
      <trkpt lat="46.27879" lon="4.71874">
        <ele>336.20001220703</ele>
        <time>2022-04-21T13:09:11.000Z</time>
      </trkpt>
      <trkpt lat="46.27893" lon="4.71866">
        <ele>338</ele>
        <time>2022-04-21T13:09:15.000Z</time>
      </trkpt>
      <trkpt lat="46.27916" lon="4.71851">
        <ele>339.60000610352</ele>
        <time>2022-04-21T13:09:22.000Z</time>
      </trkpt>
      <trkpt lat="46.27937" lon="4.71839">
        <ele>341.39999389648</ele>
        <time>2022-04-21T13:09:28.000Z</time>
      </trkpt>
      <trkpt lat="46.27968" lon="4.71823">
        <ele>344.20001220703</ele>
        <time>2022-04-21T13:09:37.000Z</time>
      </trkpt>
      <trkpt lat="46.28006" lon="4.71818">
        <ele>348.20001220703</ele>
        <time>2022-04-21T13:09:47.000Z</time>
      </trkpt>
      <trkpt lat="46.28027" lon="4.71825">
        <ele>351.20001220703</ele>
        <time>2022-04-21T13:09:53.000Z</time>
      </trkpt>
      <trkpt lat="46.28057" lon="4.71801">
        <ele>357.20001220703</ele>
        <time>2022-04-21T13:10:03.000Z</time>
      </trkpt>
      <trkpt lat="46.28072" lon="4.71796">
        <ele>359.60000610352</ele>
        <time>2022-04-21T13:10:08.000Z</time>
      </trkpt>
      <trkpt lat="46.28109" lon="4.71781">
        <ele>365.20001220703</ele>
        <time>2022-04-21T13:10:18.000Z</time>
      </trkpt>
      <trkpt lat="46.28134" lon="4.71765">
        <ele>369.20001220703</ele>
        <time>2022-04-21T13:10:25.000Z</time>
      </trkpt>
      <trkpt lat="46.28157" lon="4.71745">
        <ele>373.39999389648</ele>
        <time>2022-04-21T13:10:32.000Z</time>
      </trkpt>
      <trkpt lat="46.28166" lon="4.7174">
        <ele>374.79998779297</ele>
        <time>2022-04-21T13:10:35.000Z</time>
      </trkpt>
      <trkpt lat="46.28187" lon="4.71734">
        <ele>377.79998779297</ele>
        <time>2022-04-21T13:10:42.000Z</time>
      </trkpt>
      <trkpt lat="46.28203" lon="4.71732">
        <ele>379.79998779297</ele>
        <time>2022-04-21T13:10:47.000Z</time>
      </trkpt>
      <trkpt lat="46.28209" lon="4.71728">
        <ele>380.60000610352</ele>
        <time>2022-04-21T13:10:49.000Z</time>
      </trkpt>
      <trkpt lat="46.28212" lon="4.71696">
        <ele>382</ele>
        <time>2022-04-21T13:10:56.000Z</time>
      </trkpt>
      <trkpt lat="46.28222" lon="4.71641">
        <ele>384.39999389648</ele>
        <time>2022-04-21T13:11:06.000Z</time>
      </trkpt>
      <trkpt lat="46.28232" lon="4.71615">
        <ele>386.39999389648</ele>
        <time>2022-04-21T13:11:11.000Z</time>
      </trkpt>
      <trkpt lat="46.28261" lon="4.71566">
        <ele>390.39999389648</ele>
        <time>2022-04-21T13:11:22.000Z</time>
      </trkpt>
      <trkpt lat="46.28277" lon="4.71539">
        <ele>394.20001220703</ele>
        <time>2022-04-21T13:11:28.000Z</time>
      </trkpt>
      <trkpt lat="46.28297" lon="4.71513">
        <ele>397.39999389648</ele>
        <time>2022-04-21T13:11:35.000Z</time>
      </trkpt>
      <trkpt lat="46.28315" lon="4.71494">
        <ele>399.20001220703</ele>
        <time>2022-04-21T13:11:41.000Z</time>
      </trkpt>
      <trkpt lat="46.2833" lon="4.71482">
        <ele>401.79998779297</ele>
        <time>2022-04-21T13:11:46.000Z</time>
      </trkpt>
      <trkpt lat="46.28349" lon="4.71476">
        <ele>405.20001220703</ele>
        <time>2022-04-21T13:11:52.000Z</time>
      </trkpt>
      <trkpt lat="46.2837" lon="4.71479">
        <ele>409.20001220703</ele>
        <time>2022-04-21T13:11:58.000Z</time>
      </trkpt>
      <trkpt lat="46.28398" lon="4.71483">
        <ele>414.39999389648</ele>
        <time>2022-04-21T13:12:06.000Z</time>
      </trkpt>
      <trkpt lat="46.28419" lon="4.71487">
        <ele>415.39999389648</ele>
        <time>2022-04-21T13:12:12.000Z</time>
      </trkpt>
      <trkpt lat="46.28439" lon="4.71492">
        <ele>416.60000610352</ele>
        <time>2022-04-21T13:12:18.000Z</time>
      </trkpt>
      <trkpt lat="46.2846" lon="4.71498">
        <ele>418.20001220703</ele>
        <time>2022-04-21T13:12:24.000Z</time>
      </trkpt>
      <trkpt lat="46.28475" lon="4.71499">
        <ele>419.60000610352</ele>
        <time>2022-04-21T13:12:28.000Z</time>
      </trkpt>
      <trkpt lat="46.28503" lon="4.71496">
        <ele>422.20001220703</ele>
        <time>2022-04-21T13:12:36.000Z</time>
      </trkpt>
      <trkpt lat="46.28532" lon="4.71491">
        <ele>425</ele>
        <time>2022-04-21T13:12:44.000Z</time>
      </trkpt>
      <trkpt lat="46.28565" lon="4.71495">
        <ele>427.60000610352</ele>
        <time>2022-04-21T13:12:55.000Z</time>
      </trkpt>
      <trkpt lat="46.2858" lon="4.71482">
        <ele>428.79998779297</ele>
        <time>2022-04-21T13:13:00.000Z</time>
      </trkpt>
      <trkpt lat="46.28616" lon="4.71482">
        <ele>430.79998779297</ele>
        <time>2022-04-21T13:13:10.000Z</time>
      </trkpt>
      <trkpt lat="46.28672" lon="4.71474">
        <ele>431.60000610352</ele>
        <time>2022-04-21T13:13:25.000Z</time>
      </trkpt>
      <trkpt lat="46.28708" lon="4.7148">
        <ele>430.39999389648</ele>
        <time>2022-04-21T13:13:37.000Z</time>
      </trkpt>
      <trkpt lat="46.28744" lon="4.71478">
        <ele>428</ele>
        <time>2022-04-21T13:13:49.000Z</time>
      </trkpt>
      <trkpt lat="46.28783" lon="4.71484">
        <ele>424.20001220703</ele>
        <time>2022-04-21T13:13:59.000Z</time>
      </trkpt>
      <trkpt lat="46.28803" lon="4.71484">
        <ele>422.39999389648</ele>
        <time>2022-04-21T13:14:05.000Z</time>
      </trkpt>
      <trkpt lat="46.28818" lon="4.71474">
        <ele>420.60000610352</ele>
        <time>2022-04-21T13:14:08.000Z</time>
      </trkpt>
      <trkpt lat="46.28839" lon="4.71467">
        <ele>419.20001220703</ele>
        <time>2022-04-21T13:14:13.000Z</time>
      </trkpt>
      <trkpt lat="46.2886" lon="4.71475">
        <ele>417.79998779297</ele>
        <time>2022-04-21T13:14:17.000Z</time>
      </trkpt>
      <trkpt lat="46.28892" lon="4.71487">
        <ele>415.79998779297</ele>
        <time>2022-04-21T13:14:23.000Z</time>
      </trkpt>
      <trkpt lat="46.28918" lon="4.715">
        <ele>413.20001220703</ele>
        <time>2022-04-21T13:14:28.000Z</time>
      </trkpt>
      <trkpt lat="46.28955" lon="4.71515">
        <ele>409.39999389648</ele>
        <time>2022-04-21T13:14:35.000Z</time>
      </trkpt>
      <trkpt lat="46.28979" lon="4.71529">
        <ele>407</ele>
        <time>2022-04-21T13:14:39.000Z</time>
      </trkpt>
      <trkpt lat="46.28998" lon="4.71538">
        <ele>404.39999389648</ele>
        <time>2022-04-21T13:14:44.000Z</time>
      </trkpt>
      <trkpt lat="46.2901" lon="4.71525">
        <ele>404.79998779297</ele>
        <time>2022-04-21T13:14:50.000Z</time>
      </trkpt>
      <trkpt lat="46.29029" lon="4.71478">
        <ele>407</ele>
        <time>2022-04-21T13:15:01.000Z</time>
      </trkpt>
      <trkpt lat="46.29034" lon="4.71477">
        <ele>406.39999389648</ele>
        <time>2022-04-21T13:15:03.000Z</time>
      </trkpt>
      <trkpt lat="46.29082" lon="4.71501">
        <ele>399.79998779297</ele>
        <time>2022-04-21T13:15:13.000Z</time>
      </trkpt>
      <trkpt lat="46.29098" lon="4.71505">
        <ele>398.39999389648</ele>
        <time>2022-04-21T13:15:16.000Z</time>
      </trkpt>
      <trkpt lat="46.29126" lon="4.71519">
        <ele>395.60000610352</ele>
        <time>2022-04-21T13:15:21.000Z</time>
      </trkpt>
      <trkpt lat="46.29167" lon="4.7153">
        <ele>394.60000610352</ele>
        <time>2022-04-21T13:15:27.000Z</time>
      </trkpt>
      <trkpt lat="46.29183" lon="4.71536">
        <ele>394.79998779297</ele>
        <time>2022-04-21T13:15:29.000Z</time>
      </trkpt>
      <trkpt lat="46.29196" lon="4.71548">
        <ele>394</ele>
        <time>2022-04-21T13:15:31.000Z</time>
      </trkpt>
      <trkpt lat="46.29217" lon="4.71574">
        <ele>391.39999389648</ele>
        <time>2022-04-21T13:15:35.000Z</time>
      </trkpt>
      <trkpt lat="46.29241" lon="4.71589">
        <ele>390</ele>
        <time>2022-04-21T13:15:40.000Z</time>
      </trkpt>
      <trkpt lat="46.29302" lon="4.71599">
        <ele>387.79998779297</ele>
        <time>2022-04-21T13:15:51.000Z</time>
      </trkpt>
      <trkpt lat="46.29326" lon="4.71605">
        <ele>386.20001220703</ele>
        <time>2022-04-21T13:15:55.000Z</time>
      </trkpt>
      <trkpt lat="46.29395" lon="4.71634">
        <ele>379.60000610352</ele>
        <time>2022-04-21T13:16:08.000Z</time>
      </trkpt>
      <trkpt lat="46.29426" lon="4.71657">
        <ele>376</ele>
        <time>2022-04-21T13:16:15.000Z</time>
      </trkpt>
      <trkpt lat="46.29429" lon="4.71659">
        <ele>375.79998779297</ele>
        <time>2022-04-21T13:16:16.000Z</time>
      </trkpt>
      <trkpt lat="46.29434" lon="4.71651">
        <ele>376</ele>
        <time>2022-04-21T13:16:20.000Z</time>
      </trkpt>
      <trkpt lat="46.29431" lon="4.71636">
        <ele>377.20001220703</ele>
        <time>2022-04-21T13:16:23.000Z</time>
      </trkpt>
      <trkpt lat="46.29427" lon="4.7162">
        <ele>378.60000610352</ele>
        <time>2022-04-21T13:16:26.000Z</time>
      </trkpt>
      <trkpt lat="46.29417" lon="4.71591">
        <ele>381.39999389648</ele>
        <time>2022-04-21T13:16:31.000Z</time>
      </trkpt>
      <trkpt lat="46.294" lon="4.71556">
        <ele>385.39999389648</ele>
        <time>2022-04-21T13:16:38.000Z</time>
      </trkpt>
      <trkpt lat="46.29391" lon="4.71529">
        <ele>388.20001220703</ele>
        <time>2022-04-21T13:16:43.000Z</time>
      </trkpt>
      <trkpt lat="46.2938" lon="4.71499">
        <ele>391.79998779297</ele>
        <time>2022-04-21T13:16:49.000Z</time>
      </trkpt>
      <trkpt lat="46.29371" lon="4.71468">
        <ele>395.39999389648</ele>
        <time>2022-04-21T13:16:55.000Z</time>
      </trkpt>
      <trkpt lat="46.29371" lon="4.71463">
        <ele>396</ele>
        <time>2022-04-21T13:16:56.000Z</time>
      </trkpt>
      <trkpt lat="46.29363" lon="4.71425">
        <ele>401.20001220703</ele>
        <time>2022-04-21T13:17:03.000Z</time>
      </trkpt>
      <trkpt lat="46.29363" lon="4.71382">
        <ele>407.79998779297</ele>
        <time>2022-04-21T13:17:11.000Z</time>
      </trkpt>
      <trkpt lat="46.29367" lon="4.71353">
        <ele>411.60000610352</ele>
        <time>2022-04-21T13:17:18.000Z</time>
      </trkpt>
      <trkpt lat="46.29368" lon="4.71337">
        <ele>413.60000610352</ele>
        <time>2022-04-21T13:17:24.000Z</time>
      </trkpt>
      <trkpt lat="46.29386" lon="4.71323">
        <ele>414.79998779297</ele>
        <time>2022-04-21T13:17:31.000Z</time>
      </trkpt>
      <trkpt lat="46.29398" lon="4.71316">
        <ele>415.20001220703</ele>
        <time>2022-04-21T13:17:36.000Z</time>
      </trkpt>
      <trkpt lat="46.29393" lon="4.71304">
        <ele>416.79998779297</ele>
        <time>2022-04-21T13:17:41.000Z</time>
      </trkpt>
      <trkpt lat="46.29361" lon="4.71301">
        <ele>418.79998779297</ele>
        <time>2022-04-21T13:17:49.000Z</time>
      </trkpt>
      <trkpt lat="46.29346" lon="4.71292">
        <ele>420.79998779297</ele>
        <time>2022-04-21T13:17:53.000Z</time>
      </trkpt>
      <trkpt lat="46.29308" lon="4.71248">
        <ele>426.39999389648</ele>
        <time>2022-04-21T13:18:05.000Z</time>
      </trkpt>
      <trkpt lat="46.29297" lon="4.71225">
        <ele>428.60000610352</ele>
        <time>2022-04-21T13:18:10.000Z</time>
      </trkpt>
      <trkpt lat="46.29286" lon="4.71199">
        <ele>431</ele>
        <time>2022-04-21T13:18:15.000Z</time>
      </trkpt>
      <trkpt lat="46.29284" lon="4.71194">
        <ele>431.60000610352</ele>
        <time>2022-04-21T13:18:16.000Z</time>
      </trkpt>
      <trkpt lat="46.29275" lon="4.71169">
        <ele>434.20001220703</ele>
        <time>2022-04-21T13:18:21.000Z</time>
      </trkpt>
      <trkpt lat="46.29267" lon="4.71148">
        <ele>436</ele>
        <time>2022-04-21T13:18:25.000Z</time>
      </trkpt>
      <trkpt lat="46.29253" lon="4.71114">
        <ele>438.39999389648</ele>
        <time>2022-04-21T13:18:32.000Z</time>
      </trkpt>
      <trkpt lat="46.29237" lon="4.71075">
        <ele>440</ele>
        <time>2022-04-21T13:18:40.000Z</time>
      </trkpt>
      <trkpt lat="46.29223" lon="4.71049">
        <ele>441.20001220703</ele>
        <time>2022-04-21T13:18:46.000Z</time>
      </trkpt>
      <trkpt lat="46.29218" lon="4.71041">
        <ele>441.60000610352</ele>
        <time>2022-04-21T13:18:48.000Z</time>
      </trkpt>
      <trkpt lat="46.29211" lon="4.71033">
        <ele>442.20001220703</ele>
        <time>2022-04-21T13:18:51.000Z</time>
      </trkpt>
      <trkpt lat="46.29223" lon="4.71026">
        <ele>441.39999389648</ele>
        <time>2022-04-21T13:18:57.000Z</time>
      </trkpt>
      <trkpt lat="46.29242" lon="4.71034">
        <ele>439.79998779297</ele>
        <time>2022-04-21T13:19:02.000Z</time>
      </trkpt>
      <trkpt lat="46.2927" lon="4.71047">
        <ele>437.20001220703</ele>
        <time>2022-04-21T13:19:09.000Z</time>
      </trkpt>
      <trkpt lat="46.29298" lon="4.71059">
        <ele>434.79998779297</ele>
        <time>2022-04-21T13:19:15.000Z</time>
      </trkpt>
      <trkpt lat="46.29321" lon="4.71072">
        <ele>432.79998779297</ele>
        <time>2022-04-21T13:19:20.000Z</time>
      </trkpt>
      <trkpt lat="46.2933" lon="4.71076">
        <ele>432.20001220703</ele>
        <time>2022-04-21T13:19:22.000Z</time>
      </trkpt>
      <trkpt lat="46.29363" lon="4.71087">
        <ele>430</ele>
        <time>2022-04-21T13:19:29.000Z</time>
      </trkpt>
      <trkpt lat="46.29391" lon="4.71098">
        <ele>428.39999389648</ele>
        <time>2022-04-21T13:19:34.000Z</time>
      </trkpt>
      <trkpt lat="46.29397" lon="4.711">
        <ele>428</ele>
        <time>2022-04-21T13:19:35.000Z</time>
      </trkpt>
      <trkpt lat="46.2942" lon="4.71108">
        <ele>425.39999389648</ele>
        <time>2022-04-21T13:19:39.000Z</time>
      </trkpt>
      <trkpt lat="46.29439" lon="4.7111">
        <ele>423.39999389648</ele>
        <time>2022-04-21T13:19:42.000Z</time>
      </trkpt>
      <trkpt lat="46.29478" lon="4.71118">
        <ele>419.20001220703</ele>
        <time>2022-04-21T13:19:49.000Z</time>
      </trkpt>
      <trkpt lat="46.29489" lon="4.71122">
        <ele>418.20001220703</ele>
        <time>2022-04-21T13:19:51.000Z</time>
      </trkpt>
      <trkpt lat="46.29505" lon="4.71136">
        <ele>416.20001220703</ele>
        <time>2022-04-21T13:19:54.000Z</time>
      </trkpt>
      <trkpt lat="46.29519" lon="4.71148">
        <ele>414.39999389648</ele>
        <time>2022-04-21T13:19:56.000Z</time>
      </trkpt>
      <trkpt lat="46.29533" lon="4.71158">
        <ele>412.79998779297</ele>
        <time>2022-04-21T13:19:58.000Z</time>
      </trkpt>
      <trkpt lat="46.29547" lon="4.71167">
        <ele>411.20001220703</ele>
        <time>2022-04-21T13:20:00.000Z</time>
      </trkpt>
      <trkpt lat="46.29553" lon="4.71172">
        <ele>410.39999389648</ele>
        <time>2022-04-21T13:20:01.000Z</time>
      </trkpt>
      <trkpt lat="46.29571" lon="4.71184">
        <ele>408.39999389648</ele>
        <time>2022-04-21T13:20:04.000Z</time>
      </trkpt>
      <trkpt lat="46.29595" lon="4.71201">
        <ele>405.79998779297</ele>
        <time>2022-04-21T13:20:09.000Z</time>
      </trkpt>
      <trkpt lat="46.29598" lon="4.71202">
        <ele>405.60000610352</ele>
        <time>2022-04-21T13:20:10.000Z</time>
      </trkpt>
      <trkpt lat="46.29631" lon="4.71225">
        <ele>402.79998779297</ele>
        <time>2022-04-21T13:20:21.000Z</time>
      </trkpt>
      <trkpt lat="46.29641" lon="4.71232">
        <ele>402.20001220703</ele>
        <time>2022-04-21T13:20:23.000Z</time>
      </trkpt>
      <trkpt lat="46.29666" lon="4.71245">
        <ele>400.79998779297</ele>
        <time>2022-04-21T13:20:28.000Z</time>
      </trkpt>
      <trkpt lat="46.29686" lon="4.71252">
        <ele>400</ele>
        <time>2022-04-21T13:20:32.000Z</time>
      </trkpt>
      <trkpt lat="46.29707" lon="4.71265">
        <ele>399</ele>
        <time>2022-04-21T13:20:38.000Z</time>
      </trkpt>
      <trkpt lat="46.29722" lon="4.71275">
        <ele>398.39999389648</ele>
        <time>2022-04-21T13:20:42.000Z</time>
      </trkpt>
      <trkpt lat="46.29747" lon="4.71287">
        <ele>396.20001220703</ele>
        <time>2022-04-21T13:20:48.000Z</time>
      </trkpt>
      <trkpt lat="46.29756" lon="4.71292">
        <ele>395.39999389648</ele>
        <time>2022-04-21T13:20:50.000Z</time>
      </trkpt>
      <trkpt lat="46.29776" lon="4.713">
        <ele>393.60000610352</ele>
        <time>2022-04-21T13:20:54.000Z</time>
      </trkpt>
      <trkpt lat="46.29872" lon="4.71324">
        <ele>385.79998779297</ele>
        <time>2022-04-21T13:21:11.000Z</time>
      </trkpt>
      <trkpt lat="46.29934" lon="4.71332">
        <ele>380.60000610352</ele>
        <time>2022-04-21T13:21:20.000Z</time>
      </trkpt>
      <trkpt lat="46.29964" lon="4.7134">
        <ele>378</ele>
        <time>2022-04-21T13:21:24.000Z</time>
      </trkpt>
      <trkpt lat="46.30004" lon="4.71348">
        <ele>374.39999389648</ele>
        <time>2022-04-21T13:21:29.000Z</time>
      </trkpt>
      <trkpt lat="46.30029" lon="4.71354">
        <ele>372.39999389648</ele>
        <time>2022-04-21T13:21:32.000Z</time>
      </trkpt>
      <trkpt lat="46.30082" lon="4.71374">
        <ele>367</ele>
        <time>2022-04-21T13:21:39.000Z</time>
      </trkpt>
      <trkpt lat="46.30094" lon="4.71377">
        <ele>365.39999389648</ele>
        <time>2022-04-21T13:21:41.000Z</time>
      </trkpt>
      <trkpt lat="46.30117" lon="4.71386">
        <ele>361.79998779297</ele>
        <time>2022-04-21T13:21:45.000Z</time>
      </trkpt>
      <trkpt lat="46.30151" lon="4.71396">
        <ele>357</ele>
        <time>2022-04-21T13:21:51.000Z</time>
      </trkpt>
      <trkpt lat="46.30168" lon="4.71403">
        <ele>355.20001220703</ele>
        <time>2022-04-21T13:21:54.000Z</time>
      </trkpt>
      <trkpt lat="46.30176" lon="4.71408">
        <ele>354.39999389648</ele>
        <time>2022-04-21T13:21:56.000Z</time>
      </trkpt>
      <trkpt lat="46.30203" lon="4.71415">
        <ele>351</ele>
        <time>2022-04-21T13:22:01.000Z</time>
      </trkpt>
      <trkpt lat="46.30228" lon="4.71419">
        <ele>347.79998779297</ele>
        <time>2022-04-21T13:22:08.000Z</time>
      </trkpt>
      <trkpt lat="46.30238" lon="4.7142">
        <ele>346.39999389648</ele>
        <time>2022-04-21T13:22:12.000Z</time>
      </trkpt>
      <trkpt lat="46.30244" lon="4.71421">
        <ele>345.60000610352</ele>
        <time>2022-04-21T13:22:14.000Z</time>
      </trkpt>
      <trkpt lat="46.30254" lon="4.71423">
        <ele>344.39999389648</ele>
        <time>2022-04-21T13:22:17.000Z</time>
      </trkpt>
      <trkpt lat="46.30259" lon="4.71424">
        <ele>343.79998779297</ele>
        <time>2022-04-21T13:22:18.000Z</time>
      </trkpt>
      <trkpt lat="46.30281" lon="4.71426">
        <ele>340.79998779297</ele>
        <time>2022-04-21T13:22:22.000Z</time>
      </trkpt>
      <trkpt lat="46.30296" lon="4.71426">
        <ele>338.79998779297</ele>
        <time>2022-04-21T13:22:25.000Z</time>
      </trkpt>
      <trkpt lat="46.30314" lon="4.7143">
        <ele>336.79998779297</ele>
        <time>2022-04-21T13:22:29.000Z</time>
      </trkpt>
      <trkpt lat="46.30317" lon="4.7143">
        <ele>336.20001220703</ele>
        <time>2022-04-21T13:22:30.000Z</time>
      </trkpt>
      <trkpt lat="46.30326" lon="4.71433">
        <ele>335</ele>
        <time>2022-04-21T13:22:33.000Z</time>
      </trkpt>
      <trkpt lat="46.30337" lon="4.71442">
        <ele>333.79998779297</ele>
        <time>2022-04-21T13:22:36.000Z</time>
      </trkpt>
      <trkpt lat="46.30349" lon="4.7145">
        <ele>332.39999389648</ele>
        <time>2022-04-21T13:22:38.000Z</time>
      </trkpt>
      <trkpt lat="46.30372" lon="4.71465">
        <ele>329.20001220703</ele>
        <time>2022-04-21T13:22:42.000Z</time>
      </trkpt>
      <trkpt lat="46.30384" lon="4.71469">
        <ele>327.39999389648</ele>
        <time>2022-04-21T13:22:45.000Z</time>
      </trkpt>
      <trkpt lat="46.30388" lon="4.71468">
        <ele>326.79998779297</ele>
        <time>2022-04-21T13:22:46.000Z</time>
      </trkpt>
      <trkpt lat="46.3039" lon="4.71467">
        <ele>326.39999389648</ele>
        <time>2022-04-21T13:22:47.000Z</time>
      </trkpt>
      <trkpt lat="46.30393" lon="4.71465">
        <ele>325.79998779297</ele>
        <time>2022-04-21T13:22:48.000Z</time>
      </trkpt>
      <trkpt lat="46.30395" lon="4.71464">
        <ele>325.60000610352</ele>
        <time>2022-04-21T13:22:49.000Z</time>
      </trkpt>
      <trkpt lat="46.30397" lon="4.71446">
        <ele>324.79998779297</ele>
        <time>2022-04-21T13:22:55.000Z</time>
      </trkpt>
      <trkpt lat="46.30395" lon="4.71443">
        <ele>325</ele>
        <time>2022-04-21T13:22:56.000Z</time>
      </trkpt>
      <trkpt lat="46.30393" lon="4.71441">
        <ele>325.20001220703</ele>
        <time>2022-04-21T13:22:57.000Z</time>
      </trkpt>
      <trkpt lat="46.3039" lon="4.71439">
        <ele>325.60000610352</ele>
        <time>2022-04-21T13:22:58.000Z</time>
      </trkpt>
      <trkpt lat="46.30387" lon="4.71436">
        <ele>325.79998779297</ele>
        <time>2022-04-21T13:22:59.000Z</time>
      </trkpt>
      <trkpt lat="46.30384" lon="4.71433">
        <ele>326.20001220703</ele>
        <time>2022-04-21T13:23:00.000Z</time>
      </trkpt>
      <trkpt lat="46.30352" lon="4.714">
        <ele>329.60000610352</ele>
        <time>2022-04-21T13:23:08.000Z</time>
      </trkpt>
      <trkpt lat="46.30356" lon="4.71379">
        <ele>328.60000610352</ele>
        <time>2022-04-21T13:23:12.000Z</time>
      </trkpt>
      <trkpt lat="46.3037" lon="4.71375">
        <ele>326.60000610352</ele>
        <time>2022-04-21T13:23:16.000Z</time>
      </trkpt>
      <trkpt lat="46.30393" lon="4.71392">
        <ele>324</ele>
        <time>2022-04-21T13:23:21.000Z</time>
      </trkpt>
      <trkpt lat="46.30397" lon="4.71395">
        <ele>323.60000610352</ele>
        <time>2022-04-21T13:23:22.000Z</time>
      </trkpt>
      <trkpt lat="46.30409" lon="4.71397">
        <ele>320.60000610352</ele>
        <time>2022-04-21T13:23:26.000Z</time>
      </trkpt>
      <trkpt lat="46.30417" lon="4.71402">
        <ele>318.60000610352</ele>
        <time>2022-04-21T13:23:29.000Z</time>
      </trkpt>
      <trkpt lat="46.3042" lon="4.71405">
        <ele>318</ele>
        <time>2022-04-21T13:23:30.000Z</time>
      </trkpt>
      <trkpt lat="46.30422" lon="4.71409">
        <ele>317.39999389648</ele>
        <time>2022-04-21T13:23:31.000Z</time>
      </trkpt>
      <trkpt lat="46.30429" lon="4.71415">
        <ele>316</ele>
        <time>2022-04-21T13:23:33.000Z</time>
      </trkpt>
      <trkpt lat="46.3045" lon="4.71433">
        <ele>311.20001220703</ele>
        <time>2022-04-21T13:23:38.000Z</time>
      </trkpt>
      <trkpt lat="46.30472" lon="4.71444">
        <ele>305.79998779297</ele>
        <time>2022-04-21T13:23:43.000Z</time>
      </trkpt>
      <trkpt lat="46.30477" lon="4.71446">
        <ele>304.60000610352</ele>
        <time>2022-04-21T13:23:44.000Z</time>
      </trkpt>
      <trkpt lat="46.30487" lon="4.7145">
        <ele>302.79998779297</ele>
        <time>2022-04-21T13:23:46.000Z</time>
      </trkpt>
      <trkpt lat="46.30499" lon="4.71452">
        <ele>300.79998779297</ele>
        <time>2022-04-21T13:23:50.000Z</time>
      </trkpt>
      <trkpt lat="46.30507" lon="4.71452">
        <ele>299.39999389648</ele>
        <time>2022-04-21T13:23:53.000Z</time>
      </trkpt>
      <trkpt lat="46.30516" lon="4.71453">
        <ele>297.79998779297</ele>
        <time>2022-04-21T13:23:57.000Z</time>
      </trkpt>
      <trkpt lat="46.3053" lon="4.71457">
        <ele>295.60000610352</ele>
        <time>2022-04-21T13:24:02.000Z</time>
      </trkpt>
      <trkpt lat="46.30542" lon="4.71462">
        <ele>293.60000610352</ele>
        <time>2022-04-21T13:24:06.000Z</time>
      </trkpt>
      <trkpt lat="46.30554" lon="4.7147">
        <ele>291.39999389648</ele>
        <time>2022-04-21T13:24:10.000Z</time>
      </trkpt>
      <trkpt lat="46.30562" lon="4.71473">
        <ele>290</ele>
        <time>2022-04-21T13:24:12.000Z</time>
      </trkpt>
      <trkpt lat="46.30583" lon="4.71466">
        <ele>291.39999389648</ele>
        <time>2022-04-21T13:24:16.000Z</time>
      </trkpt>
      <trkpt lat="46.30596" lon="4.71458">
        <ele>294.20001220703</ele>
        <time>2022-04-21T13:24:18.000Z</time>
      </trkpt>
      <trkpt lat="46.30609" lon="4.71451">
        <ele>296.60000610352</ele>
        <time>2022-04-21T13:24:20.000Z</time>
      </trkpt>
      <trkpt lat="46.30615" lon="4.71449">
        <ele>297.39999389648</ele>
        <time>2022-04-21T13:24:21.000Z</time>
      </trkpt>
      <trkpt lat="46.30632" lon="4.71418">
        <ele>298.60000610352</ele>
        <time>2022-04-21T13:24:27.000Z</time>
      </trkpt>
      <trkpt lat="46.3063" lon="4.71403">
        <ele>297.79998779297</ele>
        <time>2022-04-21T13:24:29.000Z</time>
      </trkpt>
      <trkpt lat="46.30629" lon="4.71351">
        <ele>296.39999389648</ele>
        <time>2022-04-21T13:24:36.000Z</time>
      </trkpt>
      <trkpt lat="46.3063" lon="4.71335">
        <ele>296.60000610352</ele>
        <time>2022-04-21T13:24:38.000Z</time>
      </trkpt>
      <trkpt lat="46.3064" lon="4.71295">
        <ele>297.39999389648</ele>
        <time>2022-04-21T13:24:44.000Z</time>
      </trkpt>
      <trkpt lat="46.30661" lon="4.7129">
        <ele>300.39999389648</ele>
        <time>2022-04-21T13:24:50.000Z</time>
      </trkpt>
      <trkpt lat="46.3068" lon="4.71325">
        <ele>304.79998779297</ele>
        <time>2022-04-21T13:24:57.000Z</time>
      </trkpt>
      <trkpt lat="46.30688" lon="4.71358">
        <ele>306.39999389648</ele>
        <time>2022-04-21T13:25:03.000Z</time>
      </trkpt>
      <trkpt lat="46.3069" lon="4.71369">
        <ele>306.79998779297</ele>
        <time>2022-04-21T13:25:05.000Z</time>
      </trkpt>
      <trkpt lat="46.30693" lon="4.71381">
        <ele>307.20001220703</ele>
        <time>2022-04-21T13:25:07.000Z</time>
      </trkpt>
      <trkpt lat="46.30709" lon="4.71408">
        <ele>310.20001220703</ele>
        <time>2022-04-21T13:25:13.000Z</time>
      </trkpt>
      <trkpt lat="46.3074" lon="4.71428">
        <ele>315.20001220703</ele>
        <time>2022-04-21T13:25:22.000Z</time>
      </trkpt>
      <trkpt lat="46.30759" lon="4.71434">
        <ele>317</ele>
        <time>2022-04-21T13:25:28.000Z</time>
      </trkpt>
      <trkpt lat="46.30769" lon="4.71442">
        <ele>317.79998779297</ele>
        <time>2022-04-21T13:25:31.000Z</time>
      </trkpt>
      <trkpt lat="46.3079" lon="4.71465">
        <ele>318.60000610352</ele>
        <time>2022-04-21T13:25:37.000Z</time>
      </trkpt>
      <trkpt lat="46.30809" lon="4.71484">
        <ele>318.20001220703</ele>
        <time>2022-04-21T13:25:42.000Z</time>
      </trkpt>
      <trkpt lat="46.30827" lon="4.71494">
        <ele>318.20001220703</ele>
        <time>2022-04-21T13:25:46.000Z</time>
      </trkpt>
      <trkpt lat="46.30832" lon="4.71494">
        <ele>318.39999389648</ele>
        <time>2022-04-21T13:25:47.000Z</time>
      </trkpt>
      <trkpt lat="46.3084" lon="4.71494">
        <ele>318.60000610352</ele>
        <time>2022-04-21T13:25:49.000Z</time>
      </trkpt>
      <trkpt lat="46.30844" lon="4.71495">
        <ele>318.60000610352</ele>
        <time>2022-04-21T13:25:50.000Z</time>
      </trkpt>
      <trkpt lat="46.30878" lon="4.7151">
        <ele>318.39999389648</ele>
        <time>2022-04-21T13:25:58.000Z</time>
      </trkpt>
      <trkpt lat="46.30895" lon="4.7152">
        <ele>318</ele>
        <time>2022-04-21T13:26:02.000Z</time>
      </trkpt>
      <trkpt lat="46.30908" lon="4.71525">
        <ele>317.79998779297</ele>
        <time>2022-04-21T13:26:05.000Z</time>
      </trkpt>
      <trkpt lat="46.30927" lon="4.71527">
        <ele>318.20001220703</ele>
        <time>2022-04-21T13:26:10.000Z</time>
      </trkpt>
      <trkpt lat="46.30962" lon="4.7153">
        <ele>319.20001220703</ele>
        <time>2022-04-21T13:26:19.000Z</time>
      </trkpt>
      <trkpt lat="46.30971" lon="4.71537">
        <ele>318.79998779297</ele>
        <time>2022-04-21T13:26:21.000Z</time>
      </trkpt>
      <trkpt lat="46.30989" lon="4.71552">
        <ele>320</ele>
        <time>2022-04-21T13:26:25.000Z</time>
      </trkpt>
      <trkpt lat="46.31034" lon="4.71558">
        <ele>327</ele>
        <time>2022-04-21T13:26:35.000Z</time>
      </trkpt>
      <trkpt lat="46.31038" lon="4.71561">
        <ele>327.79998779297</ele>
        <time>2022-04-21T13:26:36.000Z</time>
      </trkpt>
      <trkpt lat="46.31064" lon="4.71573">
        <ele>331.79998779297</ele>
        <time>2022-04-21T13:26:43.000Z</time>
      </trkpt>
      <trkpt lat="46.31084" lon="4.71578">
        <ele>335.60000610352</ele>
        <time>2022-04-21T13:26:48.000Z</time>
      </trkpt>
      <trkpt lat="46.31095" lon="4.71579">
        <ele>332.8</ele>
        <time>2022-04-21T13:26:53.000Z</time>
      </trkpt>
      <trkpt lat="46.31086" lon="4.71638">
        <ele>329.6</ele>
        <time>2022-04-21T13:26:57.000Z</time>
      </trkpt>
      <trkpt lat="46.31074" lon="4.71697">
        <ele>327.3</ele>
        <time>2022-04-21T13:27:03.000Z</time>
      </trkpt>
      <trkpt lat="46.31066" lon="4.71733">
        <ele>326.1</ele>
        <time>2022-04-21T13:27:09.000Z</time>
      </trkpt>
      <trkpt lat="46.31075" lon="4.7175">
        <ele>328.8</ele>
        <time>2022-04-21T13:27:11.000Z</time>
      </trkpt>
      <trkpt lat="46.31085" lon="4.71803">
        <ele>332.3</ele>
        <time>2022-04-21T13:27:49.000Z</time>
      </trkpt>
      <trkpt lat="46.31092" lon="4.71871">
        <ele>337</ele>
        <time>2022-04-21T13:27:52.000Z</time>
      </trkpt>
      <trkpt lat="46.311" lon="4.71951">
        <ele>341.6</ele>
        <time>2022-04-21T13:27:53.000Z</time>
      </trkpt>
      <trkpt lat="46.3111" lon="4.7197">
        <ele>344.7</ele>
        <time>2022-04-21T13:27:55.000Z</time>
      </trkpt>
      <trkpt lat="46.31128" lon="4.71918">
        <ele>348.8</ele>
        <time>2022-04-21T13:28:07.000Z</time>
      </trkpt>
      <trkpt lat="46.3115" lon="4.71879">
        <ele>353.4</ele>
      </trkpt>
      <trkpt lat="46.3118" lon="4.71712">
        <ele>359.1</ele>
      </trkpt>
      <trkpt lat="46.31224" lon="4.71557">
        <ele>367.4</ele>
      </trkpt>
      <trkpt lat="46.31251" lon="4.71456">
        <ele>366.6</ele>
        <time>2022-04-21T13:28:12.000Z</time>
      </trkpt>
      <trkpt lat="46.31276" lon="4.71369">
        <ele>365.6</ele>
        <time>2022-04-21T13:28:20.000Z</time>
      </trkpt>
      <trkpt lat="46.31292" lon="4.71385">
        <ele>369.79998779297</ele>
        <time>2022-04-21T13:28:42.000Z</time>
      </trkpt>
      <trkpt lat="46.31298" lon="4.71399">
        <ele>372.60000610352</ele>
        <time>2022-04-21T13:28:46.000Z</time>
      </trkpt>
      <trkpt lat="46.31306" lon="4.71422">
        <ele>376.79998779297</ele>
        <time>2022-04-21T13:28:52.000Z</time>
      </trkpt>
      <trkpt lat="46.31314" lon="4.71443">
        <ele>380.79998779297</ele>
        <time>2022-04-21T13:28:58.000Z</time>
      </trkpt>
      <trkpt lat="46.31322" lon="4.71459">
        <ele>384.60000610352</ele>
        <time>2022-04-21T13:29:03.000Z</time>
      </trkpt>
      <trkpt lat="46.31328" lon="4.71477">
        <ele>388.20001220703</ele>
        <time>2022-04-21T13:29:08.000Z</time>
      </trkpt>
      <trkpt lat="46.31329" lon="4.71495">
        <ele>390.20001220703</ele>
        <time>2022-04-21T13:29:13.000Z</time>
      </trkpt>
      <trkpt lat="46.31327" lon="4.71518">
        <ele>391.39999389648</ele>
        <time>2022-04-21T13:29:18.000Z</time>
      </trkpt>
      <trkpt lat="46.31331" lon="4.7154">
        <ele>395.39999389648</ele>
        <time>2022-04-21T13:29:23.000Z</time>
      </trkpt>
      <trkpt lat="46.3133" lon="4.71558">
        <ele>400.20001220703</ele>
        <time>2022-04-21T13:29:27.000Z</time>
      </trkpt>
      <trkpt lat="46.31326" lon="4.71578">
        <ele>401.20001220703</ele>
        <time>2022-04-21T13:29:38.000Z</time>
      </trkpt>
      <trkpt lat="46.31325" lon="4.71584">
        <ele>401.39999389648</ele>
        <time>2022-04-21T13:30:52.000Z</time>
      </trkpt>
      <trkpt lat="46.31324" lon="4.71593">
        <ele>401.79998779297</ele>
        <time>2022-04-21T13:30:54.000Z</time>
      </trkpt>
      <trkpt lat="46.31333" lon="4.71592">
        <ele>406.39999389648</ele>
        <time>2022-04-21T13:30:59.000Z</time>
      </trkpt>
      <trkpt lat="46.3136" lon="4.71544">
        <ele>405.39999389648</ele>
        <time>2022-04-21T13:31:12.000Z</time>
      </trkpt>
      <trkpt lat="46.31382" lon="4.71515">
        <ele>406.79998779297</ele>
        <time>2022-04-21T13:31:21.000Z</time>
      </trkpt>
      <trkpt lat="46.3139" lon="4.71502">
        <ele>405.60000610352</ele>
        <time>2022-04-21T13:31:24.000Z</time>
      </trkpt>
      <trkpt lat="46.31405" lon="4.7148">
        <ele>404.60000610352</ele>
        <time>2022-04-21T13:31:30.000Z</time>
      </trkpt>
      <trkpt lat="46.31434" lon="4.71451">
        <ele>402.39999389648</ele>
        <time>2022-04-21T13:31:39.000Z</time>
      </trkpt>
      <trkpt lat="46.31472" lon="4.71434">
        <ele>405.79998779297</ele>
        <time>2022-04-21T13:31:50.000Z</time>
      </trkpt>
      <trkpt lat="46.31504" lon="4.71441">
        <ele>406.60000610352</ele>
        <time>2022-04-21T13:31:59.000Z</time>
      </trkpt>
      <trkpt lat="46.31526" lon="4.71431">
        <ele>404</ele>
        <time>2022-04-21T13:32:06.000Z</time>
      </trkpt>
      <trkpt lat="46.31555" lon="4.71424">
        <ele>402.20001220703</ele>
        <time>2022-04-21T13:32:17.000Z</time>
      </trkpt>
      <trkpt lat="46.31579" lon="4.71446">
        <ele>403</ele>
        <time>2022-04-21T13:32:27.000Z</time>
      </trkpt>
      <trkpt lat="46.3159" lon="4.71445">
        <ele>401.39999389648</ele>
        <time>2022-04-21T13:32:32.000Z</time>
      </trkpt>
      <trkpt lat="46.31623" lon="4.71445">
        <ele>397</ele>
        <time>2022-04-21T13:32:46.000Z</time>
      </trkpt>
      <trkpt lat="46.3162" lon="4.71434">
        <ele>396</ele>
        <time>2022-04-21T13:32:52.000Z</time>
      </trkpt>
      <trkpt lat="46.31615" lon="4.71426">
        <ele>395.60000610352</ele>
        <time>2022-04-21T13:32:55.000Z</time>
      </trkpt>
      <trkpt lat="46.31632" lon="4.71367">
        <ele>387.39999389648</ele>
        <time>2022-04-21T13:33:04.000Z</time>
      </trkpt>
      <trkpt lat="46.31641" lon="4.71338">
        <ele>384.20001220703</ele>
        <time>2022-04-21T13:33:08.000Z</time>
      </trkpt>
      <trkpt lat="46.31648" lon="4.71318">
        <ele>382.20001220703</ele>
        <time>2022-04-21T13:33:12.000Z</time>
      </trkpt>
      <trkpt lat="46.31651" lon="4.7131">
        <ele>381</ele>
        <time>2022-04-21T13:33:14.000Z</time>
      </trkpt>
      <trkpt lat="46.31653" lon="4.713">
        <ele>380</ele>
        <time>2022-04-21T13:33:16.000Z</time>
      </trkpt>
      <trkpt lat="46.31657" lon="4.71288">
        <ele>378.60000610352</ele>
        <time>2022-04-21T13:33:18.000Z</time>
      </trkpt>
      <trkpt lat="46.31679" lon="4.71234">
        <ele>371.60000610352</ele>
        <time>2022-04-21T13:33:24.000Z</time>
      </trkpt>
      <trkpt lat="46.31693" lon="4.712">
        <ele>369.60000610352</ele>
        <time>2022-04-21T13:33:28.000Z</time>
      </trkpt>
      <trkpt lat="46.317" lon="4.71185">
        <ele>369.39999389648</ele>
        <time>2022-04-21T13:33:31.000Z</time>
      </trkpt>
      <trkpt lat="46.31703" lon="4.71183">
        <ele>369.20001220703</ele>
        <time>2022-04-21T13:33:32.000Z</time>
      </trkpt>
      <trkpt lat="46.31707" lon="4.71183">
        <ele>368.79998779297</ele>
        <time>2022-04-21T13:33:33.000Z</time>
      </trkpt>
      <trkpt lat="46.3171" lon="4.71186">
        <ele>368.39999389648</ele>
        <time>2022-04-21T13:33:34.000Z</time>
      </trkpt>
      <trkpt lat="46.31713" lon="4.71191">
        <ele>368</ele>
        <time>2022-04-21T13:33:35.000Z</time>
      </trkpt>
      <trkpt lat="46.31717" lon="4.71203">
        <ele>367.20001220703</ele>
        <time>2022-04-21T13:33:37.000Z</time>
      </trkpt>
      <trkpt lat="46.31725" lon="4.71219">
        <ele>367</ele>
        <time>2022-04-21T13:33:40.000Z</time>
      </trkpt>
      <trkpt lat="46.31758" lon="4.71308">
        <ele>365.39999389648</ele>
        <time>2022-04-21T13:33:53.000Z</time>
      </trkpt>
      <trkpt lat="46.31761" lon="4.71315">
        <ele>365.39999389648</ele>
        <time>2022-04-21T13:33:54.000Z</time>
      </trkpt>
      <trkpt lat="46.3177" lon="4.71336">
        <ele>365.20001220703</ele>
        <time>2022-04-21T13:33:57.000Z</time>
      </trkpt>
      <trkpt lat="46.31778" lon="4.71355">
        <ele>365.39999389648</ele>
        <time>2022-04-21T13:34:00.000Z</time>
      </trkpt>
      <trkpt lat="46.318" lon="4.71421">
        <ele>364.20001220703</ele>
        <time>2022-04-21T13:34:09.000Z</time>
      </trkpt>
      <trkpt lat="46.31814" lon="4.71474">
        <ele>364</ele>
        <time>2022-04-21T13:34:16.000Z</time>
      </trkpt>
      <trkpt lat="46.31815" lon="4.71515">
        <ele>365.79998779297</ele>
        <time>2022-04-21T13:34:21.000Z</time>
      </trkpt>
      <trkpt lat="46.31818" lon="4.71558">
        <ele>366.79998779297</ele>
        <time>2022-04-21T13:34:27.000Z</time>
      </trkpt>
      <trkpt lat="46.31856" lon="4.71687">
        <ele>364.39999389648</ele>
        <time>2022-04-21T13:34:44.000Z</time>
      </trkpt>
      <trkpt lat="46.31859" lon="4.71695">
        <ele>364.39999389648</ele>
        <time>2022-04-21T13:34:45.000Z</time>
      </trkpt>
      <trkpt lat="46.31868" lon="4.71753">
        <ele>363.79998779297</ele>
        <time>2022-04-21T13:34:52.000Z</time>
      </trkpt>
      <trkpt lat="46.31876" lon="4.71807">
        <ele>362.20001220703</ele>
        <time>2022-04-21T13:34:59.000Z</time>
      </trkpt>
      <trkpt lat="46.31918" lon="4.7181">
        <ele>357.60000610352</ele>
        <time>2022-04-21T13:35:07.000Z</time>
      </trkpt>
      <trkpt lat="46.31971" lon="4.71809">
        <ele>352.60000610352</ele>
        <time>2022-04-21T13:35:13.000Z</time>
      </trkpt>
      <trkpt lat="46.31999" lon="4.71808">
        <ele>352.20001220703</ele>
        <time>2022-04-21T13:35:16.000Z</time>
      </trkpt>
      <trkpt lat="46.32024" lon="4.71808">
        <ele>353.39999389648</ele>
        <time>2022-04-21T13:35:19.000Z</time>
      </trkpt>
      <trkpt lat="46.32045" lon="4.7181">
        <ele>354.20001220703</ele>
        <time>2022-04-21T13:35:22.000Z</time>
      </trkpt>
      <trkpt lat="46.32055" lon="4.71811">
        <ele>354.79998779297</ele>
        <time>2022-04-21T13:35:24.000Z</time>
      </trkpt>
      <trkpt lat="46.32066" lon="4.71815">
        <ele>355.20001220703</ele>
        <time>2022-04-21T13:35:27.000Z</time>
      </trkpt>
      <trkpt lat="46.32104" lon="4.71814">
        <ele>358.79998779297</ele>
        <time>2022-04-21T13:35:35.000Z</time>
      </trkpt>
      <trkpt lat="46.32162" lon="4.71835">
        <ele>364.20001220703</ele>
        <time>2022-04-21T13:35:46.000Z</time>
      </trkpt>
      <trkpt lat="46.32175" lon="4.71846">
        <ele>364.79998779297</ele>
        <time>2022-04-21T13:35:49.000Z</time>
      </trkpt>
      <trkpt lat="46.32184" lon="4.71853">
        <ele>365.20001220703</ele>
        <time>2022-04-21T13:35:51.000Z</time>
      </trkpt>
      <trkpt lat="46.32195" lon="4.71865">
        <ele>365.60000610352</ele>
        <time>2022-04-21T13:35:54.000Z</time>
      </trkpt>
      <trkpt lat="46.32215" lon="4.71901">
        <ele>366.60000610352</ele>
        <time>2022-04-21T13:36:05.000Z</time>
      </trkpt>
      <trkpt lat="46.32203" lon="4.71944">
        <ele>363</ele>
        <time>2022-04-21T13:36:14.000Z</time>
      </trkpt>
      <trkpt lat="46.32188" lon="4.71972">
        <ele>359.79998779297</ele>
        <time>2022-04-21T13:36:18.000Z</time>
      </trkpt>
      <trkpt lat="46.32164" lon="4.72028">
        <ele>352.60000610352</ele>
        <time>2022-04-21T13:36:25.000Z</time>
      </trkpt>
      <trkpt lat="46.32155" lon="4.72043">
        <ele>349.79998779297</ele>
        <time>2022-04-21T13:36:27.000Z</time>
      </trkpt>
      <trkpt lat="46.32138" lon="4.72088">
        <ele>345</ele>
        <time>2022-04-21T13:36:32.000Z</time>
      </trkpt>
      <trkpt lat="46.32135" lon="4.72097">
        <ele>344.39999389648</ele>
        <time>2022-04-21T13:36:33.000Z</time>
      </trkpt>
      <trkpt lat="46.32123" lon="4.72131">
        <ele>340</ele>
        <time>2022-04-21T13:36:37.000Z</time>
      </trkpt>
      <trkpt lat="46.32117" lon="4.7216">
        <ele>337.79998779297</ele>
        <time>2022-04-21T13:36:40.000Z</time>
      </trkpt>
      <trkpt lat="46.32111" lon="4.72189">
        <ele>334.79998779297</ele>
        <time>2022-04-21T13:36:43.000Z</time>
      </trkpt>
      <trkpt lat="46.32102" lon="4.72216">
        <ele>331.39999389648</ele>
        <time>2022-04-21T13:36:47.000Z</time>
      </trkpt>
      <trkpt lat="46.32094" lon="4.7223">
        <ele>329</ele>
        <time>2022-04-21T13:36:50.000Z</time>
      </trkpt>
      <trkpt lat="46.32065" lon="4.72296">
        <ele>320</ele>
        <time>2022-04-21T13:36:57.000Z</time>
      </trkpt>
      <trkpt lat="46.32037" lon="4.72355">
        <ele>314.39999389648</ele>
        <time>2022-04-21T13:37:02.000Z</time>
      </trkpt>
      <trkpt lat="46.32029" lon="4.72385">
        <ele>311</ele>
        <time>2022-04-21T13:37:05.000Z</time>
      </trkpt>
      <trkpt lat="46.32028" lon="4.72392">
        <ele>310.20001220703</ele>
        <time>2022-04-21T13:37:06.000Z</time>
      </trkpt>
      <trkpt lat="46.32026" lon="4.72407">
        <ele>309.39999389648</ele>
        <time>2022-04-21T13:37:08.000Z</time>
      </trkpt>
      <trkpt lat="46.32013" lon="4.72453">
        <ele>305</ele>
        <time>2022-04-21T13:37:14.000Z</time>
      </trkpt>
      <trkpt lat="46.32009" lon="4.72462">
        <ele>304.20001220703</ele>
        <time>2022-04-21T13:37:15.000Z</time>
      </trkpt>
      <trkpt lat="46.32006" lon="4.72471">
        <ele>303.39999389648</ele>
        <time>2022-04-21T13:37:16.000Z</time>
      </trkpt>
      <trkpt lat="46.31996" lon="4.72511">
        <ele>300</ele>
        <time>2022-04-21T13:37:22.000Z</time>
      </trkpt>
      <trkpt lat="46.31995" lon="4.72515">
        <ele>299.39999389648</ele>
        <time>2022-04-21T13:37:23.000Z</time>
      </trkpt>
      <trkpt lat="46.31979" lon="4.72522">
        <ele>296.79998779297</ele>
        <time>2022-04-21T13:37:27.000Z</time>
      </trkpt>
      <trkpt lat="46.31975" lon="4.72521">
        <ele>297.60000610352</ele>
        <time>2022-04-21T13:37:28.000Z</time>
      </trkpt>
      <trkpt lat="46.31943" lon="4.7252">
        <ele>299.79998779297</ele>
        <time>2022-04-21T13:37:34.000Z</time>
      </trkpt>
      <trkpt lat="46.31914" lon="4.72535">
        <ele>298.60000610352</ele>
        <time>2022-04-21T13:37:40.000Z</time>
      </trkpt>
      <trkpt lat="46.31875" lon="4.7259">
        <ele>299.60000610352</ele>
        <time>2022-04-21T13:37:50.000Z</time>
      </trkpt>
      <trkpt lat="46.31872" lon="4.72596">
        <ele>299.79998779297</ele>
        <time>2022-04-21T13:37:51.000Z</time>
      </trkpt>
      <trkpt lat="46.31835" lon="4.72686">
        <ele>299</ele>
        <time>2022-04-21T13:38:04.000Z</time>
      </trkpt>
      <trkpt lat="46.31823" lon="4.72711">
        <ele>299.60000610352</ele>
        <time>2022-04-21T13:38:08.000Z</time>
      </trkpt>
      <trkpt lat="46.31766" lon="4.72797">
        <ele>300.20001220703</ele>
        <time>2022-04-21T13:38:22.000Z</time>
      </trkpt>
      <trkpt lat="46.31758" lon="4.7281">
        <ele>300.39999389648</ele>
        <time>2022-04-21T13:38:24.000Z</time>
      </trkpt>
      <trkpt lat="46.31721" lon="4.72865">
        <ele>300.20001220703</ele>
        <time>2022-04-21T13:38:33.000Z</time>
      </trkpt>
      <trkpt lat="46.31684" lon="4.72931">
        <ele>299</ele>
        <time>2022-04-21T13:38:43.000Z</time>
      </trkpt>
      <trkpt lat="46.31618" lon="4.73024">
        <ele>297</ele>
        <time>2022-04-21T13:38:58.000Z</time>
      </trkpt>
      <trkpt lat="46.31546" lon="4.73103">
        <ele>295.20001220703</ele>
        <time>2022-04-21T13:39:11.000Z</time>
      </trkpt>
      <trkpt lat="46.31499" lon="4.73151">
        <ele>293.79998779297</ele>
        <time>2022-04-21T13:39:19.000Z</time>
      </trkpt>
      <trkpt lat="46.31482" lon="4.73169">
        <ele>292.79998779297</ele>
        <time>2022-04-21T13:39:22.000Z</time>
      </trkpt>
      <trkpt lat="46.31414" lon="4.73243">
        <ele>291.79998779297</ele>
        <time>2022-04-21T13:39:34.000Z</time>
      </trkpt>
      <trkpt lat="46.31383" lon="4.73308">
        <ele>287.79998779297</ele>
        <time>2022-04-21T13:39:42.000Z</time>
      </trkpt>
      <trkpt lat="46.31372" lon="4.7333">
        <ele>286.39999389648</ele>
        <time>2022-04-21T13:39:45.000Z</time>
      </trkpt>
      <trkpt lat="46.31359" lon="4.73349">
        <ele>285.60000610352</ele>
        <time>2022-04-21T13:39:48.000Z</time>
      </trkpt>
      <trkpt lat="46.3134" lon="4.7337">
        <ele>285.39999389648</ele>
        <time>2022-04-21T13:39:52.000Z</time>
      </trkpt>
      <trkpt lat="46.31331" lon="4.7338">
        <ele>285.79998779297</ele>
        <time>2022-04-21T13:39:54.000Z</time>
      </trkpt>
      <trkpt lat="46.31317" lon="4.73396">
        <ele>287</ele>
        <time>2022-04-21T13:39:57.000Z</time>
      </trkpt>
      <trkpt lat="46.31303" lon="4.7342">
        <ele>287.39999389648</ele>
        <time>2022-04-21T13:40:01.000Z</time>
      </trkpt>
      <trkpt lat="46.31245" lon="4.73507">
        <ele>287.79998779297</ele>
        <time>2022-04-21T13:40:16.000Z</time>
      </trkpt>
      <trkpt lat="46.31226" lon="4.7355">
        <ele>290.20001220703</ele>
        <time>2022-04-21T13:40:23.000Z</time>
      </trkpt>
      <trkpt lat="46.31214" lon="4.73576">
        <ele>290.20001220703</ele>
        <time>2022-04-21T13:40:27.000Z</time>
      </trkpt>
      <trkpt lat="46.31206" lon="4.73597">
        <ele>290.60000610352</ele>
        <time>2022-04-21T13:40:30.000Z</time>
      </trkpt>
      <trkpt lat="46.31201" lon="4.73637">
        <ele>291.39999389648</ele>
        <time>2022-04-21T13:40:36.000Z</time>
      </trkpt>
      <trkpt lat="46.31199" lon="4.73659">
        <ele>290.60000610352</ele>
        <time>2022-04-21T13:40:39.000Z</time>
      </trkpt>
      <trkpt lat="46.31175" lon="4.7378">
        <ele>287.79998779297</ele>
        <time>2022-04-21T13:40:53.000Z</time>
      </trkpt>
      <trkpt lat="46.3117" lon="4.73793">
        <ele>287</ele>
        <time>2022-04-21T13:41:00.000Z</time>
      </trkpt>
      <trkpt lat="46.31168" lon="4.73803">
        <ele>286.39999389648</ele>
        <time>2022-04-21T13:50:14.000Z</time>
      </trkpt>
      <trkpt lat="46.31168" lon="4.73806">
        <ele>286.20001220703</ele>
        <time>2022-04-21T13:50:15.000Z</time>
      </trkpt>
      <trkpt lat="46.31156" lon="4.73871">
        <ele>284.20001220703</ele>
        <time>2022-04-21T13:50:29.000Z</time>
      </trkpt>
      <trkpt lat="46.31126" lon="4.73881">
        <ele>281.39999389648</ele>
        <time>2022-04-21T13:50:36.000Z</time>
      </trkpt>
      <trkpt lat="46.31087" lon="4.73909">
        <ele>277</ele>
        <time>2022-04-21T13:50:43.000Z</time>
      </trkpt>
      <trkpt lat="46.31054" lon="4.73921">
        <ele>274.39999389648</ele>
        <time>2022-04-21T13:50:50.000Z</time>
      </trkpt>
      <trkpt lat="46.31023" lon="4.73939">
        <ele>270.60000610352</ele>
        <time>2022-04-21T13:50:57.000Z</time>
      </trkpt>
      <trkpt lat="46.31021" lon="4.73946">
        <ele>270</ele>
        <time>2022-04-21T13:50:58.000Z</time>
      </trkpt>
      <trkpt lat="46.31014" lon="4.73993">
        <ele>267.79998779297</ele>
        <time>2022-04-21T13:51:04.000Z</time>
      </trkpt>
      <trkpt lat="46.31008" lon="4.74021">
        <ele>267</ele>
        <time>2022-04-21T13:51:08.000Z</time>
      </trkpt>
      <trkpt lat="46.30998" lon="4.74063">
        <ele>265.20001220703</ele>
        <time>2022-04-21T13:51:13.000Z</time>
      </trkpt>
      <trkpt lat="46.30997" lon="4.74085">
        <ele>264.39999389648</ele>
        <time>2022-04-21T13:51:16.000Z</time>
      </trkpt>
      <trkpt lat="46.30982" lon="4.74092">
        <ele>262.79998779297</ele>
        <time>2022-04-21T13:51:21.000Z</time>
      </trkpt>
      <trkpt lat="46.30957" lon="4.74091">
        <ele>260.20001220703</ele>
        <time>2022-04-21T13:51:29.000Z</time>
      </trkpt>
      <trkpt lat="46.30948" lon="4.74151">
        <ele>256.60000610352</ele>
        <time>2022-04-21T13:51:39.000Z</time>
      </trkpt>
      <trkpt lat="46.30943" lon="4.74214">
        <ele>253.39999389648</ele>
        <time>2022-04-21T13:51:47.000Z</time>
      </trkpt>
      <trkpt lat="46.30939" lon="4.74222">
        <ele>252.80000305176</ele>
        <time>2022-04-21T13:51:49.000Z</time>
      </trkpt>
      <trkpt lat="46.30921" lon="4.74244">
        <ele>250.19999694824</ele>
        <time>2022-04-21T13:51:54.000Z</time>
      </trkpt>
      <trkpt lat="46.30902" lon="4.74239">
        <ele>248</ele>
        <time>2022-04-21T13:52:00.000Z</time>
      </trkpt>
      <trkpt lat="46.30894" lon="4.74215">
        <ele>248.19999694824</ele>
        <time>2022-04-21T13:52:05.000Z</time>
      </trkpt>
      <trkpt lat="46.30892" lon="4.7421">
        <ele>248.39999389648</ele>
        <time>2022-04-21T13:52:06.000Z</time>
      </trkpt>
      <trkpt lat="46.30888" lon="4.74193">
        <ele>248.80000305176</ele>
        <time>2022-04-21T13:52:09.000Z</time>
      </trkpt>
      <trkpt lat="46.30864" lon="4.74179">
        <ele>247.80000305176</ele>
        <time>2022-04-21T13:52:15.000Z</time>
      </trkpt>
      <trkpt lat="46.30847" lon="4.74182">
        <ele>246.60000610352</ele>
        <time>2022-04-21T13:52:18.000Z</time>
      </trkpt>
      <trkpt lat="46.30769" lon="4.74195">
        <ele>245.39999389648</ele>
        <time>2022-04-21T13:52:33.000Z</time>
      </trkpt>
      <trkpt lat="46.30719" lon="4.74203">
        <ele>247.80000305176</ele>
        <time>2022-04-21T13:52:44.000Z</time>
      </trkpt>
      <trkpt lat="46.30702" lon="4.74203">
        <ele>249</ele>
        <time>2022-04-21T13:52:49.000Z</time>
      </trkpt>
      <trkpt lat="46.30697" lon="4.74151">
        <ele>250.39999389648</ele>
        <time>2022-04-21T13:52:59.000Z</time>
      </trkpt>
      <trkpt lat="46.30693" lon="4.74121">
        <ele>251.80000305176</ele>
        <time>2022-04-21T13:53:05.000Z</time>
      </trkpt>
      <trkpt lat="46.3068" lon="4.74117">
        <ele>252.39999389648</ele>
        <time>2022-04-21T13:53:09.000Z</time>
      </trkpt>
      <trkpt lat="46.30635" lon="4.74114">
        <ele>253.80000305176</ele>
        <time>2022-04-21T13:53:20.000Z</time>
      </trkpt>
      <trkpt lat="46.30623" lon="4.74109">
        <ele>253.80000305176</ele>
        <time>2022-04-21T13:53:23.000Z</time>
      </trkpt>
      <trkpt lat="46.30588" lon="4.74088">
        <ele>253.19999694824</ele>
        <time>2022-04-21T13:53:31.000Z</time>
      </trkpt>
      <trkpt lat="46.30568" lon="4.7408">
        <ele>253</ele>
        <time>2022-04-21T13:53:35.000Z</time>
      </trkpt>
      <trkpt lat="46.30557" lon="4.74091">
        <ele>253</ele>
        <time>2022-04-21T13:53:39.000Z</time>
      </trkpt>
      <trkpt lat="46.30541" lon="4.74107">
        <ele>252.80000305176</ele>
        <time>2022-04-21T13:53:45.000Z</time>
      </trkpt>
      <trkpt lat="46.30493" lon="4.74122">
        <ele>251.60000610352</ele>
        <time>2022-04-21T13:53:55.000Z</time>
      </trkpt>
      <trkpt lat="46.30447" lon="4.74141">
        <ele>243.80000305176</ele>
        <time>2022-04-21T13:54:04.000Z</time>
      </trkpt>
      <trkpt lat="46.3042" lon="4.7416">
        <ele>238.39999389648</ele>
        <time>2022-04-21T13:54:11.000Z</time>
      </trkpt>
      <trkpt lat="46.30406" lon="4.7417">
        <ele>236.19999694824</ele>
        <time>2022-04-21T13:54:16.000Z</time>
      </trkpt>
      <trkpt lat="46.30404" lon="4.74171">
        <ele>235.80000305176</ele>
        <time>2022-04-21T13:54:19.000Z</time>
      </trkpt>
      <trkpt lat="46.30405" lon="4.74172">
        <ele>236</ele>
        <time>2022-04-21T13:54:22.000Z</time>
      </trkpt>
      <trkpt lat="46.30392" lon="4.74179">
        <ele>233.80000305176</ele>
        <time>2022-04-21T13:54:35.000Z</time>
      </trkpt>
      <trkpt lat="46.30386" lon="4.74183">
        <ele>232.80000305176</ele>
        <time>2022-04-21T13:54:36.000Z</time>
      </trkpt>
      <trkpt lat="46.30352" lon="4.74206">
        <ele>226.80000305176</ele>
        <time>2022-04-21T13:54:43.000Z</time>
      </trkpt>
      <trkpt lat="46.30348" lon="4.74208">
        <ele>226</ele>
        <time>2022-04-21T13:54:44.000Z</time>
      </trkpt>
      <trkpt lat="46.30342" lon="4.74215">
        <ele>224.39999389648</ele>
        <time>2022-04-21T13:54:47.000Z</time>
      </trkpt>
      <trkpt lat="46.30337" lon="4.74219">
        <ele>223.19999694824</ele>
        <time>2022-04-21T13:54:49.000Z</time>
      </trkpt>
      <trkpt lat="46.30318" lon="4.74219">
        <ele>220.80000305176</ele>
        <time>2022-04-21T13:54:53.000Z</time>
      </trkpt>
      <trkpt lat="46.30296" lon="4.74216">
        <ele>220.60000610352</ele>
        <time>2022-04-21T13:54:57.000Z</time>
      </trkpt>
      <trkpt lat="46.30257" lon="4.74194">
        <ele>221.39999389648</ele>
        <time>2022-04-21T13:55:06.000Z</time>
      </trkpt>
      <trkpt lat="46.30244" lon="4.74167">
        <ele>222.39999389648</ele>
        <time>2022-04-21T13:55:11.000Z</time>
      </trkpt>
      <trkpt lat="46.30224" lon="4.74114">
        <ele>226.39999389648</ele>
        <time>2022-04-21T13:55:22.000Z</time>
      </trkpt>
      <trkpt lat="46.30219" lon="4.74086">
        <ele>229.39999389648</ele>
        <time>2022-04-21T13:55:27.000Z</time>
      </trkpt>
      <trkpt lat="46.30216" lon="4.7406">
        <ele>232.19999694824</ele>
        <time>2022-04-21T13:55:32.000Z</time>
      </trkpt>
      <trkpt lat="46.30214" lon="4.74033">
        <ele>234.19999694824</ele>
        <time>2022-04-21T13:55:37.000Z</time>
      </trkpt>
      <trkpt lat="46.30214" lon="4.74028">
        <ele>234.80000305176</ele>
        <time>2022-04-21T13:55:38.000Z</time>
      </trkpt>
      <trkpt lat="46.30212" lon="4.74019">
        <ele>235.80000305176</ele>
        <time>2022-04-21T13:55:40.000Z</time>
      </trkpt>
      <trkpt lat="46.30202" lon="4.74024">
        <ele>238.60000610352</ele>
        <time>2022-04-21T13:55:45.000Z</time>
      </trkpt>
      <trkpt lat="46.30193" lon="4.74062">
        <ele>239</ele>
        <time>2022-04-21T13:55:52.000Z</time>
      </trkpt>
      <trkpt lat="46.30189" lon="4.74083">
        <ele>239</ele>
        <time>2022-04-21T13:55:57.000Z</time>
      </trkpt>
      <trkpt lat="46.30186" lon="4.74086">
        <ele>239.39999389648</ele>
        <time>2022-04-21T13:55:58.000Z</time>
      </trkpt>
      <trkpt lat="46.30184" lon="4.74089">
        <ele>240</ele>
        <time>2022-04-21T13:55:59.000Z</time>
      </trkpt>
      <trkpt lat="46.3018" lon="4.7409">
        <ele>240.60000610352</ele>
        <time>2022-04-21T13:56:00.000Z</time>
      </trkpt>
      <trkpt lat="46.30178" lon="4.74091">
        <ele>241.39999389648</ele>
        <time>2022-04-21T13:56:01.000Z</time>
      </trkpt>
      <trkpt lat="46.30175" lon="4.7409">
        <ele>242.39999389648</ele>
        <time>2022-04-21T13:56:02.000Z</time>
      </trkpt>
      <trkpt lat="46.30172" lon="4.74088">
        <ele>243.19999694824</ele>
        <time>2022-04-21T13:56:03.000Z</time>
      </trkpt>
      <trkpt lat="46.30162" lon="4.74084">
        <ele>246.19999694824</ele>
        <time>2022-04-21T13:56:06.000Z</time>
      </trkpt>
      <trkpt lat="46.30148" lon="4.74079">
        <ele>250.60000610352</ele>
        <time>2022-04-21T13:56:11.000Z</time>
      </trkpt>
      <trkpt lat="46.30142" lon="4.7408">
        <ele>251.80000305176</ele>
        <time>2022-04-21T13:56:13.000Z</time>
      </trkpt>
      <trkpt lat="46.30135" lon="4.74082">
        <ele>253</ele>
        <time>2022-04-21T13:56:15.000Z</time>
      </trkpt>
      <trkpt lat="46.30108" lon="4.74064">
        <ele>260</ele>
        <time>2022-04-21T13:56:24.000Z</time>
      </trkpt>
      <trkpt lat="46.30085" lon="4.74056">
        <ele>265</ele>
        <time>2022-04-21T13:56:30.000Z</time>
      </trkpt>
      <trkpt lat="46.30057" lon="4.7404">
        <ele>270.60000610352</ele>
        <time>2022-04-21T13:56:38.000Z</time>
      </trkpt>
      <trkpt lat="46.30025" lon="4.74019">
        <ele>273.20001220703</ele>
        <time>2022-04-21T13:56:47.000Z</time>
      </trkpt>
      <trkpt lat="46.30001" lon="4.74014">
        <ele>273.79998779297</ele>
        <time>2022-04-21T13:56:54.000Z</time>
      </trkpt>
      <trkpt lat="46.29969" lon="4.74014">
        <ele>273.20001220703</ele>
        <time>2022-04-21T13:57:03.000Z</time>
      </trkpt>
      <trkpt lat="46.29945" lon="4.74011">
        <ele>272.20001220703</ele>
        <time>2022-04-21T13:57:11.000Z</time>
      </trkpt>
      <trkpt lat="46.29948" lon="4.74028">
        <ele>270.39999389648</ele>
        <time>2022-04-21T13:57:17.000Z</time>
      </trkpt>
      <trkpt lat="46.29974" lon="4.74093">
        <ele>262</ele>
        <time>2022-04-21T13:57:27.000Z</time>
      </trkpt>
      <trkpt lat="46.29978" lon="4.74106">
        <ele>260.20001220703</ele>
        <time>2022-04-21T13:57:29.000Z</time>
      </trkpt>
      <trkpt lat="46.2999" lon="4.74153">
        <ele>253.39999389648</ele>
        <time>2022-04-21T13:57:35.000Z</time>
      </trkpt>
      <trkpt lat="46.3" lon="4.74188">
        <ele>248.39999389648</ele>
        <time>2022-04-21T13:57:39.000Z</time>
      </trkpt>
      <trkpt lat="46.30005" lon="4.74214">
        <ele>244.80000305176</ele>
        <time>2022-04-21T13:57:42.000Z</time>
      </trkpt>
      <trkpt lat="46.30011" lon="4.74239">
        <ele>241.80000305176</ele>
        <time>2022-04-21T13:57:45.000Z</time>
      </trkpt>
      <trkpt lat="46.30012" lon="4.74246">
        <ele>241.19999694824</ele>
        <time>2022-04-21T13:57:46.000Z</time>
      </trkpt>
      <trkpt lat="46.30014" lon="4.74259">
        <ele>240</ele>
        <time>2022-04-21T13:57:48.000Z</time>
      </trkpt>
      <trkpt lat="46.30001" lon="4.74311">
        <ele>236.60000610352</ele>
        <time>2022-04-21T13:57:54.000Z</time>
      </trkpt>
      <trkpt lat="46.29993" lon="4.74346">
        <ele>234.19999694824</ele>
        <time>2022-04-21T13:58:00.000Z</time>
      </trkpt>
      <trkpt lat="46.29992" lon="4.74348">
        <ele>234</ele>
        <time>2022-04-21T13:58:01.000Z</time>
      </trkpt>
      <trkpt lat="46.29977" lon="4.74336">
        <ele>235.80000305176</ele>
        <time>2022-04-21T13:58:09.000Z</time>
      </trkpt>
      <trkpt lat="46.29965" lon="4.74304">
        <ele>237.2</ele>
        <time>2022-04-21T13:58:10.000Z</time>
      </trkpt>
      <trkpt lat="46.29935" lon="4.74245">
        <ele>241.2</ele>
        <time>2022-04-21T13:58:22.000Z</time>
      </trkpt>
      <trkpt lat="46.29901" lon="4.7426">
        <ele>234.6</ele>
        <time>2022-04-21T13:58:25.000Z</time>
      </trkpt>
      <trkpt lat="46.29882" lon="4.74273">
        <ele>231.7</ele>
        <time>2022-04-21T13:58:29.000Z</time>
      </trkpt>
      <trkpt lat="46.2986" lon="4.74289">
        <ele>231.2</ele>
        <time>2022-04-21T13:58:59.000Z</time>
      </trkpt>
      <trkpt lat="46.29843" lon="4.74293">
        <ele>231.3</ele>
        <time>2022-04-21T13:59:15.000Z</time>
      </trkpt>
      <trkpt lat="46.29829" lon="4.74239">
        <ele>233.1</ele>
        <time>2022-04-21T13:59:27.000Z</time>
      </trkpt>
      <trkpt lat="46.29808" lon="4.74172">
        <ele>234.8</ele>
        <time>2022-04-21T13:59:39.000Z</time>
      </trkpt>
      <trkpt lat="46.29777" lon="4.74097">
        <ele>238.1</ele>
        <time>2022-04-21T14:00:52.000Z</time>
      </trkpt>
      <trkpt lat="46.29754" lon="4.74055">
        <ele>241</ele>
        <time>2022-04-21T14:00:58.000Z</time>
      </trkpt>
      <trkpt lat="46.29757" lon="4.73986">
        <ele>244.1</ele>
        <time>2022-04-21T14:01:07.000Z</time>
      </trkpt>
      <trkpt lat="46.29774" lon="4.73821">
        <ele>251.2</ele>
        <time>2022-04-21T14:01:18.000Z</time>
      </trkpt>
      <trkpt lat="46.29777" lon="4.73749">
        <ele>254</ele>
        <time>2022-04-21T14:01:26.000Z</time>
      </trkpt>
      <trkpt lat="46.29772" lon="4.73722">
        <ele>253.9</ele>
      </trkpt>
      <trkpt lat="46.29741" lon="4.73636">
        <ele>256</ele>
      </trkpt>
      <trkpt lat="46.29683" lon="4.73688">
        <ele>260.3</ele>
      </trkpt>
      <trkpt lat="46.2968" lon="4.73735">
        <ele>265</ele>
      </trkpt>
      <trkpt lat="46.29677" lon="4.73787">
        <ele>266.3</ele>
      </trkpt>
      <trkpt lat="46.29651" lon="4.73826">
        <ele>271.4</ele>
      </trkpt>
      <trkpt lat="46.29631" lon="4.73871">
        <ele>274</ele>
      </trkpt>
      <trkpt lat="46.29597" lon="4.73974">
        <ele>274.5</ele>
      </trkpt>
      <trkpt lat="46.29585" lon="4.73998">
        <ele>274.8</ele>
      </trkpt>
      <trkpt lat="46.29603" lon="4.74039">
        <ele>269.9</ele>
      </trkpt>
      <trkpt lat="46.2961" lon="4.741">
        <ele>265</ele>
      </trkpt>
      <trkpt lat="46.29614" lon="4.74163">
        <ele>261.7</ele>
      </trkpt>
      <trkpt lat="46.29623" lon="4.74217">
        <ele>261.6</ele>
      </trkpt>
      <trkpt lat="46.29637" lon="4.74246">
        <ele>261</ele>
      </trkpt>
      <trkpt lat="46.29657" lon="4.7431">
        <ele>258.5</ele>
      </trkpt>
      <trkpt lat="46.2964" lon="4.74322">
        <ele>253.80000305176</ele>
        <time>2022-04-21T14:01:35.000Z</time>
      </trkpt>
      <trkpt lat="46.29611" lon="4.7432">
        <ele>257.60000610352</ele>
        <time>2022-04-21T14:01:45.000Z</time>
      </trkpt>
      <trkpt lat="46.29584" lon="4.74318">
        <ele>260.60000610352</ele>
        <time>2022-04-21T14:01:54.000Z</time>
      </trkpt>
      <trkpt lat="46.29545" lon="4.7431">
        <ele>263.60000610352</ele>
        <time>2022-04-21T14:02:07.000Z</time>
      </trkpt>
      <trkpt lat="46.29529" lon="4.743">
        <ele>264.60000610352</ele>
        <time>2022-04-21T14:02:14.000Z</time>
      </trkpt>
      <trkpt lat="46.29472" lon="4.74298">
        <ele>266</ele>
        <time>2022-04-21T14:02:30.000Z</time>
      </trkpt>
      <trkpt lat="46.29462" lon="4.74299">
        <ele>265</ele>
        <time>2022-04-21T14:02:32.000Z</time>
      </trkpt>
      <trkpt lat="46.2944" lon="4.74301">
        <ele>263.20001220703</ele>
        <time>2022-04-21T14:02:37.000Z</time>
      </trkpt>
      <trkpt lat="46.29395" lon="4.74291">
        <ele>259.79998779297</ele>
        <time>2022-04-21T14:02:45.000Z</time>
      </trkpt>
      <trkpt lat="46.2937" lon="4.7428">
        <ele>258.39999389648</ele>
        <time>2022-04-21T14:02:50.000Z</time>
      </trkpt>
      <trkpt lat="46.29364" lon="4.74278">
        <ele>258.20001220703</ele>
        <time>2022-04-21T14:02:52.000Z</time>
      </trkpt>
      <trkpt lat="46.29346" lon="4.74299">
        <ele>256</ele>
        <time>2022-04-21T14:02:59.000Z</time>
      </trkpt>
      <trkpt lat="46.29291" lon="4.74322">
        <ele>253.60000610352</ele>
        <time>2022-04-21T14:03:12.000Z</time>
      </trkpt>
      <trkpt lat="46.29232" lon="4.74355">
        <ele>253.19999694824</ele>
        <time>2022-04-21T14:03:26.000Z</time>
      </trkpt>
      <trkpt lat="46.29198" lon="4.74366">
        <ele>253.19999694824</ele>
        <time>2022-04-21T14:03:34.000Z</time>
      </trkpt>
      <trkpt lat="46.29123" lon="4.74359">
        <ele>254.19999694824</ele>
        <time>2022-04-21T14:03:51.000Z</time>
      </trkpt>
      <trkpt lat="46.29118" lon="4.74358">
        <ele>254.19999694824</ele>
        <time>2022-04-21T14:03:52.000Z</time>
      </trkpt>
      <trkpt lat="46.29109" lon="4.74356">
        <ele>254.19999694824</ele>
        <time>2022-04-21T14:03:54.000Z</time>
      </trkpt>
      <trkpt lat="46.29083" lon="4.74347">
        <ele>254.39999389648</ele>
        <time>2022-04-21T14:04:00.000Z</time>
      </trkpt>
      <trkpt lat="46.2907" lon="4.74344">
        <ele>254.39999389648</ele>
        <time>2022-04-21T14:04:03.000Z</time>
      </trkpt>
      <trkpt lat="46.29059" lon="4.74334">
        <ele>254.60000610352</ele>
        <time>2022-04-21T14:04:06.000Z</time>
      </trkpt>
      <trkpt lat="46.29035" lon="4.7431">
        <ele>255.19999694824</ele>
        <time>2022-04-21T14:04:12.000Z</time>
      </trkpt>
      <trkpt lat="46.2902" lon="4.74295">
        <ele>255.60000610352</ele>
        <time>2022-04-21T14:04:16.000Z</time>
      </trkpt>
      <trkpt lat="46.29013" lon="4.74287">
        <ele>255.80000305176</ele>
        <time>2022-04-21T14:04:18.000Z</time>
      </trkpt>
      <trkpt lat="46.29009" lon="4.74284">
        <ele>255.80000305176</ele>
        <time>2022-04-21T14:04:19.000Z</time>
      </trkpt>
      <trkpt lat="46.29003" lon="4.74278">
        <ele>255.60000610352</ele>
        <time>2022-04-21T14:04:21.000Z</time>
      </trkpt>
      <trkpt lat="46.28991" lon="4.74313">
        <ele>254.39999389648</ele>
        <time>2022-04-21T14:04:29.000Z</time>
      </trkpt>
      <trkpt lat="46.29002" lon="4.74417">
        <ele>251</ele>
        <time>2022-04-21T14:04:42.000Z</time>
      </trkpt>
      <trkpt lat="46.29006" lon="4.74432">
        <ele>250.39999389648</ele>
        <time>2022-04-21T14:04:44.000Z</time>
      </trkpt>
      <trkpt lat="46.29004" lon="4.74514">
        <ele>249.19999694824</ele>
        <time>2022-04-21T14:04:55.000Z</time>
      </trkpt>
      <trkpt lat="46.28998" lon="4.74591">
        <ele>251.60000610352</ele>
        <time>2022-04-21T14:05:07.000Z</time>
      </trkpt>
      <trkpt lat="46.28997" lon="4.74661">
        <ele>254</ele>
        <time>2022-04-21T14:05:18.000Z</time>
      </trkpt>
      <trkpt lat="46.28997" lon="4.74667">
        <ele>254.19999694824</ele>
        <time>2022-04-21T14:05:19.000Z</time>
      </trkpt>
      <trkpt lat="46.29" lon="4.74705">
        <ele>254.60000610352</ele>
        <time>2022-04-21T14:05:25.000Z</time>
      </trkpt>
      <trkpt lat="46.29005" lon="4.74723">
        <ele>254.39999389648</ele>
        <time>2022-04-21T14:05:28.000Z</time>
      </trkpt>
      <trkpt lat="46.2901" lon="4.74741">
        <ele>254.39999389648</ele>
        <time>2022-04-21T14:05:31.000Z</time>
      </trkpt>
      <trkpt lat="46.29013" lon="4.74821">
        <ele>254.39999389648</ele>
        <time>2022-04-21T14:05:45.000Z</time>
      </trkpt>
      <trkpt lat="46.29026" lon="4.7486">
        <ele>253.19999694824</ele>
        <time>2022-04-21T14:05:52.000Z</time>
      </trkpt>
      <trkpt lat="46.29031" lon="4.74884">
        <ele>252.60000610352</ele>
        <time>2022-04-21T14:05:56.000Z</time>
      </trkpt>
      <trkpt lat="46.29033" lon="4.74937">
        <ele>251.80000305176</ele>
        <time>2022-04-21T14:06:06.000Z</time>
      </trkpt>
      <trkpt lat="46.29043" lon="4.74979">
        <ele>251</ele>
        <time>2022-04-21T14:06:13.000Z</time>
      </trkpt>
      <trkpt lat="46.29062" lon="4.75055">
        <ele>250.19999694824</ele>
        <time>2022-04-21T14:06:26.000Z</time>
      </trkpt>
      <trkpt lat="46.29074" lon="4.75071">
        <ele>250</ele>
        <time>2022-04-21T14:06:34.000Z</time>
      </trkpt>
      <trkpt lat="46.29069" lon="4.75072">
        <ele>250.19999694824</ele>
        <time>2022-04-21T14:06:36.000Z</time>
      </trkpt>
      <trkpt lat="46.29049" lon="4.75075">
        <ele>250.80000305176</ele>
        <time>2022-04-21T14:06:49.000Z</time>
      </trkpt>
      <trkpt lat="46.29042" lon="4.75076">
        <ele>251</ele>
        <time>2022-04-21T14:06:56.000Z</time>
      </trkpt>
      <trkpt lat="46.29032" lon="4.7508">
        <ele>251.19999694824</ele>
        <time>2022-04-21T14:07:00.000Z</time>
      </trkpt>
      <trkpt lat="46.29016" lon="4.75085">
        <ele>251.60000610352</ele>
        <time>2022-04-21T14:07:06.000Z</time>
      </trkpt>
      <trkpt lat="46.29015" lon="4.75087">
        <ele>251.60000610352</ele>
        <time>2022-04-21T14:07:07.000Z</time>
      </trkpt>
      <trkpt lat="46.29014" lon="4.7509">
        <ele>251.60000610352</ele>
        <time>2022-04-21T14:07:08.000Z</time>
      </trkpt>
      <trkpt lat="46.29014" lon="4.75093">
        <ele>251.60000610352</ele>
        <time>2022-04-21T14:07:09.000Z</time>
      </trkpt>
      <trkpt lat="46.2902" lon="4.75113">
        <ele>251.60000610352</ele>
        <time>2022-04-21T14:07:13.000Z</time>
      </trkpt>
      <trkpt lat="46.29041" lon="4.75181">
        <ele>250.60000610352</ele>
        <time>2022-04-21T14:07:25.000Z</time>
      </trkpt>
      <trkpt lat="46.29045" lon="4.75199">
        <ele>250.19999694824</ele>
        <time>2022-04-21T14:07:28.000Z</time>
      </trkpt>
      <trkpt lat="46.2906" lon="4.7525">
        <ele>249.39999389648</ele>
        <time>2022-04-21T14:07:37.000Z</time>
      </trkpt>
      <trkpt lat="46.29049" lon="4.75275">
        <ele>249.39999389648</ele>
        <time>2022-04-21T14:07:43.000Z</time>
      </trkpt>
      <trkpt lat="46.29038" lon="4.75274">
        <ele>249.39999389648</ele>
        <time>2022-04-21T14:07:46.000Z</time>
      </trkpt>
      <trkpt lat="46.2903" lon="4.7527">
        <ele>249.39999389648</ele>
        <time>2022-04-21T14:07:48.000Z</time>
      </trkpt>
      <trkpt lat="46.28994" lon="4.75246">
        <ele>250</ele>
        <time>2022-04-21T14:07:57.000Z</time>
      </trkpt>
      <trkpt lat="46.28982" lon="4.75256">
        <ele>249.80000305176</ele>
        <time>2022-04-21T14:08:01.000Z</time>
      </trkpt>
      <trkpt lat="46.28963" lon="4.75304">
        <ele>248</ele>
        <time>2022-04-21T14:08:08.000Z</time>
      </trkpt>
      <trkpt lat="46.28944" lon="4.75351">
        <ele>245.60000610352</ele>
        <time>2022-04-21T14:08:15.000Z</time>
      </trkpt>
      <trkpt lat="46.28928" lon="4.75351">
        <ele>244.39999389648</ele>
        <time>2022-04-21T14:08:20.000Z</time>
      </trkpt>
      <trkpt lat="46.28893" lon="4.75306">
        <ele>244.60000610352</ele>
        <time>2022-04-21T14:08:28.000Z</time>
      </trkpt>
      <trkpt lat="46.28852" lon="4.75261">
        <ele>243</ele>
        <time>2022-04-21T14:08:35.000Z</time>
      </trkpt>
      <trkpt lat="46.28791" lon="4.7519">
        <ele>240.80000305176</ele>
        <time>2022-04-21T14:08:45.000Z</time>
      </trkpt>
      <trkpt lat="46.28778" lon="4.7518">
        <ele>240</ele>
        <time>2022-04-21T14:08:49.000Z</time>
      </trkpt>
      <trkpt lat="46.28773" lon="4.75187">
        <ele>239.19999694824</ele>
        <time>2022-04-21T14:08:52.000Z</time>
      </trkpt>
      <trkpt lat="46.28774" lon="4.75191">
        <ele>239</ele>
        <time>2022-04-21T14:08:53.000Z</time>
      </trkpt>
      <trkpt lat="46.28776" lon="4.75195">
        <ele>239</ele>
        <time>2022-04-21T14:08:54.000Z</time>
      </trkpt>
      <trkpt lat="46.28778" lon="4.752">
        <ele>239</ele>
        <time>2022-04-21T14:08:55.000Z</time>
      </trkpt>
      <trkpt lat="46.28778" lon="4.7525">
        <ele>236.39999389648</ele>
        <time>2022-04-21T14:09:04.000Z</time>
      </trkpt>
      <trkpt lat="46.28773" lon="4.75292">
        <ele>232.60000610352</ele>
        <time>2022-04-21T14:09:08.000Z</time>
      </trkpt>
      <trkpt lat="46.28766" lon="4.7532">
        <ele>228.80000305176</ele>
        <time>2022-04-21T14:09:10.000Z</time>
      </trkpt>
      <trkpt lat="46.28754" lon="4.75356">
        <ele>226.19999694824</ele>
        <time>2022-04-21T14:09:13.000Z</time>
      </trkpt>
      <trkpt lat="46.28746" lon="4.75374">
        <ele>224.80000305176</ele>
        <time>2022-04-21T14:09:16.000Z</time>
      </trkpt>
      <trkpt lat="46.28734" lon="4.75372">
        <ele>224.19999694824</ele>
        <time>2022-04-21T14:09:20.000Z</time>
      </trkpt>
      <trkpt lat="46.28731" lon="4.75371">
        <ele>224</ele>
        <time>2022-04-21T14:09:21.000Z</time>
      </trkpt>
      <trkpt lat="46.28678" lon="4.75352">
        <ele>224.39999389648</ele>
        <time>2022-04-21T14:09:34.000Z</time>
      </trkpt>
      <trkpt lat="46.28655" lon="4.75354">
        <ele>224.60000610352</ele>
        <time>2022-04-21T14:09:39.000Z</time>
      </trkpt>
      <trkpt lat="46.28636" lon="4.75359">
        <ele>225.39999389648</ele>
        <time>2022-04-21T14:09:44.000Z</time>
      </trkpt>
      <trkpt lat="46.2862" lon="4.75363">
        <ele>225.19999694824</ele>
        <time>2022-04-21T14:09:47.000Z</time>
      </trkpt>
      <trkpt lat="46.28607" lon="4.75372">
        <ele>225.19999694824</ele>
        <time>2022-04-21T14:09:50.000Z</time>
      </trkpt>
      <trkpt lat="46.28584" lon="4.75399">
        <ele>228.80000305176</ele>
        <time>2022-04-21T14:09:57.000Z</time>
      </trkpt>
      <trkpt lat="46.28555" lon="4.75416">
        <ele>231.19999694824</ele>
        <time>2022-04-21T14:10:04.000Z</time>
      </trkpt>
      <trkpt lat="46.28519" lon="4.7543">
        <ele>233.60000610352</ele>
        <time>2022-04-21T14:10:12.000Z</time>
      </trkpt>
      <trkpt lat="46.2851" lon="4.75433">
        <ele>234</ele>
        <time>2022-04-21T14:10:14.000Z</time>
      </trkpt>
      <trkpt lat="46.28497" lon="4.75436">
        <ele>234.19999694824</ele>
        <time>2022-04-21T14:10:17.000Z</time>
      </trkpt>
      <trkpt lat="46.2846" lon="4.75429">
        <ele>234</ele>
        <time>2022-04-21T14:10:25.000Z</time>
      </trkpt>
      <trkpt lat="46.28388" lon="4.754">
        <ele>235.19999694824</ele>
        <time>2022-04-21T14:10:40.000Z</time>
      </trkpt>
      <trkpt lat="46.28339" lon="4.75361">
        <ele>235</ele>
        <time>2022-04-21T14:10:51.000Z</time>
      </trkpt>
      <trkpt lat="46.28269" lon="4.75321">
        <ele>234.60000610352</ele>
        <time>2022-04-21T14:11:06.000Z</time>
      </trkpt>
      <trkpt lat="46.28257" lon="4.75314">
        <ele>234.19999694824</ele>
        <time>2022-04-21T14:11:09.000Z</time>
      </trkpt>
      <trkpt lat="46.28225" lon="4.75294">
        <ele>233.60000610352</ele>
        <time>2022-04-21T14:11:15.000Z</time>
      </trkpt>
      <trkpt lat="46.28205" lon="4.75266">
        <ele>233.19999694824</ele>
        <time>2022-04-21T14:11:19.000Z</time>
      </trkpt>
      <trkpt lat="46.2819" lon="4.75229">
        <ele>232.39999389648</ele>
        <time>2022-04-21T14:11:23.000Z</time>
      </trkpt>
      <trkpt lat="46.28176" lon="4.75206">
        <ele>232.60000610352</ele>
        <time>2022-04-21T14:11:26.000Z</time>
      </trkpt>
      <trkpt lat="46.28167" lon="4.75193">
        <ele>232.80000305176</ele>
        <time>2022-04-21T14:11:28.000Z</time>
      </trkpt>
      <trkpt lat="46.28148" lon="4.75166">
        <ele>233.39999389648</ele>
        <time>2022-04-21T14:11:33.000Z</time>
      </trkpt>
      <trkpt lat="46.28134" lon="4.75147">
        <ele>234.19999694824</ele>
        <time>2022-04-21T14:11:37.000Z</time>
      </trkpt>
      <trkpt lat="46.28102" lon="4.75082">
        <ele>234.80000305176</ele>
        <time>2022-04-21T14:11:49.000Z</time>
      </trkpt>
      <trkpt lat="46.281" lon="4.75064">
        <ele>234.60000610352</ele>
        <time>2022-04-21T14:11:52.000Z</time>
      </trkpt>
      <trkpt lat="46.28101" lon="4.75043">
        <ele>234.39999389648</ele>
        <time>2022-04-21T14:11:55.000Z</time>
      </trkpt>
      <trkpt lat="46.281" lon="4.75037">
        <ele>234.19999694824</ele>
        <time>2022-04-21T14:11:56.000Z</time>
      </trkpt>
      <trkpt lat="46.28097" lon="4.75025">
        <ele>234</ele>
        <time>2022-04-21T14:11:58.000Z</time>
      </trkpt>
      <trkpt lat="46.2809" lon="4.75002">
        <ele>233.80000305176</ele>
        <time>2022-04-21T14:12:02.000Z</time>
      </trkpt>
      <trkpt lat="46.28085" lon="4.7499">
        <ele>233.60000610352</ele>
        <time>2022-04-21T14:12:04.000Z</time>
      </trkpt>
      <trkpt lat="46.28047" lon="4.74934">
        <ele>234.60000610352</ele>
        <time>2022-04-21T14:12:16.000Z</time>
      </trkpt>
      <trkpt lat="46.28005" lon="4.74882">
        <ele>236.19999694824</ele>
        <time>2022-04-21T14:12:31.000Z</time>
      </trkpt>
      <trkpt lat="46.2797" lon="4.7486">
        <ele>237.19999694824</ele>
        <time>2022-04-21T14:12:43.000Z</time>
      </trkpt>
      <trkpt lat="46.27954" lon="4.74817">
        <ele>237</ele>
        <time>2022-04-21T14:12:56.000Z</time>
      </trkpt>
      <trkpt lat="46.27955" lon="4.74801">
        <ele>236.80000305176</ele>
        <time>2022-04-21T14:13:02.000Z</time>
      </trkpt>
      <trkpt lat="46.27947" lon="4.74777">
        <ele>236.60000610352</ele>
        <time>2022-04-21T14:13:06.000Z</time>
      </trkpt>
      <trkpt lat="46.27914" lon="4.74712">
        <ele>236.60000610352</ele>
        <time>2022-04-21T14:13:17.000Z</time>
      </trkpt>
      <trkpt lat="46.27877" lon="4.74637">
        <ele>240.60000610352</ele>
        <time>2022-04-21T14:13:30.000Z</time>
      </trkpt>
      <trkpt lat="46.27866" lon="4.74615">
        <ele>241.80000305176</ele>
        <time>2022-04-21T14:13:36.000Z</time>
      </trkpt>
      <trkpt lat="46.27861" lon="4.74618">
        <ele>242.19999694824</ele>
        <time>2022-04-21T14:13:40.000Z</time>
      </trkpt>
      <trkpt lat="46.27858" lon="4.74633">
        <ele>241.80000305176</ele>
        <time>2022-04-21T14:13:43.000Z</time>
      </trkpt>
      <trkpt lat="46.27854" lon="4.74652">
        <ele>241.39999389648</ele>
        <time>2022-04-21T14:13:46.000Z</time>
      </trkpt>
      <trkpt lat="46.2785" lon="4.74671">
        <ele>242</ele>
        <time>2022-04-21T14:13:49.000Z</time>
      </trkpt>
      <trkpt lat="46.27846" lon="4.74696">
        <ele>243.80000305176</ele>
        <time>2022-04-21T14:13:53.000Z</time>
      </trkpt>
      <trkpt lat="46.27842" lon="4.7474">
        <ele>245.39999389648</ele>
        <time>2022-04-21T14:14:01.000Z</time>
      </trkpt>
      <trkpt lat="46.27832" lon="4.74775">
        <ele>249</ele>
        <time>2022-04-21T14:14:07.000Z</time>
      </trkpt>
      <trkpt lat="46.27813" lon="4.74806">
        <ele>252.80000305176</ele>
        <time>2022-04-21T14:14:13.000Z</time>
      </trkpt>
      <trkpt lat="46.27797" lon="4.74821">
        <ele>257.20001220703</ele>
        <time>2022-04-21T14:14:17.000Z</time>
      </trkpt>
      <trkpt lat="46.27786" lon="4.74834">
        <ele>260.20001220703</ele>
        <time>2022-04-21T14:14:20.000Z</time>
      </trkpt>
      <trkpt lat="46.27758" lon="4.74894">
        <ele>261.79998779297</ele>
        <time>2022-04-21T14:14:31.000Z</time>
      </trkpt>
      <trkpt lat="46.27755" lon="4.749">
        <ele>262.20001220703</ele>
        <time>2022-04-21T14:14:32.000Z</time>
      </trkpt>
      <trkpt lat="46.27751" lon="4.74911">
        <ele>262.20001220703</ele>
        <time>2022-04-21T14:14:34.000Z</time>
      </trkpt>
      <trkpt lat="46.27732" lon="4.74951">
        <ele>262.79998779297</ele>
        <time>2022-04-21T14:14:42.000Z</time>
      </trkpt>
      <trkpt lat="46.27721" lon="4.74981">
        <ele>266.20001220703</ele>
        <time>2022-04-21T14:14:48.000Z</time>
      </trkpt>
      <trkpt lat="46.27713" lon="4.75017">
        <ele>269.20001220703</ele>
        <time>2022-04-21T14:14:55.000Z</time>
      </trkpt>
      <trkpt lat="46.27708" lon="4.75048">
        <ele>271.79998779297</ele>
        <time>2022-04-21T14:15:01.000Z</time>
      </trkpt>
      <trkpt lat="46.27697" lon="4.75073">
        <ele>276</ele>
        <time>2022-04-21T14:15:07.000Z</time>
      </trkpt>
      <trkpt lat="46.27686" lon="4.75099">
        <ele>279.60000610352</ele>
        <time>2022-04-21T14:15:13.000Z</time>
      </trkpt>
      <trkpt lat="46.27673" lon="4.75123">
        <ele>283.79998779297</ele>
        <time>2022-04-21T14:15:19.000Z</time>
      </trkpt>
      <trkpt lat="46.27661" lon="4.75148">
        <ele>288.39999389648</ele>
        <time>2022-04-21T14:15:25.000Z</time>
      </trkpt>
      <trkpt lat="46.27649" lon="4.75176">
        <ele>289.60000610352</ele>
        <time>2022-04-21T14:15:31.000Z</time>
      </trkpt>
      <trkpt lat="46.27644" lon="4.75191">
        <ele>290.60000610352</ele>
        <time>2022-04-21T14:15:34.000Z</time>
      </trkpt>
      <trkpt lat="46.27642" lon="4.75216">
        <ele>291.79998779297</ele>
        <time>2022-04-21T14:15:39.000Z</time>
      </trkpt>
      <trkpt lat="46.27627" lon="4.7521">
        <ele>294.60000610352</ele>
        <time>2022-04-21T14:15:57.000Z</time>
      </trkpt>
      <trkpt lat="46.27595" lon="4.75213">
        <ele>301.79998779297</ele>
        <time>2022-04-21T14:16:07.000Z</time>
      </trkpt>
      <trkpt lat="46.27577" lon="4.75223">
        <ele>305.79998779297</ele>
        <time>2022-04-21T14:16:13.000Z</time>
      </trkpt>
      <trkpt lat="46.27541" lon="4.75238">
        <ele>310.79998779297</ele>
        <time>2022-04-21T14:16:25.000Z</time>
      </trkpt>
      <trkpt lat="46.27524" lon="4.7524">
        <ele>313.60000610352</ele>
        <time>2022-04-21T14:16:31.000Z</time>
      </trkpt>
      <trkpt lat="46.27522" lon="4.7524">
        <ele>314.20001220703</ele>
        <time>2022-04-21T14:16:32.000Z</time>
      </trkpt>
      <trkpt lat="46.27501" lon="4.75246">
        <ele>316.20001220703</ele>
        <time>2022-04-21T14:16:39.000Z</time>
      </trkpt>
      <trkpt lat="46.27483" lon="4.75252">
        <ele>317.60000610352</ele>
        <time>2022-04-21T14:16:45.000Z</time>
      </trkpt>
      <trkpt lat="46.2748" lon="4.75252">
        <ele>318</ele>
        <time>2022-04-21T14:16:46.000Z</time>
      </trkpt>
      <trkpt lat="46.2745" lon="4.75264">
        <ele>321.20001220703</ele>
        <time>2022-04-21T14:16:57.000Z</time>
      </trkpt>
      <trkpt lat="46.27438" lon="4.75264">
        <ele>322.60000610352</ele>
        <time>2022-04-21T14:17:01.000Z</time>
      </trkpt>
      <trkpt lat="46.27415" lon="4.75253">
        <ele>326.39999389648</ele>
        <time>2022-04-21T14:17:09.000Z</time>
      </trkpt>
      <trkpt lat="46.27407" lon="4.75246">
        <ele>328.20001220703</ele>
        <time>2022-04-21T14:17:12.000Z</time>
      </trkpt>
      <trkpt lat="46.27382" lon="4.75226">
        <ele>331.20001220703</ele>
        <time>2022-04-21T14:17:21.000Z</time>
      </trkpt>
      <trkpt lat="46.27356" lon="4.7521">
        <ele>332</ele>
        <time>2022-04-21T14:17:30.000Z</time>
      </trkpt>
      <trkpt lat="46.27326" lon="4.75194">
        <ele>332.20001220703</ele>
        <time>2022-04-21T14:17:39.000Z</time>
      </trkpt>
      <trkpt lat="46.27307" lon="4.7518">
        <ele>332</ele>
        <time>2022-04-21T14:17:43.000Z</time>
      </trkpt>
      <trkpt lat="46.27243" lon="4.75103">
        <ele>329.39999389648</ele>
        <time>2022-04-21T14:17:55.000Z</time>
      </trkpt>
      <trkpt lat="46.27184" lon="4.75008">
        <ele>323.39999389648</ele>
        <time>2022-04-21T14:18:05.000Z</time>
      </trkpt>
      <trkpt lat="46.27179" lon="4.74996">
        <ele>322.39999389648</ele>
        <time>2022-04-21T14:18:06.000Z</time>
      </trkpt>
      <trkpt lat="46.2716" lon="4.74936">
        <ele>319.79998779297</ele>
        <time>2022-04-21T14:18:12.000Z</time>
      </trkpt>
      <trkpt lat="46.27155" lon="4.74925">
        <ele>318.79998779297</ele>
        <time>2022-04-21T14:18:14.000Z</time>
      </trkpt>
      <trkpt lat="46.27137" lon="4.74893">
        <ele>315.79998779297</ele>
        <time>2022-04-21T14:18:19.000Z</time>
      </trkpt>
      <trkpt lat="46.27112" lon="4.7485">
        <ele>311.39999389648</ele>
        <time>2022-04-21T14:18:24.000Z</time>
      </trkpt>
      <trkpt lat="46.27081" lon="4.74827">
        <ele>306</ele>
        <time>2022-04-21T14:18:29.000Z</time>
      </trkpt>
      <trkpt lat="46.2705" lon="4.74795">
        <ele>300.60000610352</ele>
        <time>2022-04-21T14:18:33.000Z</time>
      </trkpt>
      <trkpt lat="46.27001" lon="4.74746">
        <ele>293.79998779297</ele>
        <time>2022-04-21T14:18:38.000Z</time>
      </trkpt>
      <trkpt lat="46.26986" lon="4.7473">
        <ele>291.79998779297</ele>
        <time>2022-04-21T14:18:40.000Z</time>
      </trkpt>
      <trkpt lat="46.2698" lon="4.74722">
        <ele>291</ele>
        <time>2022-04-21T14:18:41.000Z</time>
      </trkpt>
      <trkpt lat="46.26964" lon="4.74709">
        <ele>291.60000610352</ele>
        <time>2022-04-21T14:18:44.000Z</time>
      </trkpt>
      <trkpt lat="46.26949" lon="4.74715">
        <ele>292</ele>
        <time>2022-04-21T14:18:47.000Z</time>
      </trkpt>
      <trkpt lat="46.26945" lon="4.74719">
        <ele>292.20001220703</ele>
        <time>2022-04-21T14:18:48.000Z</time>
      </trkpt>
      <trkpt lat="46.26939" lon="4.74728">
        <ele>292.39999389648</ele>
        <time>2022-04-21T14:18:50.000Z</time>
      </trkpt>
      <trkpt lat="46.26929" lon="4.7474">
        <ele>292.60000610352</ele>
        <time>2022-04-21T14:18:53.000Z</time>
      </trkpt>
      <trkpt lat="46.26871" lon="4.74775">
        <ele>289.79998779297</ele>
        <time>2022-04-21T14:19:05.000Z</time>
      </trkpt>
      <trkpt lat="46.26861" lon="4.7478">
        <ele>289.60000610352</ele>
        <time>2022-04-21T14:19:07.000Z</time>
      </trkpt>
      <trkpt lat="46.26828" lon="4.7479">
        <ele>289.60000610352</ele>
        <time>2022-04-21T14:19:14.000Z</time>
      </trkpt>
      <trkpt lat="46.26818" lon="4.7479">
        <ele>289.79998779297</ele>
        <time>2022-04-21T14:19:16.000Z</time>
      </trkpt>
      <trkpt lat="46.26793" lon="4.74791">
        <ele>290.39999389648</ele>
        <time>2022-04-21T14:19:21.000Z</time>
      </trkpt>
      <trkpt lat="46.26769" lon="4.74786">
        <ele>291.60000610352</ele>
        <time>2022-04-21T14:19:31.000Z</time>
      </trkpt>
      <trkpt lat="46.26766" lon="4.74793">
        <ele>291.20001220703</ele>
        <time>2022-04-21T14:19:46.000Z</time>
      </trkpt>
      <trkpt lat="46.26765" lon="4.74817">
        <ele>289.60000610352</ele>
        <time>2022-04-21T14:19:50.000Z</time>
      </trkpt>
      <trkpt lat="46.26758" lon="4.74898">
        <ele>286</ele>
        <time>2022-04-21T14:19:59.000Z</time>
      </trkpt>
      <trkpt lat="46.26723" lon="4.74929">
        <ele>284.60000610352</ele>
        <time>2022-04-21T14:20:06.000Z</time>
      </trkpt>
      <trkpt lat="46.26703" lon="4.74938">
        <ele>284.39999389648</ele>
        <time>2022-04-21T14:20:09.000Z</time>
      </trkpt>
      <trkpt lat="46.2669" lon="4.74939">
        <ele>284.20001220703</ele>
        <time>2022-04-21T14:20:11.000Z</time>
      </trkpt>
      <trkpt lat="46.26673" lon="4.74957">
        <ele>282.79998779297</ele>
        <time>2022-04-21T14:20:15.000Z</time>
      </trkpt>
      <trkpt lat="46.26652" lon="4.7499">
        <ele>280</ele>
        <time>2022-04-21T14:20:21.000Z</time>
      </trkpt>
      <trkpt lat="46.26635" lon="4.75014">
        <ele>279</ele>
        <time>2022-04-21T14:20:26.000Z</time>
      </trkpt>
      <trkpt lat="46.26619" lon="4.75045">
        <ele>277.79998779297</ele>
        <time>2022-04-21T14:20:33.000Z</time>
      </trkpt>
      <trkpt lat="46.26601" lon="4.75041">
        <ele>279.60000610352</ele>
        <time>2022-04-21T14:20:39.000Z</time>
      </trkpt>
      <trkpt lat="46.26565" lon="4.75021">
        <ele>284.39999389648</ele>
        <time>2022-04-21T14:20:49.000Z</time>
      </trkpt>
      <trkpt lat="46.26547" lon="4.75011">
        <ele>286.39999389648</ele>
        <time>2022-04-21T14:20:54.000Z</time>
      </trkpt>
      <trkpt lat="46.26536" lon="4.75004">
        <ele>287.79998779297</ele>
        <time>2022-04-21T14:20:57.000Z</time>
      </trkpt>
      <trkpt lat="46.26517" lon="4.74993">
        <ele>290</ele>
        <time>2022-04-21T14:21:02.000Z</time>
      </trkpt>
      <trkpt lat="46.26513" lon="4.74993">
        <ele>290.39999389648</ele>
        <time>2022-04-21T14:21:03.000Z</time>
      </trkpt>
      <trkpt lat="46.26509" lon="4.74992">
        <ele>290.60000610352</ele>
        <time>2022-04-21T14:21:04.000Z</time>
      </trkpt>
      <trkpt lat="46.26505" lon="4.74993">
        <ele>291</ele>
        <time>2022-04-21T14:21:05.000Z</time>
      </trkpt>
      <trkpt lat="46.26501" lon="4.74994">
        <ele>291.20001220703</ele>
        <time>2022-04-21T14:21:06.000Z</time>
      </trkpt>
      <trkpt lat="46.26493" lon="4.74997">
        <ele>291.39999389648</ele>
        <time>2022-04-21T14:21:08.000Z</time>
      </trkpt>
      <trkpt lat="46.26429" lon="4.75023">
        <ele>289.20001220703</ele>
        <time>2022-04-21T14:21:21.000Z</time>
      </trkpt>
      <trkpt lat="46.26423" lon="4.75024">
        <ele>289</ele>
        <time>2022-04-21T14:21:22.000Z</time>
      </trkpt>
      <trkpt lat="46.2641" lon="4.75027">
        <ele>288.60000610352</ele>
        <time>2022-04-21T14:21:24.000Z</time>
      </trkpt>
      <trkpt lat="46.26403" lon="4.75027">
        <ele>288.60000610352</ele>
        <time>2022-04-21T14:21:25.000Z</time>
      </trkpt>
      <trkpt lat="46.26387" lon="4.75028">
        <ele>287.60000610352</ele>
        <time>2022-04-21T14:21:27.000Z</time>
      </trkpt>
      <trkpt lat="46.26336" lon="4.75027">
        <ele>283.39999389648</ele>
        <time>2022-04-21T14:21:33.000Z</time>
      </trkpt>
      <trkpt lat="46.26299" lon="4.75027">
        <ele>280</ele>
        <time>2022-04-21T14:21:37.000Z</time>
      </trkpt>
      <trkpt lat="46.2627" lon="4.75024">
        <ele>277.79998779297</ele>
        <time>2022-04-21T14:21:40.000Z</time>
      </trkpt>
      <trkpt lat="46.2625" lon="4.75022">
        <ele>276</ele>
        <time>2022-04-21T14:21:43.000Z</time>
      </trkpt>
      <trkpt lat="46.26232" lon="4.75035">
        <ele>274.20001220703</ele>
        <time>2022-04-21T14:21:48.000Z</time>
      </trkpt>
      <trkpt lat="46.26211" lon="4.75079">
        <ele>272.79998779297</ele>
        <time>2022-04-21T14:21:55.000Z</time>
      </trkpt>
      <trkpt lat="46.26145" lon="4.75116">
        <ele>271</ele>
        <time>2022-04-21T14:22:07.000Z</time>
      </trkpt>
      <trkpt lat="46.26082" lon="4.75141">
        <ele>268</ele>
        <time>2022-04-21T14:22:17.000Z</time>
      </trkpt>
      <trkpt lat="46.26073" lon="4.75148">
        <ele>268</ele>
        <time>2022-04-21T14:22:19.000Z</time>
      </trkpt>
      <trkpt lat="46.2607" lon="4.75153">
        <ele>268</ele>
        <time>2022-04-21T14:22:20.000Z</time>
      </trkpt>
      <trkpt lat="46.26067" lon="4.75159">
        <ele>268</ele>
        <time>2022-04-21T14:22:21.000Z</time>
      </trkpt>
      <trkpt lat="46.26065" lon="4.75165">
        <ele>268.20001220703</ele>
        <time>2022-04-21T14:22:22.000Z</time>
      </trkpt>
      <trkpt lat="46.26063" lon="4.75172">
        <ele>268.20001220703</ele>
        <time>2022-04-21T14:22:23.000Z</time>
      </trkpt>
      <trkpt lat="46.26062" lon="4.7518">
        <ele>268.39999389648</ele>
        <time>2022-04-21T14:22:24.000Z</time>
      </trkpt>
      <trkpt lat="46.2606" lon="4.75187">
        <ele>268.39999389648</ele>
        <time>2022-04-21T14:22:25.000Z</time>
      </trkpt>
      <trkpt lat="46.26059" lon="4.75195">
        <ele>268.60000610352</ele>
        <time>2022-04-21T14:22:26.000Z</time>
      </trkpt>
      <trkpt lat="46.26043" lon="4.75295">
        <ele>264.39999389648</ele>
        <time>2022-04-21T14:22:36.000Z</time>
      </trkpt>
      <trkpt lat="46.26015" lon="4.75341">
        <ele>260.60000610352</ele>
        <time>2022-04-21T14:22:42.000Z</time>
      </trkpt>
      <trkpt lat="46.25985" lon="4.75357">
        <ele>257.79998779297</ele>
        <time>2022-04-21T14:22:47.000Z</time>
      </trkpt>
      <trkpt lat="46.25967" lon="4.75346">
        <ele>256.60000610352</ele>
        <time>2022-04-21T14:22:52.000Z</time>
      </trkpt>
      <trkpt lat="46.25909" lon="4.75246">
        <ele>252.80000305176</ele>
        <time>2022-04-21T14:23:06.000Z</time>
      </trkpt>
      <trkpt lat="46.2589" lon="4.7521">
        <ele>250.60000610352</ele>
        <time>2022-04-21T14:23:10.000Z</time>
      </trkpt>
      <trkpt lat="46.25877" lon="4.75168">
        <ele>250.80000305176</ele>
        <time>2022-04-21T14:23:14.000Z</time>
      </trkpt>
      <trkpt lat="46.25867" lon="4.75114">
        <ele>251.60000610352</ele>
        <time>2022-04-21T14:23:19.000Z</time>
      </trkpt>
      <trkpt lat="46.2586" lon="4.75087">
        <ele>252.39999389648</ele>
        <time>2022-04-21T14:23:25.000Z</time>
      </trkpt>
      <trkpt lat="46.25859" lon="4.75087">
        <ele>252.39999389648</ele>
        <time>2022-04-21T14:23:28.000Z</time>
      </trkpt>
      <trkpt lat="46.25853" lon="4.75071">
        <ele>252.39999389648</ele>
        <time>2022-04-21T14:23:54.000Z</time>
      </trkpt>
      <trkpt lat="46.25836" lon="4.75033">
        <ele>252.19999694824</ele>
        <time>2022-04-21T14:24:03.000Z</time>
      </trkpt>
      <trkpt lat="46.25814" lon="4.74989">
        <ele>253.19999694824</ele>
        <time>2022-04-21T14:24:11.000Z</time>
      </trkpt>
      <trkpt lat="46.25801" lon="4.74994">
        <ele>253</ele>
        <time>2022-04-21T14:24:15.000Z</time>
      </trkpt>
      <trkpt lat="46.25794" lon="4.75001">
        <ele>252.60000610352</ele>
        <time>2022-04-21T14:24:17.000Z</time>
      </trkpt>
      <trkpt lat="46.25772" lon="4.75011">
        <ele>252.39999389648</ele>
        <time>2022-04-21T14:24:22.000Z</time>
      </trkpt>
      <trkpt lat="46.25759" lon="4.75004">
        <ele>252.39999389648</ele>
        <time>2022-04-21T14:24:25.000Z</time>
      </trkpt>
      <trkpt lat="46.25695" lon="4.74981">
        <ele>252.60000610352</ele>
        <time>2022-04-21T14:24:38.000Z</time>
      </trkpt>
      <trkpt lat="46.25626" lon="4.74937">
        <ele>252.39999389648</ele>
        <time>2022-04-21T14:24:52.000Z</time>
      </trkpt>
      <trkpt lat="46.25615" lon="4.7493">
        <ele>252.19999694824</ele>
        <time>2022-04-21T14:24:54.000Z</time>
      </trkpt>
      <trkpt lat="46.25593" lon="4.7492">
        <ele>251.39999389648</ele>
        <time>2022-04-21T14:24:58.000Z</time>
      </trkpt>
      <trkpt lat="46.25572" lon="4.74906">
        <ele>250.60000610352</ele>
        <time>2022-04-21T14:25:02.000Z</time>
      </trkpt>
      <trkpt lat="46.25523" lon="4.74883">
        <ele>250.80000305176</ele>
        <time>2022-04-21T14:25:15.000Z</time>
      </trkpt>
      <trkpt lat="46.2552" lon="4.74885">
        <ele>250.60000610352</ele>
        <time>2022-04-21T14:25:16.000Z</time>
      </trkpt>
      <trkpt lat="46.25479" lon="4.74974">
        <ele>249.39999389648</ele>
        <time>2022-04-21T14:25:30.000Z</time>
      </trkpt>
      <trkpt lat="46.25427" lon="4.75083">
        <ele>246.80000305176</ele>
        <time>2022-04-21T14:25:45.000Z</time>
      </trkpt>
      <trkpt lat="46.25364" lon="4.75179">
        <ele>246.39999389648</ele>
        <time>2022-04-21T14:26:02.000Z</time>
      </trkpt>
      <trkpt lat="46.25308" lon="4.75258">
        <ele>245.39999389648</ele>
        <time>2022-04-21T14:26:18.000Z</time>
      </trkpt>
      <trkpt lat="46.25307" lon="4.7526">
        <ele>245.39999389648</ele>
        <time>2022-04-21T14:26:23.000Z</time>
      </trkpt>
      <trkpt lat="46.25301" lon="4.75273">
        <ele>244.80000305176</ele>
        <time>2022-04-21T14:26:28.000Z</time>
      </trkpt>
      <trkpt lat="46.25276" lon="4.75323">
        <ele>243.19999694824</ele>
        <time>2022-04-21T14:26:40.000Z</time>
      </trkpt>
      <trkpt lat="46.25257" lon="4.75304">
        <ele>243.19999694824</ele>
        <time>2022-04-21T14:26:47.000Z</time>
      </trkpt>
      <trkpt lat="46.25236" lon="4.75291">
        <ele>243</ele>
        <time>2022-04-21T14:26:52.000Z</time>
      </trkpt>
      <trkpt lat="46.25227" lon="4.75285">
        <ele>242.80000305176</ele>
        <time>2022-04-21T14:26:54.000Z</time>
      </trkpt>
      <trkpt lat="46.25195" lon="4.75274">
        <ele>240.80000305176</ele>
        <time>2022-04-21T14:27:00.000Z</time>
      </trkpt>
      <trkpt lat="46.2518" lon="4.75261">
        <ele>239.60000610352</ele>
        <time>2022-04-21T14:27:04.000Z</time>
      </trkpt>
      <trkpt lat="46.25173" lon="4.75273">
        <ele>239.80000305176</ele>
        <time>2022-04-21T14:27:08.000Z</time>
      </trkpt>
      <trkpt lat="46.2517" lon="4.75293">
        <ele>240.19999694824</ele>
        <time>2022-04-21T14:27:12.000Z</time>
      </trkpt>
      <trkpt lat="46.2515" lon="4.75322">
        <ele>239.60000610352</ele>
        <time>2022-04-21T14:27:19.000Z</time>
      </trkpt>
      <trkpt lat="46.25093" lon="4.75395">
        <ele>236</ele>
        <time>2022-04-21T14:27:32.000Z</time>
      </trkpt>
      <trkpt lat="46.25083" lon="4.75409">
        <ele>235.60000610352</ele>
        <time>2022-04-21T14:27:34.000Z</time>
      </trkpt>
      <trkpt lat="46.25079" lon="4.75416">
        <ele>235.39999389648</ele>
        <time>2022-04-21T14:27:35.000Z</time>
      </trkpt>
      <trkpt lat="46.25042" lon="4.75503">
        <ele>234.19999694824</ele>
        <time>2022-04-21T14:27:47.000Z</time>
      </trkpt>
      <trkpt lat="46.25027" lon="4.75532">
        <ele>235.9</ele>
        <time>2022-04-21T14:27:56.000Z</time>
      </trkpt>
      <trkpt lat="46.25005" lon="4.75565">
        <ele>233.9</ele>
        <time>2022-04-21T14:28:14.000Z</time>
      </trkpt>
      <trkpt lat="46.24989" lon="4.75546">
        <ele>232.1</ele>
        <time>2022-04-21T14:28:19.000Z</time>
      </trkpt>
      <trkpt lat="46.24953" lon="4.75594">
        <ele>229.4</ele>
      </trkpt>
      <trkpt lat="46.24945" lon="4.75595">
        <ele>228.5</ele>
        <time>2022-04-21T14:28:20.000Z</time>
      </trkpt>
      <trkpt lat="46.24897" lon="4.75671">
        <ele>225</ele>
      </trkpt>
      <trkpt lat="46.24875" lon="4.75713">
        <ele>225</ele>
        <time>2022-04-21T14:28:21.000Z</time>
      </trkpt>
      <trkpt lat="46.249" lon="4.75739">
        <ele>228</ele>
      </trkpt>
      <trkpt lat="46.24976" lon="4.75733">
        <ele>233.2</ele>
        <time>2022-04-21T14:28:24.000Z</time>
      </trkpt>
      <trkpt lat="46.25029" lon="4.75741">
        <ele>235.3</ele>
        <time>2022-04-21T14:28:40.000Z</time>
      </trkpt>
      <trkpt lat="46.24987" lon="4.75816">
        <ele>230.80000305176</ele>
        <time>2022-04-21T14:28:51.000Z</time>
      </trkpt>
      <trkpt lat="46.2496" lon="4.75868">
        <ele>227</ele>
        <time>2022-04-21T14:28:56.000Z</time>
      </trkpt>
      <trkpt lat="46.24926" lon="4.75932">
        <ele>223.80000305176</ele>
        <time>2022-04-21T14:29:02.000Z</time>
      </trkpt>
      <trkpt lat="46.24883" lon="4.75981">
        <ele>222.39999389648</ele>
        <time>2022-04-21T14:29:08.000Z</time>
      </trkpt>
      <trkpt lat="46.24876" lon="4.75988">
        <ele>222</ele>
        <time>2022-04-21T14:29:09.000Z</time>
      </trkpt>
      <trkpt lat="46.24785" lon="4.76098">
        <ele>217.19999694824</ele>
        <time>2022-04-21T14:29:22.000Z</time>
      </trkpt>
      <trkpt lat="46.24726" lon="4.76169">
        <ele>214</ele>
        <time>2022-04-21T14:29:29.000Z</time>
      </trkpt>
      <trkpt lat="46.24682" lon="4.76221">
        <ele>209.39999389648</ele>
        <time>2022-04-21T14:29:34.000Z</time>
      </trkpt>
      <trkpt lat="46.24668" lon="4.76238">
        <ele>207.80000305176</ele>
        <time>2022-04-21T14:29:36.000Z</time>
      </trkpt>
      <trkpt lat="46.24651" lon="4.7626">
        <ele>206</ele>
        <time>2022-04-21T14:29:39.000Z</time>
      </trkpt>
      <trkpt lat="46.24639" lon="4.76271">
        <ele>205</ele>
        <time>2022-04-21T14:29:43.000Z</time>
      </trkpt>
      <trkpt lat="46.24637" lon="4.76271">
        <ele>204.80000305176</ele>
        <time>2022-04-21T14:29:44.000Z</time>
      </trkpt>
      <trkpt lat="46.24628" lon="4.76274">
        <ele>204.39999389648</ele>
        <time>2022-04-21T14:29:54.000Z</time>
      </trkpt>
      <trkpt lat="46.24617" lon="4.7629">
        <ele>204</ele>
        <time>2022-04-21T14:29:58.000Z</time>
      </trkpt>
      <trkpt lat="46.24602" lon="4.76319">
        <ele>205</ele>
        <time>2022-04-21T14:30:02.000Z</time>
      </trkpt>
      <trkpt lat="46.24561" lon="4.76392">
        <ele>202.19999694824</ele>
        <time>2022-04-21T14:30:11.000Z</time>
      </trkpt>
      <trkpt lat="46.24551" lon="4.76408">
        <ele>202</ele>
        <time>2022-04-21T14:30:13.000Z</time>
      </trkpt>
      <trkpt lat="46.24506" lon="4.76506">
        <ele>201.19999694824</ele>
        <time>2022-04-21T14:30:25.000Z</time>
      </trkpt>
      <trkpt lat="46.24486" lon="4.76518">
        <ele>199.39999389648</ele>
        <time>2022-04-21T14:30:30.000Z</time>
      </trkpt>
      <trkpt lat="46.2444" lon="4.76499">
        <ele>199.39999389648</ele>
        <time>2022-04-21T14:30:40.000Z</time>
      </trkpt>
      <trkpt lat="46.24416" lon="4.76511">
        <ele>198.80000305176</ele>
        <time>2022-04-21T14:30:46.000Z</time>
      </trkpt>
      <trkpt lat="46.24394" lon="4.76527">
        <ele>198.39999389648</ele>
        <time>2022-04-21T14:30:50.000Z</time>
      </trkpt>
      <trkpt lat="46.24381" lon="4.76541">
        <ele>198.39999389648</ele>
        <time>2022-04-21T14:30:53.000Z</time>
      </trkpt>
      <trkpt lat="46.24359" lon="4.76555">
        <ele>198.80000305176</ele>
        <time>2022-04-21T14:30:57.000Z</time>
      </trkpt>
      <trkpt lat="46.24344" lon="4.7656">
        <ele>199.19999694824</ele>
        <time>2022-04-21T14:31:00.000Z</time>
      </trkpt>
      <trkpt lat="46.24327" lon="4.76563">
        <ele>199.80000305176</ele>
        <time>2022-04-21T14:31:03.000Z</time>
      </trkpt>
      <trkpt lat="46.24291" lon="4.76563">
        <ele>201.60000610352</ele>
        <time>2022-04-21T14:31:10.000Z</time>
      </trkpt>
      <trkpt lat="46.24264" lon="4.76606">
        <ele>203.80000305176</ele>
        <time>2022-04-21T14:31:19.000Z</time>
      </trkpt>
      <trkpt lat="46.24251" lon="4.76607">
        <ele>204.60000610352</ele>
        <time>2022-04-21T14:31:22.000Z</time>
      </trkpt>
      <trkpt lat="46.24221" lon="4.76597">
        <ele>206.39999389648</ele>
        <time>2022-04-21T14:31:29.000Z</time>
      </trkpt>
      <trkpt lat="46.24212" lon="4.76593">
        <ele>207</ele>
        <time>2022-04-21T14:31:31.000Z</time>
      </trkpt>
      <trkpt lat="46.24179" lon="4.76575">
        <ele>209.60000610352</ele>
        <time>2022-04-21T14:31:39.000Z</time>
      </trkpt>
      <trkpt lat="46.24175" lon="4.76574">
        <ele>209.80000305176</ele>
        <time>2022-04-21T14:31:40.000Z</time>
      </trkpt>
      <trkpt lat="46.24167" lon="4.7657">
        <ele>210.39999389648</ele>
        <time>2022-04-21T14:31:42.000Z</time>
      </trkpt>
      <trkpt lat="46.24158" lon="4.76566">
        <ele>211</ele>
        <time>2022-04-21T14:31:44.000Z</time>
      </trkpt>
      <trkpt lat="46.24131" lon="4.76564">
        <ele>212.80000305176</ele>
        <time>2022-04-21T14:31:50.000Z</time>
      </trkpt>
      <trkpt lat="46.24119" lon="4.76562">
        <ele>213.60000610352</ele>
        <time>2022-04-21T14:31:53.000Z</time>
      </trkpt>
      <trkpt lat="46.24091" lon="4.76521">
        <ele>216.60000610352</ele>
        <time>2022-04-21T14:32:02.000Z</time>
      </trkpt>
      <trkpt lat="46.24068" lon="4.76487">
        <ele>219.39999389648</ele>
        <time>2022-04-21T14:32:09.000Z</time>
      </trkpt>
      <trkpt lat="46.24038" lon="4.76441">
        <ele>222.39999389648</ele>
        <time>2022-04-21T14:32:20.000Z</time>
      </trkpt>
      <trkpt lat="46.23989" lon="4.76368">
        <ele>226.60000610352</ele>
        <time>2022-04-21T14:32:35.000Z</time>
      </trkpt>
      <trkpt lat="46.23976" lon="4.76349">
        <ele>228.19999694824</ele>
        <time>2022-04-21T14:32:41.000Z</time>
      </trkpt>
      <trkpt lat="46.23975" lon="4.76343">
        <ele>228.39999389648</ele>
        <time>2022-04-21T14:32:44.000Z</time>
      </trkpt>
      <trkpt lat="46.23968" lon="4.76336">
        <ele>229</ele>
        <time>2022-04-21T14:32:47.000Z</time>
      </trkpt>
      <trkpt lat="46.23929" lon="4.76279">
        <ele>233</ele>
        <time>2022-04-21T14:33:00.000Z</time>
      </trkpt>
      <trkpt lat="46.23914" lon="4.76273">
        <ele>234</ele>
        <time>2022-04-21T14:33:04.000Z</time>
      </trkpt>
      <trkpt lat="46.23904" lon="4.76277">
        <ele>233.80000305176</ele>
        <time>2022-04-21T14:33:06.000Z</time>
      </trkpt>
      <trkpt lat="46.23891" lon="4.76286">
        <ele>233.39999389648</ele>
        <time>2022-04-21T14:33:09.000Z</time>
      </trkpt>
      <trkpt lat="46.23881" lon="4.76291">
        <ele>233.80000305176</ele>
        <time>2022-04-21T14:33:11.000Z</time>
      </trkpt>
      <trkpt lat="46.23837" lon="4.76313">
        <ele>235.19999694824</ele>
        <time>2022-04-21T14:33:20.000Z</time>
      </trkpt>
      <trkpt lat="46.23767" lon="4.76347">
        <ele>235.19999694824</ele>
        <time>2022-04-21T14:33:34.000Z</time>
      </trkpt>
      <trkpt lat="46.23739" lon="4.7636">
        <ele>235.39999389648</ele>
        <time>2022-04-21T14:33:40.000Z</time>
      </trkpt>
      <trkpt lat="46.23715" lon="4.76372">
        <ele>235.60000610352</ele>
        <time>2022-04-21T14:33:45.000Z</time>
      </trkpt>
      <trkpt lat="46.23698" lon="4.76381">
        <ele>235.80000305176</ele>
        <time>2022-04-21T14:33:49.000Z</time>
      </trkpt>
      <trkpt lat="46.23693" lon="4.76364">
        <ele>237.39999389648</ele>
        <time>2022-04-21T14:33:54.000Z</time>
      </trkpt>
      <trkpt lat="46.23716" lon="4.7629">
        <ele>242.60000610352</ele>
        <time>2022-04-21T14:34:09.000Z</time>
      </trkpt>
      <trkpt lat="46.23724" lon="4.76267">
        <ele>243.80000305176</ele>
        <time>2022-04-21T14:34:14.000Z</time>
      </trkpt>
      <trkpt lat="46.23736" lon="4.76223">
        <ele>246.39999389648</ele>
        <time>2022-04-21T14:34:23.000Z</time>
      </trkpt>
      <trkpt lat="46.23751" lon="4.76173">
        <ele>249.39999389648</ele>
        <time>2022-04-21T14:34:34.000Z</time>
      </trkpt>
      <trkpt lat="46.23758" lon="4.76152">
        <ele>250.39999389648</ele>
        <time>2022-04-21T14:34:39.000Z</time>
      </trkpt>
      <trkpt lat="46.23757" lon="4.76145">
        <ele>250.80000305176</ele>
        <time>2022-04-21T14:34:41.000Z</time>
      </trkpt>
      <trkpt lat="46.23755" lon="4.76144">
        <ele>251</ele>
        <time>2022-04-21T14:34:42.000Z</time>
      </trkpt>
      <trkpt lat="46.23751" lon="4.76143">
        <ele>251.19999694824</ele>
        <time>2022-04-21T14:34:43.000Z</time>
      </trkpt>
      <trkpt lat="46.23748" lon="4.76143">
        <ele>251.19999694824</ele>
        <time>2022-04-21T14:34:44.000Z</time>
      </trkpt>
      <trkpt lat="46.23744" lon="4.76143">
        <ele>251.39999389648</ele>
        <time>2022-04-21T14:34:45.000Z</time>
      </trkpt>
      <trkpt lat="46.2374" lon="4.76143">
        <ele>251.39999389648</ele>
        <time>2022-04-21T14:34:46.000Z</time>
      </trkpt>
      <trkpt lat="46.23736" lon="4.76143">
        <ele>251.60000610352</ele>
        <time>2022-04-21T14:34:47.000Z</time>
      </trkpt>
      <trkpt lat="46.23684" lon="4.76136">
        <ele>253.80000305176</ele>
        <time>2022-04-21T14:35:01.000Z</time>
      </trkpt>
      <trkpt lat="46.23639" lon="4.76132">
        <ele>255.60000610352</ele>
        <time>2022-04-21T14:35:13.000Z</time>
      </trkpt>
      <trkpt lat="46.23594" lon="4.7613">
        <ele>255.60000610352</ele>
        <time>2022-04-21T14:35:25.000Z</time>
      </trkpt>
      <trkpt lat="46.23575" lon="4.7613">
        <ele>255.60000610352</ele>
        <time>2022-04-21T14:35:31.000Z</time>
      </trkpt>
      <trkpt lat="46.23556" lon="4.76194">
        <ele>255</ele>
        <time>2022-04-21T14:35:43.000Z</time>
      </trkpt>
      <trkpt lat="46.23531" lon="4.76292">
        <ele>248.80000305176</ele>
        <time>2022-04-21T14:35:56.000Z</time>
      </trkpt>
      <trkpt lat="46.23511" lon="4.76296">
        <ele>249.19999694824</ele>
        <time>2022-04-21T14:36:02.000Z</time>
      </trkpt>
      <trkpt lat="46.23447" lon="4.76297">
        <ele>250.19999694824</ele>
        <time>2022-04-21T14:36:19.000Z</time>
      </trkpt>
      <trkpt lat="46.23407" lon="4.76297">
        <ele>250.19999694824</ele>
        <time>2022-04-21T14:36:31.000Z</time>
      </trkpt>
      <trkpt lat="46.23359" lon="4.76294">
        <ele>250</ele>
        <time>2022-04-21T14:36:44.000Z</time>
      </trkpt>
      <trkpt lat="46.23321" lon="4.76295">
        <ele>249.60000610352</ele>
        <time>2022-04-21T14:36:52.000Z</time>
      </trkpt>
      <trkpt lat="46.23283" lon="4.76296">
        <ele>247.80000305176</ele>
        <time>2022-04-21T14:36:58.000Z</time>
      </trkpt>
      <trkpt lat="46.23211" lon="4.76297">
        <ele>244.80000305176</ele>
        <time>2022-04-21T14:37:07.000Z</time>
      </trkpt>
      <trkpt lat="46.23186" lon="4.76299">
        <ele>244</ele>
        <time>2022-04-21T14:37:10.000Z</time>
      </trkpt>
      <trkpt lat="46.23089" lon="4.76298">
        <ele>240.60000610352</ele>
        <time>2022-04-21T14:37:22.000Z</time>
      </trkpt>
      <trkpt lat="46.23033" lon="4.76322">
        <ele>236.60000610352</ele>
        <time>2022-04-21T14:37:29.000Z</time>
      </trkpt>
      <trkpt lat="46.22949" lon="4.76371">
        <ele>231.60000610352</ele>
        <time>2022-04-21T14:37:39.000Z</time>
      </trkpt>
      <trkpt lat="46.22886" lon="4.76406">
        <ele>227.80000305176</ele>
        <time>2022-04-21T14:37:46.000Z</time>
      </trkpt>
      <trkpt lat="46.22868" lon="4.76416">
        <ele>226.39999389648</ele>
        <time>2022-04-21T14:37:48.000Z</time>
      </trkpt>
      <trkpt lat="46.22853" lon="4.76424">
        <ele>225.80000305176</ele>
        <time>2022-04-21T14:37:50.000Z</time>
      </trkpt>
      <trkpt lat="46.22811" lon="4.76417">
        <ele>224.19999694824</ele>
        <time>2022-04-21T14:37:56.000Z</time>
      </trkpt>
      <trkpt lat="46.22777" lon="4.76384">
        <ele>224.19999694824</ele>
        <time>2022-04-21T14:38:01.000Z</time>
      </trkpt>
      <trkpt lat="46.2274" lon="4.76361">
        <ele>225</ele>
        <time>2022-04-21T14:38:07.000Z</time>
      </trkpt>
      <trkpt lat="46.22727" lon="4.76357">
        <ele>225.60000610352</ele>
        <time>2022-04-21T14:38:10.000Z</time>
      </trkpt>
      <trkpt lat="46.22715" lon="4.76351">
        <ele>226.60000610352</ele>
        <time>2022-04-21T14:38:13.000Z</time>
      </trkpt>
      <trkpt lat="46.22707" lon="4.76346">
        <ele>227.19999694824</ele>
        <time>2022-04-21T14:38:15.000Z</time>
      </trkpt>
      <trkpt lat="46.22668" lon="4.76322">
        <ele>230.39999389648</ele>
        <time>2022-04-21T14:38:25.000Z</time>
      </trkpt>
      <trkpt lat="46.22644" lon="4.76309">
        <ele>232.19999694824</ele>
        <time>2022-04-21T14:38:31.000Z</time>
      </trkpt>
      <trkpt lat="46.22577" lon="4.76269">
        <ele>235.80000305176</ele>
        <time>2022-04-21T14:38:48.000Z</time>
      </trkpt>
      <trkpt lat="46.22569" lon="4.76263">
        <ele>236</ele>
        <time>2022-04-21T14:38:50.000Z</time>
      </trkpt>
      <trkpt lat="46.22558" lon="4.76238">
        <ele>236.60000610352</ele>
        <time>2022-04-21T14:38:55.000Z</time>
      </trkpt>
      <trkpt lat="46.22558" lon="4.76193">
        <ele>237</ele>
        <time>2022-04-21T14:39:02.000Z</time>
      </trkpt>
      <trkpt lat="46.22548" lon="4.76168">
        <ele>237.19999694824</ele>
        <time>2022-04-21T14:39:07.000Z</time>
      </trkpt>
      <trkpt lat="46.22539" lon="4.76163">
        <ele>237.19999694824</ele>
        <time>2022-04-21T14:39:09.000Z</time>
      </trkpt>
      <trkpt lat="46.22517" lon="4.76149">
        <ele>237.60000610352</ele>
        <time>2022-04-21T14:39:15.000Z</time>
      </trkpt>
      <trkpt lat="46.22499" lon="4.7614">
        <ele>237.80000305176</ele>
        <time>2022-04-21T14:39:21.000Z</time>
      </trkpt>
      <trkpt lat="46.22496" lon="4.76142">
        <ele>237.80000305176</ele>
        <time>2022-04-21T14:39:23.000Z</time>
      </trkpt>
      <trkpt lat="46.22486" lon="4.7617">
        <ele>238.39999389648</ele>
        <time>2022-04-21T14:39:29.000Z</time>
      </trkpt>
      <trkpt lat="46.22479" lon="4.76193">
        <ele>238.80000305176</ele>
        <time>2022-04-21T14:39:33.000Z</time>
      </trkpt>
      <trkpt lat="46.22459" lon="4.76201">
        <ele>238</ele>
        <time>2022-04-21T14:39:39.000Z</time>
      </trkpt>
      <trkpt lat="46.22451" lon="4.76197">
        <ele>237.80000305176</ele>
        <time>2022-04-21T14:39:41.000Z</time>
      </trkpt>
      <trkpt lat="46.22407" lon="4.76171">
        <ele>236</ele>
        <time>2022-04-21T14:39:52.000Z</time>
      </trkpt>
      <trkpt lat="46.22342" lon="4.76133">
        <ele>234</ele>
        <time>2022-04-21T14:40:06.000Z</time>
      </trkpt>
      <trkpt lat="46.22328" lon="4.76127">
        <ele>233.39999389648</ele>
        <time>2022-04-21T14:40:09.000Z</time>
      </trkpt>
      <trkpt lat="46.22317" lon="4.76138">
        <ele>233.19999694824</ele>
        <time>2022-04-21T14:40:13.000Z</time>
      </trkpt>
      <trkpt lat="46.22284" lon="4.76252">
        <ele>230.80000305176</ele>
        <time>2022-04-21T14:40:30.000Z</time>
      </trkpt>
      <trkpt lat="46.22258" lon="4.76342">
        <ele>225.19999694824</ele>
        <time>2022-04-21T14:40:39.000Z</time>
      </trkpt>
      <trkpt lat="46.22239" lon="4.76408">
        <ele>222</ele>
        <time>2022-04-21T14:40:45.000Z</time>
      </trkpt>
      <trkpt lat="46.22235" lon="4.76419">
        <ele>221.39999389648</ele>
        <time>2022-04-21T14:40:46.000Z</time>
      </trkpt>
      <trkpt lat="46.22225" lon="4.76453">
        <ele>220</ele>
        <time>2022-04-21T14:40:49.000Z</time>
      </trkpt>
      <trkpt lat="46.22214" lon="4.7649">
        <ele>219.39999389648</ele>
        <time>2022-04-21T14:40:53.000Z</time>
      </trkpt>
      <trkpt lat="46.22211" lon="4.76503">
        <ele>219.19999694824</ele>
        <time>2022-04-21T14:40:55.000Z</time>
      </trkpt>
      <trkpt lat="46.22188" lon="4.76495">
        <ele>219</ele>
        <time>2022-04-21T14:41:01.000Z</time>
      </trkpt>
      <trkpt lat="46.22148" lon="4.76474">
        <ele>218.80000305176</ele>
        <time>2022-04-21T14:41:09.000Z</time>
      </trkpt>
      <trkpt lat="46.22129" lon="4.76464">
        <ele>218.60000610352</ele>
        <time>2022-04-21T14:41:13.000Z</time>
      </trkpt>
      <trkpt lat="46.22108" lon="4.76453">
        <ele>218.60000610352</ele>
        <time>2022-04-21T14:41:18.000Z</time>
      </trkpt>
      <trkpt lat="46.22089" lon="4.76458">
        <ele>218.19999694824</ele>
        <time>2022-04-21T14:41:23.000Z</time>
      </trkpt>
      <trkpt lat="46.2205" lon="4.76604">
        <ele>215</ele>
        <time>2022-04-21T14:41:41.000Z</time>
      </trkpt>
      <trkpt lat="46.22045" lon="4.76622">
        <ele>215</ele>
        <time>2022-04-21T14:41:43.000Z</time>
      </trkpt>
      <trkpt lat="46.2204" lon="4.76648">
        <ele>215</ele>
        <time>2022-04-21T14:41:46.000Z</time>
      </trkpt>
      <trkpt lat="46.22025" lon="4.76683">
        <ele>214.80000305176</ele>
        <time>2022-04-21T14:41:51.000Z</time>
      </trkpt>
      <trkpt lat="46.22011" lon="4.76719">
        <ele>214.19999694824</ele>
        <time>2022-04-21T14:41:56.000Z</time>
      </trkpt>
      <trkpt lat="46.22009" lon="4.76758">
        <ele>213.39999389648</ele>
        <time>2022-04-21T14:42:02.000Z</time>
      </trkpt>
      <trkpt lat="46.21998" lon="4.76795">
        <ele>212.39999389648</ele>
        <time>2022-04-21T14:42:07.000Z</time>
      </trkpt>
      <trkpt lat="46.21985" lon="4.76837">
        <ele>212</ele>
        <time>2022-04-21T14:42:13.000Z</time>
      </trkpt>
      <trkpt lat="46.21959" lon="4.76849">
        <ele>212</ele>
        <time>2022-04-21T14:42:19.000Z</time>
      </trkpt>
      <trkpt lat="46.21953" lon="4.7686">
        <ele>211.80000305176</ele>
        <time>2022-04-21T14:42:21.000Z</time>
      </trkpt>
      <trkpt lat="46.21948" lon="4.76875">
        <ele>211.60000610352</ele>
        <time>2022-04-21T14:42:23.000Z</time>
      </trkpt>
      <trkpt lat="46.21942" lon="4.76889">
        <ele>211.39999389648</ele>
        <time>2022-04-21T14:42:25.000Z</time>
      </trkpt>
      <trkpt lat="46.21927" lon="4.76924">
        <ele>210.39999389648</ele>
        <time>2022-04-21T14:42:30.000Z</time>
      </trkpt>
      <trkpt lat="46.21913" lon="4.76929">
        <ele>210</ele>
        <time>2022-04-21T14:42:34.000Z</time>
      </trkpt>
      <trkpt lat="46.21891" lon="4.76894">
        <ele>210.39999389648</ele>
        <time>2022-04-21T14:42:41.000Z</time>
      </trkpt>
      <trkpt lat="46.2188" lon="4.76871">
        <ele>210.80000305176</ele>
        <time>2022-04-21T14:42:45.000Z</time>
      </trkpt>
      <trkpt lat="46.21832" lon="4.7677">
        <ele>210.60000610352</ele>
        <time>2022-04-21T14:43:01.000Z</time>
      </trkpt>
      <trkpt lat="46.21815" lon="4.76749">
        <ele>210.60000610352</ele>
        <time>2022-04-21T14:43:05.000Z</time>
      </trkpt>
      <trkpt lat="46.21747" lon="4.76658">
        <ele>209.80000305176</ele>
        <time>2022-04-21T14:43:23.000Z</time>
      </trkpt>
      <trkpt lat="46.21721" lon="4.76623">
        <ele>209.60000610352</ele>
        <time>2022-04-21T14:43:31.000Z</time>
      </trkpt>
      <trkpt lat="46.21702" lon="4.7664">
        <ele>208.60000610352</ele>
        <time>2022-04-21T14:43:38.000Z</time>
      </trkpt>
      <trkpt lat="46.21687" lon="4.76663">
        <ele>207.60000610352</ele>
        <time>2022-04-21T14:43:44.000Z</time>
      </trkpt>
      <trkpt lat="46.21684" lon="4.76663">
        <ele>207.39999389648</ele>
        <time>2022-04-21T14:43:45.000Z</time>
      </trkpt>
      <trkpt lat="46.21682" lon="4.76659">
        <ele>207.39999389648</ele>
        <time>2022-04-21T14:43:46.000Z</time>
      </trkpt>
      <trkpt lat="46.21679" lon="4.76654">
        <ele>207.39999389648</ele>
        <time>2022-04-21T14:43:47.000Z</time>
      </trkpt>
      <trkpt lat="46.21642" lon="4.76543">
        <ele>205</ele>
        <time>2022-04-21T14:44:00.000Z</time>
      </trkpt>
      <trkpt lat="46.21618" lon="4.76471">
        <ele>203</ele>
        <time>2022-04-21T14:44:07.000Z</time>
      </trkpt>
      <trkpt lat="46.21584" lon="4.76373">
        <ele>201.39999389648</ele>
        <time>2022-04-21T14:44:16.000Z</time>
      </trkpt>
      <trkpt lat="46.21564" lon="4.76317">
        <ele>199.39999389648</ele>
        <time>2022-04-21T14:44:21.000Z</time>
      </trkpt>
      <trkpt lat="46.2154" lon="4.7628">
        <ele>198</ele>
        <time>2022-04-21T14:44:25.000Z</time>
      </trkpt>
      <trkpt lat="46.21474" lon="4.76214">
        <ele>194.19999694824</ele>
        <time>2022-04-21T14:44:34.000Z</time>
      </trkpt>
      <trkpt lat="46.21441" lon="4.76173">
        <ele>193</ele>
        <time>2022-04-21T14:44:39.000Z</time>
      </trkpt>
      <trkpt lat="46.21418" lon="4.76139">
        <ele>192.60000610352</ele>
        <time>2022-04-21T14:44:43.000Z</time>
      </trkpt>
      <trkpt lat="46.21398" lon="4.76104">
        <ele>192.19999694824</ele>
        <time>2022-04-21T14:44:47.000Z</time>
      </trkpt>
      <trkpt lat="46.21376" lon="4.7603">
        <ele>191.39999389648</ele>
        <time>2022-04-21T14:44:55.000Z</time>
      </trkpt>
      <trkpt lat="46.2137" lon="4.75978">
        <ele>190.80000305176</ele>
        <time>2022-04-21T14:45:01.000Z</time>
      </trkpt>
      <trkpt lat="46.2137" lon="4.75929">
        <ele>190.80000305176</ele>
        <time>2022-04-21T14:45:07.000Z</time>
      </trkpt>
      <trkpt lat="46.21373" lon="4.75907">
        <ele>191</ele>
        <time>2022-04-21T14:45:10.000Z</time>
      </trkpt>
      <trkpt lat="46.21372" lon="4.75888">
        <ele>190.80000305176</ele>
        <time>2022-04-21T14:45:13.000Z</time>
      </trkpt>
      <trkpt lat="46.21374" lon="4.75867">
        <ele>191</ele>
        <time>2022-04-21T14:45:17.000Z</time>
      </trkpt>
      <trkpt lat="46.21374" lon="4.75848">
        <ele>191.19999694824</ele>
        <time>2022-04-21T14:45:20.000Z</time>
      </trkpt>
      <trkpt lat="46.21384" lon="4.75791">
        <ele>191.60000610352</ele>
        <time>2022-04-21T14:45:28.000Z</time>
      </trkpt>
      <trkpt lat="46.21387" lon="4.75768">
        <ele>191.60000610352</ele>
        <time>2022-04-21T14:45:31.000Z</time>
      </trkpt>
      <trkpt lat="46.21396" lon="4.75734">
        <ele>191.39999389648</ele>
        <time>2022-04-21T14:45:36.000Z</time>
      </trkpt>
      <trkpt lat="46.21385" lon="4.75706">
        <ele>190.80000305176</ele>
        <time>2022-04-21T14:45:42.000Z</time>
      </trkpt>
      <trkpt lat="46.21347" lon="4.75683">
        <ele>189.80000305176</ele>
        <time>2022-04-21T14:45:51.000Z</time>
      </trkpt>
      <trkpt lat="46.2129" lon="4.75646">
        <ele>190.8</ele>
        <time>2022-04-21T14:45:56.000Z</time>
      </trkpt>
      <trkpt lat="46.21257" lon="4.7562">
        <ele>193.7</ele>
        <time>2022-04-21T14:46:02.000Z</time>
      </trkpt>
      <trkpt lat="46.2124" lon="4.75634">
        <ele>194.1</ele>
        <time>2022-04-21T14:46:31.000Z</time>
      </trkpt>
    </trkseg>
  </trk>
</gpx>